CV7142 / LX-SCV 7700 Squawk Report (30th of September, 2020)

Aircraft B744 Reg No. LX-SCV Age 19 years old
Model 747 Jet engines 4 First flight 25-07-01
Registered 10-07-18 Rollout N/A Delivered 06-08-01
Construction No. 29733 Line No. 1281 Series 4R7F
ADSHEX 4D0128 Airline name Cargolux Italia Owner N/A
Airfield based Milan-Malpensa~Lombardia~I First tracked N/A

Flight history for LX-SCV

Route Flight No Date Playback
???? N/A 2020-10-20 11:59:00
???? N/A 2020-10-20 06:00:00
???? N/A 2020-10-19 17:34:00
???? N/A 2020-10-18 18:37:00
???? N/A 2020-10-17 22:30:00
Malpensa (MXP) - Kansai (KIX) - Hong Kong Intl (HKG) N/A 2020-10-17 08:21:00
???? C815 2020-10-16 08:15:00
Indianapolis Intl (IND) - Chicago Ohare Intl (ORD) - Luxembourg (LUX) CV7714 2020-10-15 15:07:00
Indianapolis Intl (IND) - Chicago Ohare Intl (ORD) N/A 2020-10-15 04:17:00
Hong Kong Intl (HKG) - Tolmachevo (OVB) - Luxembourg (LUX) N/A 2020-10-14 16:46:00
???? N/A 2020-10-13 20:58:00
???? N/A 2020-10-13 07:06:00
???? N/A 2020-10-13 03:34:00
???? N/A 2020-10-12 12:22:00
???? N/A 2020-10-12 00:27:00
???? N/A 2020-10-10 21:55:00
Malpensa (MXP) - Kansai (KIX) - Hong Kong Intl (HKG) N/A 2020-10-10 06:42:00
???? C815 2020-10-09 07:10:00
Chicago Ohare Intl (ORD) - Hartsfield Jackson Atlanta Intl (ATL) - Luxembourg (LUX) CV8634 2020-10-09 06:13:00
Luxembourg (LUX) - Chicago Ohare Intl (ORD) N/A 2020-10-08 04:39:00
Time Lat Lon Altitude Heading Speed Vertical Rate
2020-09-30 09:09:09 GMT 49.635372 6.226700 0 239 0
2020-09-30 09:08:54 GMT 49.635368 6.226706 0 239 0
We lost coverage of the aircraft here for a total of 58 minutes
2020-09-30 08:10:49 GMT 49.635380 6.226706 0 239 0 0
2020-09-30 08:10:41 GMT 49.635372 6.226700 0 239 0 0
2020-09-30 08:10:32 GMT 49.635380 6.226706 0 239 0 0
2020-09-30 08:10:20 GMT 49.635418 6.226791 0 239 3 0
2020-09-30 08:10:11 GMT 49.635475 6.226971 0 241 4 0
2020-09-30 08:10:01 GMT 49.635578 6.227224 0 241 4 0
2020-09-30 08:09:51 GMT 49.635647 6.227441 0 241 4 0
2020-09-30 08:09:40 GMT 49.635811 6.227671 0 281 6 0
2020-09-30 08:09:30 GMT 49.635742 6.228042 0 329 8 0
2020-09-30 08:09:20 GMT 49.635429 6.228308 0 334 9 0
2020-09-30 08:09:10 GMT 49.635132 6.228579 0 348 7 0
2020-09-30 08:09:01 GMT 49.634834 6.228634 0 45 7 0
2020-09-30 08:08:50 GMT 49.634602 6.228190 0 61 8 0
2020-09-30 08:08:40 GMT 49.634445 6.227748 0 59 6 0
2020-09-30 08:08:30 GMT 49.634346 6.227466 0 59 3 0
2020-09-30 08:08:18 GMT 49.634289 6.227318 0 61 0 0
2020-09-30 08:08:09 GMT 49.634266 6.227262 0 59 0 0
2020-09-30 08:08:01 GMT 49.634262 6.227260 0 59 0 0
2020-09-30 08:07:39 GMT 49.634266 6.227262 0 59 0 0
2020-09-30 08:07:30 GMT 49.634228 6.227152 0 59 7 0
2020-09-30 08:07:19 GMT 49.633987 6.226520 0 59 12 0
2020-09-30 08:07:11 GMT 49.633751 6.225889 0 59 11 0
2020-09-30 08:06:59 GMT 49.633495 6.225182 0 61 9 0
2020-09-30 08:06:49 GMT 49.633308 6.224646 0 64 8 0
2020-09-30 08:06:39 GMT 49.633171 6.224237 0 64 6 0
2020-09-30 08:06:30 GMT 49.633099 6.223996 0 64 0 0
2020-09-30 08:05:56 GMT 49.633064 6.223885 0 64 0 0
2020-09-30 08:05:40 GMT 49.633072 6.223881 0 64 0 0
2020-09-30 08:05:35 GMT 49.633064 6.223885 0 64 0 0
2020-09-30 08:05:19 GMT 49.633072 6.223881 0 64 0 0
2020-09-30 08:05:14 GMT 49.633064 6.223885 0 64 0 0
2020-09-30 08:04:55 GMT 49.633072 6.223881 0 64 0 0
2020-09-30 08:04:44 GMT 49.633064 6.223885 0 64 0 0
2020-09-30 08:04:10 GMT 49.633072 6.223881 0 64 0 0
2020-09-30 08:04:04 GMT 49.633060 6.223881 0 64 0 0
2020-09-30 08:03:55 GMT 49.633064 6.223885 0 64 0 0
2020-09-30 08:03:44 GMT 49.633060 6.223881 0 64 0 0
2020-09-30 08:03:25 GMT 49.633064 6.223885 0 64 0 0
2020-09-30 08:02:54 GMT 49.633060 6.223881 0 64 0 0
2020-09-30 08:02:39 GMT 49.633064 6.223885 0 64 0 0
2020-09-30 08:02:24 GMT 49.633060 6.223881 0 64 0 0
2020-09-30 08:02:04 GMT 49.633064 6.223885 0 64 0 0
2020-09-30 08:01:54 GMT 49.633060 6.223881 0 64 0 0
2020-09-30 08:01:44 GMT 49.633064 6.223885 0 64 0 0
2020-09-30 08:01:25 GMT 49.633060 6.223881 0 64 0 0
2020-09-30 08:00:44 GMT 49.633064 6.223885 0 64 0 0
2020-09-30 08:00:34 GMT 49.633060 6.223881 0 64 0 0
2020-09-30 08:00:24 GMT 49.633064 6.223885 0 64 0 0
2020-09-30 08:00:09 GMT 49.633060 6.223881 0 64 0 0
2020-09-30 07:59:44 GMT 49.633064 6.223885 0 64 0 0
2020-09-30 07:59:39 GMT 49.633060 6.223881 0 64 0 0
2020-09-30 07:59:34 GMT 49.633064 6.223885 0 64 0 0
2020-09-30 07:59:19 GMT 49.633060 6.223881 0 64 0 0
2020-09-30 07:59:09 GMT 49.633064 6.223885 0 64 0 0
2020-09-30 07:58:43 GMT 49.633060 6.223881 0 64 0 0
2020-09-30 07:58:32 GMT 49.632969 6.223574 0 64 15 0
2020-09-30 07:58:21 GMT 49.632656 6.222586 0 64 17 0
2020-09-30 07:58:12 GMT 49.632339 6.221568 0 64 16 0
2020-09-30 07:58:02 GMT 49.632030 6.220575 0 64 16 0
2020-09-30 07:57:52 GMT 49.631721 6.219563 0 64 18 0
2020-09-30 07:57:42 GMT 49.631344 6.218334 0 64 20 0
2020-09-30 07:57:31 GMT 49.630959 6.217074 0 64 19 0
2020-09-30 07:57:21 GMT 49.630600 6.215931 0 64 19 0
2020-09-30 07:57:10 GMT 49.630188 6.214594 0 64 18 0
2020-09-30 07:57:01 GMT 49.629890 6.213654 0 64 16 0
2020-09-30 07:56:51 GMT 49.629574 6.212620 0 64 15 0
2020-09-30 07:56:41 GMT 49.629295 6.211729 0 64 14 0
2020-09-30 07:56:36 GMT 49.629169 6.211341 0 64 16 0
2020-09-30 07:56:33 GMT 49.629055 6.210944 0 64 17 0
2020-09-30 07:56:30 GMT 49.628990 6.210764 0 64 16 0
2020-09-30 07:56:20 GMT 49.628689 6.209751 0 64 14 0
2020-09-30 07:56:12 GMT 49.628471 6.209046 0 64 13 0
2020-09-30 07:56:05 GMT 49.628319 6.208537 0 61 11 0
2020-09-30 07:56:00 GMT 49.628197 6.208179 0 50 11 0
2020-09-30 07:55:57 GMT 49.628128 6.208016 0 42 11 0
2020-09-30 07:55:48 GMT 49.627724 6.207591 0 19 13 0
2020-09-30 07:55:42 GMT 49.627411 6.207405 0 22 13 0
2020-09-30 07:55:38 GMT 49.627174 6.207257 0 19 13 0
2020-09-30 07:55:32 GMT 49.626873 6.207090 0 19 13 0
2020-09-30 07:55:28 GMT 49.626640 6.206960 0 22 12 0
2020-09-30 07:55:20 GMT 49.626259 6.206737 0 19 11 0
2020-09-30 07:55:10 GMT 49.625839 6.206496 0 19 9 0
2020-09-30 07:55:06 GMT 49.625702 6.206408 0 22 9 0
2020-09-30 07:55:01 GMT 49.625408 6.206236 0 22 8 0
2020-09-30 07:54:57 GMT 49.625408 6.206236 0 22 7 0
2020-09-30 07:54:50 GMT 49.625210 6.206083 0 14 6 0
2020-09-30 07:54:47 GMT 49.625141 6.206047 0 11 6 0
2020-09-30 07:54:39 GMT 49.624977 6.205958 0 354 5 0
2020-09-30 07:54:36 GMT 49.624901 6.205920 0 340 5 0
2020-09-30 07:54:29 GMT 49.624786 6.205920 0 315 4 0
2020-09-30 07:54:26 GMT 49.624744 6.205939 0 306 5 0
2020-09-30 07:54:18 GMT 49.624626 6.206106 0 286 7 0
2020-09-30 07:54:15 GMT 49.624569 6.206245 0 258 7 0
2020-09-30 07:54:09 GMT 49.624615 6.206589 0 241 15 0
2020-09-30 07:54:05 GMT 49.624744 6.206960 0 239 25 0
2020-09-30 07:53:59 GMT 49.625187 6.208092 0 239 41 0
2020-09-30 07:53:51 GMT 49.626080 6.210438 0 241 57 0
2020-09-30 07:53:48 GMT 49.626331 6.211142 0 241 66 0
2020-09-30 07:53:45 GMT 49.626892 6.212696 1,125 239 84 0
2020-09-30 07:53:38 GMT 49.628265 6.216382 1,125 241 104 -64
2020-09-30 07:53:28 GMT 49.631203 6.224275 1,125 241 157 -192
2020-09-30 07:53:18 GMT 49.635132 6.234813 1,175 241 164 -704
2020-09-30 07:53:08 GMT 49.638794 6.244716 1,300 241 163 -896
2020-09-30 07:53:03 GMT 49.640839 6.250256 1,400 241 163 -896
2020-09-30 07:52:58 GMT 49.642639 6.255124 1,475 241 163 -832
2020-09-30 07:52:54 GMT 49.644238 6.259386 1,550 241 164 -832
2020-09-30 07:52:48 GMT 49.646564 6.265622 1,625 240 163 -832
2020-09-30 07:52:43 GMT 49.648102 6.269779 1,700 241 163 -960
2020-09-30 07:52:38 GMT 49.650284 6.275651 1,750 241 163 -896
2020-09-30 07:52:34 GMT 49.651978 6.280204 1,850 241 163 -896
2020-09-30 07:52:28 GMT 49.654037 6.285842 1,925 241 163 -960
2020-09-30 07:52:23 GMT 49.655685 6.290251 2,000 241 162 -832
2020-09-30 07:52:18 GMT 49.657928 6.296322 2,075 241 162 -768
2020-09-30 07:52:13 GMT 49.659554 6.300659 2,150 241 162 -960
2020-09-30 07:52:09 GMT 49.660904 6.304371 2,200 241 162 -832
2020-09-30 07:52:06 GMT 49.661880 6.307043 2,225 241 162 -832
2020-09-30 07:52:03 GMT 49.663322 6.310977 2,300 241 162 -896
2020-09-30 07:51:57 GMT 49.665325 6.316322 2,725 241 163 -960
2020-09-30 07:51:53 GMT 49.667130 6.321186 2,450 241 163 -896
2020-09-30 07:51:50 GMT 49.668072 6.323820 2,500 241 163 -1024
2020-09-30 07:51:47 GMT 49.669235 6.326896 2,525 241 163 -1088
2020-09-30 07:51:42 GMT 49.670929 6.331450 2,600 241 163 -832
2020-09-30 07:51:37 GMT 49.672943 6.336943 2,650 241 163 -640
2020-09-30 07:51:33 GMT 49.674404 6.340967 2,750 241 164 -832
2020-09-30 07:51:29 GMT 49.676010 6.345255 2,775 241 166 -1024
2020-09-30 07:51:25 GMT 49.677292 6.348761 2,850 241 167 -1024
2020-09-30 07:51:21 GMT 49.678711 6.352700 2,900 241 169 -640
2020-09-30 07:51:17 GMT 49.680634 6.357831 2,925 240 169 -128
2020-09-30 07:51:11 GMT 49.682690 6.363311 2,925 241 171 128
2020-09-30 07:51:06 GMT 49.684971 6.369695 2,925 242 173 64
2020-09-30 07:51:02 GMT 49.686584 6.374311 2,925 243 175 64
2020-09-30 07:50:57 GMT 49.688553 6.380093 2,925 240 178 128
2020-09-30 07:50:51 GMT 49.690521 6.385442 2,925 240 177 64
2020-09-30 07:50:46 GMT 49.692745 6.391222 2,900 239 178 128
2020-09-30 07:50:41 GMT 49.694824 6.396500 2,900 240 181 -256
2020-09-30 07:50:36 GMT 49.696934 6.402208 2,925 242 183 -640
2020-09-30 07:50:29 GMT 49.699631 6.411751 3,025 253 185 -448
2020-09-30 07:50:26 GMT 49.700333 6.415273 3,050 258 186 -640
2020-09-30 07:50:21 GMT 49.701096 6.421581 3,100 266 188 -768
2020-09-30 07:50:18 GMT 49.701233 6.424834 3,125 270 188 -640
2020-09-30 07:50:15 GMT 49.701218 6.428858 3,175 273 189 -640
2020-09-30 07:50:08 GMT 49.700912 6.438711 3,275 273 191 -960
2020-09-30 07:50:05 GMT 49.700798 6.442739 3,325 273 191 -1024
2020-09-30 07:50:00 GMT 49.700565 6.449494 3,400 273 192 -896
2020-09-30 07:49:55 GMT 49.700317 6.456202 3,475 275 195 -1024
2020-09-30 07:49:49 GMT 49.699821 6.463747 3,575 280 200 -960
2020-09-30 07:49:45 GMT 49.699036 6.470369 3,650 286 202 -960
2020-09-30 07:49:38 GMT 49.696423 6.480152 3,775 305 203 -832
2020-09-30 07:49:34 GMT 49.694748 6.483864 3,800 309 204 -704
2020-09-30 07:49:28 GMT 49.689972 6.490824 3,925 329 207 -1728
2020-09-30 07:49:25 GMT 49.687271 6.493354 4,025 336 209 -1792
2020-09-30 07:49:17 GMT 49.680504 6.496854 4,225 352 214 -1536
2020-09-30 07:49:14 GMT 49.678036 6.497374 4,275 356 216 -1472
2020-09-30 07:49:07 GMT 49.670773 6.496780 4,475 11 222 -1408
2020-09-30 07:49:04 GMT 49.667770 6.495739 4,525 16 224 -1408
2020-09-30 07:48:57 GMT 49.659668 6.491258 4,675 21 229 -1216
2020-09-30 07:48:54 GMT 49.657562 6.489957 4,750 21 233 -1216
2020-09-30 07:48:47 GMT 49.650570 6.485645 4,925 21 238 -1088
2020-09-30 07:48:44 GMT 49.647308 6.483668 4,950 21 240 -1152
2020-09-30 07:48:38 GMT 49.641449 6.480199 5,075 21 244 -1280
2020-09-30 07:48:34 GMT 49.636917 6.477525 5,175 21 246 -1280
2020-09-30 07:48:28 GMT 49.630505 6.473471 5,275 24 249 -1024
2020-09-30 07:48:24 GMT 49.626297 6.470369 5,400 34 256 -640
2020-09-30 07:48:16 GMT 49.618542 6.462411 5,425 42 259 -896
2020-09-30 07:48:13 GMT 49.616547 6.459527 5,450 46 261 -1024
2020-09-30 07:48:08 GMT 49.611786 6.450276 5,575 59 265 -1280
2020-09-30 07:48:04 GMT 49.609184 6.442739 5,675 64 268 -1472
2020-09-30 07:47:56 GMT 49.606430 6.430399 5,825 75 271 -1152
2020-09-30 07:47:53 GMT 49.605652 6.425340 5,850 80 274 -960
2020-09-30 07:47:50 GMT 49.604828 6.417823 5,950 80 274 -896
2020-09-30 07:47:45 GMT 49.604061 6.410522 6,000 81 275 -704
2020-09-30 07:47:42 GMT 49.603500 6.404668 6,025 81 274 -640
2020-09-30 07:47:39 GMT 49.602806 6.397383 6,400 76 285 -1216
2020-09-30 07:47:36 GMT 49.602295 6.392113 6,075 81 273 -320
2020-09-30 07:47:33 GMT 49.601734 6.386323 6,100 82 274 -512
2020-09-30 07:47:26 GMT 49.600338 6.370808 6,150 81 276 -512
2020-09-30 07:47:23 GMT 49.599976 6.366939 6,200 81 276 -640
2020-09-30 07:47:17 GMT 49.598557 6.353206 6,300 79 281 -1024
2020-09-30 07:47:13 GMT 49.597824 6.346917 6,350 78 284 -1152
2020-09-30 07:47:08 GMT 49.596428 6.337627 6,450 74 287 -1344
2020-09-30 07:47:05 GMT 49.595032 6.330944 6,550 67 291 -1664
2020-09-30 07:47:02 GMT 49.593868 6.326492 6,625 65 292 -1856
2020-09-30 07:46:55 GMT 49.588562 6.312388 6,875 53 297 -2816
2020-09-30 07:46:52 GMT 49.586746 6.308973 6,950 50 297 -3072
2020-09-30 07:46:46 GMT 49.579422 6.298419 8,225 38 295 -3392
2020-09-30 07:46:42 GMT 49.575573 6.294349 7,825 10 301 -3712
2020-09-30 07:46:37 GMT 49.570080 6.289970 8,100 25 297 -3712
2020-09-30 07:46:34 GMT 49.565285 6.287223 8,025 18 299 -3712
2020-09-30 07:46:31 GMT 49.562485 6.286059 8,275 13 301 -3712
2020-09-30 07:46:28 GMT 49.557541 6.284541 8,475 8 301 -3712
2020-09-30 07:46:25 GMT 49.553368 6.283957 8,600 1 303 -3776
2020-09-30 07:46:22 GMT 49.549458 6.283809 8,850 358 303 -3904
2020-09-30 07:46:18 GMT 49.543873 6.284477 8,975 353 303 -3968
2020-09-30 07:46:14 GMT 49.537121 6.286555 9,500 344 303 -4096
2020-09-30 07:46:08 GMT 49.529846 6.290396 9,825 337 302 -4224
2020-09-30 07:46:04 GMT 49.524693 6.293830 10,250 335 301 -4224
2020-09-30 07:46:01 GMT 49.519684 6.297551 10,375 335 301 -4224
2020-09-30 07:45:58 GMT 49.517303 6.299358 10,500 335 301 -4224
2020-09-30 07:45:55 GMT 49.513550 6.302177 10,650 335 301 -4224
2020-09-30 07:45:52 GMT 49.509514 6.305113 10,925 335 301 -4224
2020-09-30 07:45:48 GMT 49.505421 6.308157 11,150 335 301 -4160
2020-09-30 07:45:45 GMT 49.500530 6.311794 11,575 334 300 -4096
2020-09-30 07:45:41 GMT 49.494507 6.316271 11,750 334 300 -4032
2020-09-30 07:45:35 GMT 49.487549 6.321548 12,125 334 301 -3904
2020-09-30 07:45:32 GMT 49.483818 6.324413 12,325 334 301 -3840
2020-09-30 07:45:28 GMT 49.480560 6.326863 12,525 334 302 -3520
2020-09-30 07:45:25 GMT 49.475143 6.330944 12,725 334 304 -3008
2020-09-30 07:45:21 GMT 49.471062 6.334064 13,100 334 312 -1984
2020-09-30 07:45:17 GMT 49.466034 6.337849 13,025 334 312 -1984
2020-09-30 07:45:14 GMT 49.462189 6.340774 13,200 334 315 -2048
2020-09-30 07:45:11 GMT 49.456448 6.345198 13,175 334 314 -2048
2020-09-30 07:45:08 GMT 49.454632 6.346609 13,300 333 315 -2176
2020-09-30 07:45:04 GMT 49.448273 6.351688 13,475 333 316 -2368
2020-09-30 07:45:01 GMT 49.444931 6.354362 13,550 333 316 -2368
2020-09-30 07:44:58 GMT 49.440804 6.357744 13,650 332 317 -2432
2020-09-30 07:44:54 GMT 49.436241 6.361455 13,925 332 317 -2496
2020-09-30 07:44:51 GMT 49.432114 6.364842 14,000 332 317 -2432
2020-09-30 07:44:48 GMT 49.427956 6.368210 14,150 333 318 -2368
2020-09-30 07:44:45 GMT 49.424465 6.371058 14,475 333 317 -2304
2020-09-30 07:44:42 GMT 49.420975 6.373877 14,375 333 319 -2176
2020-09-30 07:44:39 GMT 49.416641 6.377352 14,500 333 319 -2048
2020-09-30 07:44:36 GMT 49.412685 6.380455 14,550 333 321 -1984
2020-09-30 07:44:33 GMT 49.408722 6.383550 14,725 333 322 -1856
2020-09-30 07:44:30 GMT 49.404774 6.386671 14,750 334 324 -1792
2020-09-30 07:44:27 GMT 49.400757 6.389817 14,925 334 326 -1728
2020-09-30 07:44:24 GMT 49.396729 6.392916 14,975 334 328 -1792
2020-09-30 07:44:21 GMT 49.392296 6.396356 15,100 334 328 -1792
2020-09-30 07:44:17 GMT 49.382847 6.403511 15,450 334 332 -2432
2020-09-30 07:44:14 GMT 49.382847 6.403511 15,200 334 331 -2048
2020-09-30 07:44:11 GMT 49.378052 6.407198 15,375 334 332 -2560
2020-09-30 07:44:08 GMT 49.373768 6.410378 15,650 334 333 -2560
2020-09-30 07:44:05 GMT 49.370361 6.412987 15,650 334 334 -2560
2020-09-30 07:44:01 GMT 49.363586 6.418128 15,875 334 334 -2560
2020-09-30 07:43:57 GMT 49.359711 6.421003 16,200 334 334 -2560
2020-09-30 07:43:54 GMT 49.355938 6.423822 15,975 334 334 -2560
2020-09-30 07:43:51 GMT 49.350262 6.428158 16,250 338 343 -1472
2020-09-30 07:43:48 GMT 49.346767 6.430760 16,400 335 336 -2304
2020-09-30 07:43:45 GMT 49.338623 6.436687 16,500 335 337 -2176
2020-09-30 07:43:42 GMT 49.338623 6.436687 16,550 336 338 -1984
2020-09-30 07:43:39 GMT 49.330032 6.442636 16,650 337 342 -1600
2020-09-30 07:43:36 GMT 49.330032 6.442636 16,700 338 343 -1472
2020-09-30 07:43:32 GMT 49.323074 6.446879 16,775 340 344 -1408
2020-09-30 07:43:29 GMT 49.320236 6.448411 16,875 343 346 -1472
2020-09-30 07:43:26 GMT 49.315022 6.450782 16,950 358 360 -1536
2020-09-30 07:43:23 GMT 49.310577 6.452355 17,050 351 353 -1472
2020-09-30 07:43:20 GMT 49.304947 6.453834 17,075 353 355 -1536
2020-09-30 07:43:17 GMT 49.299706 6.454829 17,175 357 358 -1600
2020-09-30 07:43:11 GMT 49.291077 6.455383 17,325 0 361 -1472
2020-09-30 07:43:08 GMT 49.280247 6.454829 17,500 3 362 -1408
2020-09-30 07:43:05 GMT 49.280247 6.454829 17,450 3 362 -1472
2020-09-30 07:43:02 GMT 49.275558 6.454397 17,675 3 362 -1472
2020-09-30 07:42:59 GMT 49.270191 6.453817 17,700 3 363 -1472
2020-09-30 07:42:56 GMT 49.264160 6.453200 17,725 3 364 -1472
2020-09-30 07:42:50 GMT 49.254044 6.452144 17,800 3 365 -1472
2020-09-30 07:42:44 GMT 49.245609 6.451288 17,975 3 368 -1984
2020-09-30 07:42:41 GMT 49.240128 6.450735 18,150 3 369 -2368
2020-09-30 07:42:38 GMT 49.235043 6.450203 18,250 3 369 -2496
2020-09-30 07:42:35 GMT 49.229408 6.449625 18,275 3 369 -2560
2020-09-30 07:42:32 GMT 49.223282 6.449045 18,475 3 370 -1728
2020-09-30 07:42:29 GMT 49.219849 6.448693 18,550 3 371 -1408
2020-09-30 07:42:25 GMT 49.212978 6.447963 18,650 3 371 -1216
2020-09-30 07:42:22 GMT 49.207855 6.447496 18,700 3 371 -1216
2020-09-30 07:42:19 GMT 49.202690 6.446951 18,725 3 371 -1216
2020-09-30 07:42:15 GMT 49.195988 6.446300 19,525 3 374 -448
2020-09-30 07:42:12 GMT 49.190826 6.445735 19,750 3 373 -704
2020-09-30 07:42:09 GMT 49.179646 6.444638 18,950 3 373 -640
2020-09-30 07:42:06 GMT 49.179646 6.444638 19,000 3 374 -448
2020-09-30 07:42:03 GMT 49.176041 6.444256 19,525 3 374 -448
2020-09-30 07:42:00 GMT 49.164471 6.443048 19,025 3 376 0
2020-09-30 07:41:57 GMT 49.164471 6.443048 19,000 3 376 -128
2020-09-30 07:41:54 GMT 49.158371 6.442397 19,025 3 377 -448
2020-09-30 07:41:51 GMT 49.154343 6.442003 19,075 3 379 -896
2020-09-30 07:41:48 GMT 49.148941 6.441439 19,075 3 379 -960
2020-09-30 07:41:45 GMT 49.142120 6.440735 19,175 3 380 -1024
2020-09-30 07:41:42 GMT 49.138214 6.440373 19,200 3 381 -1024
2020-09-30 07:41:39 GMT 49.131180 6.439608 19,250 3 381 -1024
2020-09-30 07:41:36 GMT 49.127834 6.439289 19,275 3 382 -1024
2020-09-30 07:41:33 GMT 49.117767 6.438270 19,400 3 384 -1024
2020-09-30 07:41:30 GMT 49.117767 6.438270 19,425 3 384 -1024
2020-09-30 07:41:27 GMT 49.112427 6.437699 19,475 3 384 -1024
2020-09-30 07:41:24 GMT 49.105862 6.437049 19,525 3 385 -960
2020-09-30 07:41:21 GMT 49.101578 6.436615 19,600 3 385 -960
2020-09-30 07:41:18 GMT 49.096069 6.436016 19,625 3 384 -1024
2020-09-30 07:41:15 GMT 49.090919 6.435459 19,675 3 384 -960
2020-09-30 07:41:12 GMT 49.084167 6.434749 19,750 3 384 -960
2020-09-30 07:41:09 GMT 49.078861 6.434230 19,775 3 383 -448
2020-09-30 07:41:06 GMT 49.075649 6.433941 20,375 3 383 -576
2020-09-30 07:41:03 GMT 49.065216 6.432847 19,850 3 384 -1024
2020-09-30 07:41:00 GMT 49.057388 6.432073 19,875 3 384 -1024
2020-09-30 07:40:57 GMT 49.057388 6.432073 19,925 3 385 -1024
2020-09-30 07:40:54 GMT 49.051895 6.431509 20,000 3 385 -1344
2020-09-30 07:40:51 GMT 49.046692 6.430977 20,050 3 385 -1472
2020-09-30 07:40:48 GMT 49.042099 6.430523 20,100 3 385 -1408
2020-09-30 07:40:44 GMT 49.033520 6.429604 20,225 4 385 -1024
2020-09-30 07:40:41 GMT 49.029095 6.429170 20,250 4 385 -1024
2020-09-30 07:40:38 GMT 49.023743 6.428551 20,325 4 386 -1024
2020-09-30 07:40:35 GMT 49.019646 6.428158 20,325 4 386 -1024
2020-09-30 07:40:32 GMT 49.012344 6.427354 20,400 4 386 -960
2020-09-30 07:40:29 GMT 49.008568 6.427002 20,425 4 386 -960
2020-09-30 07:40:26 GMT 49.003235 6.426439 20,475 3 386 -960
2020-09-30 07:40:23 GMT 48.998234 6.425918 20,550 3 386 -960
2020-09-30 07:40:20 GMT 48.992523 6.425312 20,575 3 386 -960
2020-09-30 07:40:17 GMT 48.987198 6.424761 20,700 3 383 -1344
2020-09-30 07:40:13 GMT 48.979889 6.423966 20,700 3 386 -1024
2020-09-30 07:40:10 GMT 48.975266 6.423551 20,850 3 386 -1024
2020-09-30 07:40:07 GMT 48.968857 6.422882 21,700 3 383 -1344
2020-09-30 07:40:04 GMT 48.964203 6.422376 20,800 3 385 -960
2020-09-30 07:40:01 GMT 48.958710 6.421798 21,100 3 385 -1024
2020-09-30 07:39:58 GMT 48.953171 6.421220 21,100 3 385 -1024
2020-09-30 07:39:55 GMT 48.947845 6.420664 21,000 3 385 -1024
2020-09-30 07:39:52 GMT 48.943207 6.420208 21,075 3 385 -960
2020-09-30 07:39:49 GMT 48.938049 6.419678 21,075 3 385 -960
2020-09-30 07:39:46 GMT 48.926125 6.418473 21,175 3 384 -1216
2020-09-30 07:39:43 GMT 48.926125 6.418473 21,200 3 384 -1280
2020-09-30 07:39:40 GMT 48.921524 6.417988 21,300 3 383 -1344
2020-09-30 07:39:37 GMT 48.914066 6.417244 21,325 3 383 -1344
2020-09-30 07:39:34 GMT 48.911972 6.417100 21,400 3 383 -1344
2020-09-30 07:39:31 GMT 48.906647 6.416509 21,450 3 382 -1344
2020-09-30 07:39:28 GMT 48.899048 6.415804 21,550 3 382 -1344
2020-09-30 07:39:25 GMT 48.894287 6.415311 21,700 3 381 -1408
2020-09-30 07:39:21 GMT 48.889019 6.414787 21,725 3 381 -1344
2020-09-30 07:39:18 GMT 48.883392 6.414185 21,725 3 381 -1344
2020-09-30 07:39:15 GMT 48.877213 6.413551 21,800 3 381 -1408
2020-09-30 07:39:12 GMT 48.870865 6.412980 21,900 3 381 -1408
2020-09-30 07:39:09 GMT 48.866116 6.412474 21,950 3 381 -1408
2020-09-30 07:39:05 GMT 48.859772 6.411861 22,075 3 382 -1728
2020-09-30 07:39:02 GMT 48.854324 6.411297 22,125 3 382 -1856
2020-09-30 07:38:59 GMT 48.850243 6.410884 22,225 3 383 -1920
2020-09-30 07:38:56 GMT 48.842979 6.410089 22,350 3 383 -1920
2020-09-30 07:38:53 GMT 48.838760 6.409677 22,475 3 383 -1856
2020-09-30 07:38:50 GMT 48.832901 6.409114 22,575 3 384 -1792
2020-09-30 07:38:47 GMT 48.828316 6.408643 22,625 3 384 -1792
2020-09-30 07:38:44 GMT 48.822266 6.407993 22,700 3 384 -1728
2020-09-30 07:38:40 GMT 48.810207 6.406836 22,900 3 385 -1792
2020-09-30 07:38:37 GMT 48.810207 6.406836 22,950 3 386 -1856
2020-09-30 07:38:34 GMT 48.804668 6.406258 23,000 3 386 -1856
2020-09-30 07:38:30 GMT 48.797733 6.405535 23,150 3 386 -1856
2020-09-30 07:38:27 GMT 48.792191 6.404957 23,225 3 387 -1600
2020-09-30 07:38:24 GMT 48.787903 6.404536 23,300 3 388 -1536
2020-09-30 07:38:21 GMT 48.780739 6.403728 23,375 3 389 -1536
2020-09-30 07:38:18 GMT 48.776779 6.403339 24,025 3 393 0
2020-09-30 07:38:15 GMT 48.771011 6.402789 23,475 3 390 -1600
2020-09-30 07:38:12 GMT 48.765793 6.402212 23,600 3 390 -1984
2020-09-30 07:38:09 GMT 48.759277 6.401560 23,750 3 390 -2176
2020-09-30 07:38:04 GMT 48.751190 6.400733 23,900 3 391 -1600
2020-09-30 07:38:01 GMT 48.743217 6.399898 23,975 3 392 -960
2020-09-30 07:37:57 GMT 48.737091 6.399254 24,025 3 393 -320
2020-09-30 07:37:54 GMT 48.731998 6.398741 24,025 3 393 -128
2020-09-30 07:37:51 GMT 48.727810 6.398307 24,025 3 394 0
2020-09-30 07:37:48 GMT 48.720688 6.397585 24,025 3 394 0
2020-09-30 07:37:44 GMT 48.713791 6.396860 24,025 3 394 0
2020-09-30 07:37:41 GMT 48.709236 6.396428 24,025 3 394 0
2020-09-30 07:37:37 GMT 48.702164 6.395733 24,025 3 394 0
2020-09-30 07:37:34 GMT 48.695801 6.395029 24,025 3 393 0
2020-09-30 07:37:31 GMT 48.691265 6.394621 24,025 3 393 0
2020-09-30 07:37:28 GMT 48.685776 6.394043 24,025 3 393 0
2020-09-30 07:37:25 GMT 48.680511 6.393480 24,025 3 393 0
2020-09-30 07:37:22 GMT 48.673996 6.392887 24,025 3 393 0
2020-09-30 07:37:19 GMT 48.668518 6.392353 24,025 3 393 0
2020-09-30 07:37:16 GMT 48.663986 6.391875 24,025 3 393 0
2020-09-30 07:37:13 GMT 48.648697 6.390381 24,025 3 393 0
2020-09-30 07:37:09 GMT 48.645271 6.389995 24,025 3 393 0
2020-09-30 07:37:06 GMT 48.645271 6.389995 24,025 3 393 0
2020-09-30 07:37:03 GMT 48.639641 6.389489 24,025 3 393 0
2020-09-30 07:36:59 GMT 48.632355 6.388761 24,025 3 393 0
2020-09-30 07:36:56 GMT 48.627090 6.388268 24,025 3 393 0
2020-09-30 07:36:53 GMT 48.621460 6.387705 24,025 3 393 0
2020-09-30 07:36:50 GMT 48.615993 6.387177 24,025 3 393 0
2020-09-30 07:36:47 GMT 48.610359 6.386598 24,025 3 393 0
2020-09-30 07:36:44 GMT 48.604725 6.386092 24,025 3 393 0
2020-09-30 07:36:41 GMT 48.601093 6.385731 24,025 3 393 0
2020-09-30 07:36:38 GMT 48.595276 6.385169 24,025 3 393 0
2020-09-30 07:36:34 GMT 48.585686 6.384213 24,025 3 393 0
2020-09-30 07:36:31 GMT 48.576233 6.383268 24,025 3 393 0
2020-09-30 07:36:28 GMT 48.576233 6.383268 24,025 3 393 0
2020-09-30 07:36:25 GMT 48.571152 6.382775 24,025 3 393 0
2020-09-30 07:36:22 GMT 48.565716 6.382262 24,025 3 393 0
2020-09-30 07:36:19 GMT 48.558792 6.381578 24,025 3 393 0
2020-09-30 07:36:16 GMT 48.555359 6.381226 24,025 3 394 0
2020-09-30 07:36:13 GMT 48.549133 6.380592 24,025 3 394 0
2020-09-30 07:36:10 GMT 48.543510 6.380093 24,025 3 394 0
2020-09-30 07:36:06 GMT 48.537323 6.379465 24,025 3 395 0
2020-09-30 07:36:03 GMT 48.531265 6.378864 24,025 3 395 0
2020-09-30 07:36:00 GMT 48.521210 6.377845 24,025 3 397 -64
2020-09-30 07:35:57 GMT 48.521210 6.377845 24,025 3 397 0
2020-09-30 07:35:54 GMT 48.514973 6.377274 24,025 3 398 -64
2020-09-30 07:35:50 GMT 48.505428 6.376262 24,025 3 419 -64
2020-09-30 07:35:46 GMT 48.499695 6.375732 24,025 3 402 -64
2020-09-30 07:35:42 GMT 48.492626 6.375034 24,050 3 403 -64
2020-09-30 07:35:39 GMT 48.487972 6.374600 24,050 3 408 128
2020-09-30 07:35:35 GMT 48.479919 6.373805 24,025 3 407 64
2020-09-30 07:35:32 GMT 48.474098 6.373227 24,025 3 410 128
2020-09-30 07:35:29 GMT 48.468384 6.372634 24,025 3 413 0
2020-09-30 07:35:26 GMT 48.462650 6.372070 24,025 3 414 -64
2020-09-30 07:35:23 GMT 48.454361 6.371275 24,025 3 420 0
2020-09-30 07:35:20 GMT 48.449936 6.370873 24,025 3 421 0
2020-09-30 07:35:16 GMT 48.441559 6.370047 24,025 3 422 0
2020-09-30 07:35:12 GMT 48.434345 6.369324 24,025 3 422 0
2020-09-30 07:35:09 GMT 48.429657 6.368831 24,025 3 423 0
2020-09-30 07:35:06 GMT 48.424011 6.368312 24,025 3 423 0
2020-09-30 07:35:03 GMT 48.416004 6.367517 24,025 3 423 0
2020-09-30 07:35:00 GMT 48.410324 6.366939 24,025 3 423 0
2020-09-30 07:34:57 GMT 48.397800 6.365710 24,025 3 424 0
2020-09-30 07:34:53 GMT 48.397800 6.365710 24,025 3 423 0
2020-09-30 07:34:50 GMT 48.391750 6.365132 24,025 3 424 0
2020-09-30 07:34:47 GMT 48.386070 6.364553 24,025 3 424 0
2020-09-30 07:34:44 GMT 48.380951 6.364112 24,025 3 424 0
2020-09-30 07:34:41 GMT 48.374680 6.363478 24,025 3 424 0
2020-09-30 07:34:38 GMT 48.369217 6.362963 24,025 3 424 0
2020-09-30 07:34:35 GMT 48.364105 6.362422 24,025 3 424 0
2020-09-30 07:34:32 GMT 48.356506 6.361718 24,025 3 424 0
2020-09-30 07:34:29 GMT 48.351608 6.361225 24,025 3 424 0
2020-09-30 07:34:26 GMT 48.345337 6.360578 24,025 3 424 0
2020-09-30 07:34:23 GMT 48.331650 6.359205 24,025 3 424 0
2020-09-30 07:34:20 GMT 48.331650 6.359205 24,025 3 424 0
2020-09-30 07:34:17 GMT 48.326752 6.358760 24,025 3 424 0
2020-09-30 07:34:14 GMT 48.322632 6.358337 24,025 3 424 0
2020-09-30 07:34:11 GMT 48.315590 6.357615 24,025 3 424 0
2020-09-30 07:34:07 GMT 48.307163 6.356820 24,025 3 424 0
2020-09-30 07:34:01 GMT 48.294846 6.355591 24,025 3 424 0
2020-09-30 07:33:58 GMT 48.291092 6.355239 24,025 3 423 0
2020-09-30 07:33:55 GMT 48.283283 6.354507 24,025 3 423 0
2020-09-30 07:33:52 GMT 48.276627 6.353830 24,025 3 423 0
2020-09-30 07:33:49 GMT 48.273514 6.353548 24,025 3 423 0
2020-09-30 07:33:46 GMT 48.265686 6.352772 24,025 3 423 0
2020-09-30 07:33:42 GMT 48.259216 6.352121 24,025 3 423 0
2020-09-30 07:33:39 GMT 48.252747 6.351543 24,025 3 423 0
2020-09-30 07:33:35 GMT 48.245316 6.350802 24,025 3 423 0
2020-09-30 07:33:32 GMT 48.239639 6.350239 24,025 3 423 0
2020-09-30 07:33:29 GMT 48.232407 6.349534 24,025 3 423 0
2020-09-30 07:33:26 GMT 48.227745 6.349086 24,025 3 423 0
2020-09-30 07:33:22 GMT 48.219910 6.348337 24,025 3 423 0
2020-09-30 07:33:19 GMT 48.214233 6.347774 24,025 3 423 0
2020-09-30 07:33:15 GMT 48.205261 6.346917 24,025 3 423 0
2020-09-30 07:33:12 GMT 48.199951 6.346436 24,025 3 423 0
2020-09-30 07:33:09 GMT 48.194687 6.345872 24,025 3 423 0
2020-09-30 07:33:04 GMT 48.184361 6.344894 24,025 3 423 0
2020-09-30 07:33:01 GMT 48.179657 6.344460 24,025 3 423 0
2020-09-30 07:32:58 GMT 48.171043 6.343593 24,025 3 422 0
2020-09-30 07:32:55 GMT 48.168137 6.343337 24,025 3 423 0
2020-09-30 07:32:52 GMT 48.161682 6.342703 24,025 3 422 0
2020-09-30 07:32:49 GMT 48.155640 6.342133 24,025 3 422 0
2020-09-30 07:32:45 GMT 48.147263 6.341309 24,025 3 422 0
2020-09-30 07:32:42 GMT 48.141586 6.340759 24,025 3 422 0
2020-09-30 07:32:39 GMT 48.135910 6.340210 24,025 3 422 0
2020-09-30 07:32:36 GMT 48.121902 6.338837 24,025 3 422 0
2020-09-30 07:32:32 GMT 48.121902 6.338837 24,025 3 422 0
2020-09-30 07:32:29 GMT 48.116207 6.338337 24,025 3 422 0
2020-09-30 07:32:25 GMT 48.107437 6.337463 24,025 3 422 0
2020-09-30 07:32:22 GMT 48.097137 6.336433 24,025 3 422 0
2020-09-30 07:32:16 GMT 48.091461 6.335884 24,025 3 422 0
2020-09-30 07:32:13 GMT 48.085251 6.335308 24,025 3 422 0
2020-09-30 07:32:10 GMT 48.077042 6.334511 24,025 3 421 0
2020-09-30 07:32:07 GMT 48.071823 6.334030 24,025 3 421 0
2020-09-30 07:32:04 GMT 48.068481 6.333687 24,025 3 421 0
2020-09-30 07:32:01 GMT 48.061695 6.333055 24,025 3 421 0
2020-09-30 07:31:57 GMT 48.052551 6.332108 24,025 3 421 0
2020-09-30 07:31:53 GMT 48.045914 6.331505 24,025 3 421 0
2020-09-30 07:31:50 GMT 48.039490 6.330872 24,025 3 421 0
2020-09-30 07:31:47 GMT 48.035019 6.330460 24,025 3 421 0
2020-09-30 07:31:44 GMT 48.028976 6.329842 24,025 3 421 0
2020-09-30 07:31:41 GMT 48.022156 6.329224 24,025 3 421 0
2020-09-30 07:31:38 GMT 48.015381 6.328537 24,025 3 421 0
2020-09-30 07:31:34 GMT 48.009556 6.327984 24,025 3 421 0
2020-09-30 07:31:30 GMT 48.001175 6.327209 24,025 3 421 0
2020-09-30 07:31:27 GMT 47.993408 6.326408 24,025 3 421 0
2020-09-30 07:31:24 GMT 47.991261 6.326224 24,025 3 421 0
2020-09-30 07:31:21 GMT 47.982513 6.325378 24,025 3 421 0
2020-09-30 07:31:18 GMT 47.978226 6.324956 24,025 3 421 0
2020-09-30 07:31:15 GMT 47.972359 6.324392 24,025 3 421 0
2020-09-30 07:31:12 GMT 47.965935 6.323829 24,025 3 421 0
2020-09-30 07:31:09 GMT 47.960495 6.323250 24,025 3 421 0
2020-09-30 07:31:06 GMT 47.952717 6.322491 24,025 3 421 0
2020-09-30 07:31:03 GMT 47.950195 6.322220 24,025 3 421 0
2020-09-30 07:31:00 GMT 47.943405 6.321575 24,025 3 421 0
2020-09-30 07:30:57 GMT 47.937744 6.321053 24,025 3 421 0
2020-09-30 07:30:52 GMT 47.926071 6.319885 24,025 3 421 0
2020-09-30 07:30:49 GMT 47.922176 6.319533 24,025 3 421 0
2020-09-30 07:30:46 GMT 47.911098 6.318477 24,025 3 421 0
2020-09-30 07:30:43 GMT 47.911098 6.318477 24,025 3 421 0
2020-09-30 07:30:40 GMT 47.897690 6.317207 24,025 3 421 0
2020-09-30 07:30:32 GMT 47.886986 6.316153 24,025 3 421 0
2020-09-30 07:30:29 GMT 47.881348 6.315628 24,025 3 421 0
2020-09-30 07:30:26 GMT 47.876698 6.315167 24,025 3 421 0
2020-09-30 07:30:23 GMT 47.872192 6.314735 24,025 3 420 0
2020-09-30 07:30:20 GMT 47.863861 6.313980 24,025 3 420 0
2020-09-30 07:30:17 GMT 47.859192 6.313547 24,025 3 420 0
2020-09-30 07:30:14 GMT 47.853558 6.312984 24,025 3 420 0
2020-09-30 07:30:11 GMT 47.845779 6.312263 24,025 3 420 0
2020-09-30 07:30:07 GMT 47.840149 6.311714 24,025 3 420 0
2020-09-30 07:30:03 GMT 47.832596 6.310959 24,025 3 420 0
2020-09-30 07:30:00 GMT 47.826965 6.310410 24,025 3 420 0
2020-09-30 07:29:57 GMT 47.820557 6.309792 24,025 3 420 0
2020-09-30 07:29:53 GMT 47.812958 6.309105 24,025 3 420 0
2020-09-30 07:29:50 GMT 47.806961 6.308487 24,025 3 420 0
2020-09-30 07:29:47 GMT 47.801140 6.307983 24,025 3 420 0
2020-09-30 07:29:42 GMT 47.791031 6.306976 24,025 3 420 0
2020-09-30 07:29:39 GMT 47.784058 6.306364 24,025 3 420 0
2020-09-30 07:29:36 GMT 47.780182 6.305946 24,025 3 419 0
2020-09-30 07:29:32 GMT 47.772995 6.305260 24,025 3 420 0
2020-09-30 07:29:29 GMT 47.764877 6.304533 24,025 3 420 0
2020-09-30 07:29:26 GMT 47.760780 6.304110 24,025 3 420 0
2020-09-30 07:29:23 GMT 47.753036 6.303337 24,025 3 419 0
2020-09-30 07:29:20 GMT 47.749146 6.302994 24,025 3 419 0
2020-09-30 07:29:17 GMT 47.740814 6.302238 24,025 3 419 0
2020-09-30 07:29:13 GMT 47.735184 6.301689 24,025 3 419 0
2020-09-30 07:29:10 GMT 47.729965 6.301140 24,025 3 419 0
2020-09-30 07:29:06 GMT 47.721443 6.300377 24,025 3 419 0
2020-09-30 07:29:03 GMT 47.715813 6.299814 24,025 3 419 0
2020-09-30 07:29:00 GMT 47.708084 6.299080 24,025 3 419 0
2020-09-30 07:28:56 GMT 47.702866 6.298599 24,025 3 419 0
2020-09-30 07:28:53 GMT 47.696259 6.297983 24,025 3 419 0
2020-09-30 07:28:50 GMT 47.690460 6.297432 24,025 3 419 0
2020-09-30 07:28:47 GMT 47.684296 6.296856 24,025 3 419 0
2020-09-30 07:28:41 GMT 47.674026 6.295853 24,025 3 418 0
2020-09-30 07:28:38 GMT 47.668236 6.295307 24,025 3 418 0
2020-09-30 07:28:35 GMT 47.662228 6.294743 24,025 3 418 0
2020-09-30 07:28:32 GMT 47.647938 6.293405 24,025 3 418 0
2020-09-30 07:28:28 GMT 47.647938 6.293405 24,025 3 418 0
2020-09-30 07:28:25 GMT 47.643284 6.292912 24,025 3 418 -64
2020-09-30 07:28:22 GMT 47.636532 6.292279 24,025 3 418 0
2020-09-30 07:28:19 GMT 47.631691 6.291856 24,025 3 418 0
2020-09-30 07:28:16 GMT 47.624569 6.291152 24,025 3 418 0
2020-09-30 07:28:12 GMT 47.617996 6.290497 24,025 3 418 0
2020-09-30 07:28:09 GMT 47.612000 6.289948 24,025 3 418 0
2020-09-30 07:28:06 GMT 47.605247 6.289321 24,025 3 417 0
2020-09-30 07:28:02 GMT 47.597942 6.288616 24,025 3 417 0
2020-09-30 07:27:59 GMT 47.585358 6.287407 24,025 3 417 0
2020-09-30 07:27:56 GMT 47.585358 6.287407 24,025 3 417 0
2020-09-30 07:27:52 GMT 47.576527 6.286574 24,025 3 417 0
2020-09-30 07:27:49 GMT 47.571686 6.286081 24,025 3 417 0
2020-09-30 07:27:45 GMT 47.565536 6.285484 24,025 3 417 0
2020-09-30 07:27:41 GMT 47.558788 6.284884 24,025 3 417 0
2020-09-30 07:27:38 GMT 47.552040 6.284250 24,025 3 417 0
2020-09-30 07:27:35 GMT 47.545853 6.283630 24,025 3 417 0
2020-09-30 07:27:31 GMT 47.532761 6.282394 24,025 3 417 0
2020-09-30 07:27:28 GMT 47.532761 6.282394 24,025 3 417 0
2020-09-30 07:27:25 GMT 47.525646 6.281785 24,025 3 416 0
2020-09-30 07:27:22 GMT 47.520618 6.281292 24,025 3 416 0
2020-09-30 07:27:18 GMT 47.512939 6.280540 24,025 3 416 0
2020-09-30 07:27:15 GMT 47.507954 6.280095 24,025 3 415 0
2020-09-30 07:27:12 GMT 47.501579 6.279461 24,025 3 416 0
2020-09-30 07:27:09 GMT 47.494492 6.278824 24,025 3 416 0
2020-09-30 07:27:05 GMT 47.488129 6.278206 24,025 3 416 0
2020-09-30 07:27:02 GMT 47.481812 6.277588 24,025 3 416 0
2020-09-30 07:26:58 GMT 47.476044 6.277039 24,025 3 413 0
2020-09-30 07:26:55 GMT 47.467781 6.276292 24,025 3 416 0
2020-09-30 07:26:52 GMT 47.462986 6.275799 24,025 3 415 0
2020-09-30 07:26:49 GMT 47.458557 6.275391 24,025 3 415 0
2020-09-30 07:26:46 GMT 47.452045 6.274813 24,025 3 415 0
2020-09-30 07:26:43 GMT 47.446289 6.274223 24,025 3 415 0
2020-09-30 07:26:40 GMT 47.439560 6.273605 24,025 3 415 0
2020-09-30 07:26:34 GMT 47.428257 6.272560 24,025 3 414 0
2020-09-30 07:26:31 GMT 47.423462 6.272137 24,025 3 415 0
2020-09-30 07:26:28 GMT 47.417690 6.271574 24,025 3 414 0
2020-09-30 07:26:25 GMT 47.412735 6.271133 24,025 3 414 0
2020-09-30 07:26:22 GMT 47.405445 6.270447 24,025 3 414 0
2020-09-30 07:26:19 GMT 47.399689 6.269897 24,025 3 414 0
2020-09-30 07:26:13 GMT 47.389526 6.268936 24,025 3 414 0
2020-09-30 07:26:10 GMT 47.384174 6.268404 24,025 3 414 0
2020-09-30 07:26:07 GMT 47.378082 6.267838 24,025 3 414 0
2020-09-30 07:26:04 GMT 47.372131 6.267288 24,025 3 414 0
2020-09-30 07:26:01 GMT 47.365273 6.266644 24,025 3 414 0
2020-09-30 07:25:58 GMT 47.359497 6.266121 24,025 3 414 0
2020-09-30 07:25:55 GMT 47.352814 6.265434 24,025 3 414 0
2020-09-30 07:25:52 GMT 47.349586 6.265165 24,025 3 414 0
2020-09-30 07:25:49 GMT 47.341347 6.264390 24,025 3 413 0
2020-09-30 07:25:46 GMT 47.336597 6.263968 24,025 3 413 0
2020-09-30 07:25:43 GMT 47.329521 6.263263 24,025 3 413 0
2020-09-30 07:25:40 GMT 47.325302 6.262894 24,025 3 413 0
2020-09-30 07:25:36 GMT 47.317474 6.262138 24,025 3 413 0
2020-09-30 07:25:33 GMT 47.311737 6.261644 24,025 3 413 0
2020-09-30 07:25:30 GMT 47.306763 6.261108 24,025 3 413 0
2020-09-30 07:25:27 GMT 47.301079 6.260587 24,025 3 413 0
2020-09-30 07:25:23 GMT 47.294003 6.259953 24,025 3 412 0
2020-09-30 07:25:20 GMT 47.286926 6.259249 24,025 3 413 0
2020-09-30 07:25:17 GMT 47.281990 6.258756 24,025 3 413 0
2020-09-30 07:25:13 GMT 47.274544 6.258052 24,025 3 413 0
2020-09-30 07:25:10 GMT 47.268631 6.257489 24,025 3 413 0
2020-09-30 07:25:07 GMT 47.263462 6.256996 24,025 3 413 0
2020-09-30 07:25:04 GMT 47.254898 6.256221 24,025 3 412 0
2020-09-30 07:25:01 GMT 47.251099 6.255821 24,025 3 412 0
2020-09-30 07:24:58 GMT 47.245167 6.255305 24,025 3 412 0
2020-09-30 07:24:55 GMT 47.240421 6.254812 24,025 3 412 0
2020-09-30 07:24:52 GMT 47.234135 6.254249 24,025 3 412 0
2020-09-30 07:24:49 GMT 47.229572 6.253826 24,025 3 412 0
2020-09-30 07:24:46 GMT 47.223660 6.253263 24,025 3 412 0
2020-09-30 07:24:43 GMT 47.216995 6.252594 24,025 3 412 0
2020-09-30 07:24:40 GMT 47.210903 6.252066 24,025 3 412 0
2020-09-30 07:24:37 GMT 47.204041 6.251427 24,025 3 412 0
2020-09-30 07:24:33 GMT 47.196991 6.250740 24,025 3 412 0
2020-09-30 07:24:30 GMT 47.192047 6.250259 24,025 3 412 0
2020-09-30 07:24:27 GMT 47.186142 6.249710 24,025 3 412 0
2020-09-30 07:24:24 GMT 47.181206 6.249249 24,025 3 412 0
2020-09-30 07:24:21 GMT 47.174377 6.248611 24,025 3 412 0
2020-09-30 07:24:18 GMT 47.168472 6.248131 24,025 3 411 0
2020-09-30 07:24:15 GMT 47.163143 6.247629 24,025 3 411 0
2020-09-30 07:24:10 GMT 47.154785 6.246826 24,025 3 411 0
2020-09-30 07:24:07 GMT 47.143936 6.245865 24,025 3 411 0
2020-09-30 07:24:00 GMT 47.135559 6.245041 24,025 3 411 0
2020-09-30 07:23:57 GMT 47.129112 6.244460 24,025 3 411 0
2020-09-30 07:23:54 GMT 47.116562 6.243324 24,025 3 410 0
2020-09-30 07:23:51 GMT 47.116562 6.243324 24,025 3 411 0
2020-09-30 07:23:46 GMT 47.108963 6.242638 24,025 3 411 0
2020-09-30 07:23:43 GMT 47.102158 6.241995 24,025 3 411 0
2020-09-30 07:23:40 GMT 47.096649 6.241470 24,025 3 411 0
2020-09-30 07:23:36 GMT 47.090744 6.240990 24,025 3 411 0
2020-09-30 07:23:33 GMT 47.084702 6.240375 24,025 3 411 0
2020-09-30 07:23:30 GMT 47.077675 6.239741 24,025 3 410 0
2020-09-30 07:23:27 GMT 47.071609 6.239204 24,025 3 410 0
2020-09-30 07:23:24 GMT 47.065704 6.238655 24,025 3 410 -64
2020-09-30 07:23:21 GMT 47.059845 6.238106 24,025 3 410 -64
2020-09-30 07:23:18 GMT 47.055313 6.237694 24,025 3 410 0
2020-09-30 07:23:15 GMT 47.049408 6.237144 24,025 3 410 0
2020-09-30 07:23:12 GMT 47.044693 6.236732 24,025 3 410 0
2020-09-30 07:23:09 GMT 47.036911 6.235977 24,025 3 410 0
2020-09-30 07:23:06 GMT 47.032936 6.235586 24,025 3 410 0
2020-09-30 07:23:03 GMT 47.026699 6.235023 24,025 3 410 0
2020-09-30 07:23:00 GMT 47.021027 6.234467 24,025 3 410 0
2020-09-30 07:22:56 GMT 47.013611 6.233780 24,025 3 409 0
2020-09-30 07:22:53 GMT 47.007938 6.233262 24,025 3 409 0
2020-09-30 07:22:49 GMT 47.001160 6.232613 24,025 3 409 0
2020-09-30 07:22:46 GMT 46.993553 6.231924 24,025 3 409 0
2020-09-30 07:22:43 GMT 46.988850 6.231502 24,025 3 409 0
2020-09-30 07:22:40 GMT 46.975819 6.230234 24,025 3 409 0
2020-09-30 07:22:36 GMT 46.975819 6.230234 24,025 3 409 0
2020-09-30 07:22:33 GMT 46.969757 6.229660 24,025 3 409 0
2020-09-30 07:22:29 GMT 46.963486 6.229111 24,025 3 409 0
2020-09-30 07:22:26 GMT 46.957848 6.228544 24,025 3 409 0
2020-09-30 07:22:23 GMT 46.950817 6.227910 24,025 3 409 0
2020-09-30 07:22:19 GMT 46.943462 6.227206 24,025 3 409 0
2020-09-30 07:22:16 GMT 46.937759 6.226639 24,025 3 409 0
2020-09-30 07:22:13 GMT 46.931732 6.226079 24,025 3 409 0
2020-09-30 07:22:10 GMT 46.927780 6.225677 24,025 3 409 0
2020-09-30 07:22:07 GMT 46.919441 6.224952 24,025 3 409 0
2020-09-30 07:22:03 GMT 46.911667 6.224167 24,025 3 409 0
2020-09-30 07:22:00 GMT 46.908829 6.223896 24,025 3 409 0
2020-09-30 07:21:57 GMT 46.903152 6.223412 24,025 3 409 0
2020-09-30 07:21:54 GMT 46.896332 6.222725 24,025 3 409 0
2020-09-30 07:21:51 GMT 46.891617 6.222313 24,025 3 410 0
2020-09-30 07:21:48 GMT 46.884434 6.221642 24,025 3 410 0
2020-09-30 07:21:45 GMT 46.878571 6.221149 24,025 3 410 0
2020-09-30 07:21:42 GMT 46.872894 6.220596 24,025 3 410 0
2020-09-30 07:21:39 GMT 46.867397 6.220163 24,025 3 410 0
2020-09-30 07:21:35 GMT 46.859985 6.219535 24,025 3 410 0
2020-09-30 07:21:31 GMT 46.851471 6.218798 24,050 3 410 0
2020-09-30 07:21:28 GMT 46.847488 6.218396 24,025 3 410 0
2020-09-30 07:21:25 GMT 46.840862 6.217781 24,025 3 410 0
2020-09-30 07:21:22 GMT 46.835541 6.217257 24,025 1 410 0
2020-09-30 07:21:19 GMT 46.828537 6.216721 24,025 2 410 0
2020-09-30 07:21:15 GMT 46.821121 6.216319 24,025 0 410 0
2020-09-30 07:21:12 GMT 46.815632 6.216202 24,025 0 410 0
2020-09-30 07:21:09 GMT 46.811874 6.216252 24,025 0 409 0
2020-09-30 07:21:06 GMT 46.805435 6.216408 24,025 358 408 0
2020-09-30 07:21:03 GMT 46.801071 6.216654 24,025 358 408 0
2020-09-30 07:21:00 GMT 46.794846 6.217123 24,025 356 408 0
2020-09-30 07:20:57 GMT 46.787888 6.217860 24,025 355 407 0
2020-09-30 07:20:54 GMT 46.781342 6.218798 24,025 354 407 0
2020-09-30 07:20:51 GMT 46.776665 6.219635 24,025 353 407 0
2020-09-30 07:20:48 GMT 46.766418 6.221745 24,025 351 407 0
2020-09-30 07:20:42 GMT 46.761612 6.223018 24,025 349 406 0
2020-09-30 07:20:39 GMT 46.754787 6.224991 24,050 348 406 0
2020-09-30 07:20:36 GMT 46.749992 6.226433 24,025 348 406 0
2020-09-30 07:20:33 GMT 46.744312 6.228287 24,025 348 406 0
2020-09-30 07:20:30 GMT 46.738262 6.230209 24,025 348 406 0
2020-09-30 07:20:27 GMT 46.733871 6.231593 24,025 348 406 0
2020-09-30 07:20:24 GMT 46.727226 6.233711 24,025 348 407 0
2020-09-30 07:20:21 GMT 46.722107 6.235344 24,025 348 407 0
2020-09-30 07:20:18 GMT 46.714752 6.237694 24,025 348 407 0
2020-09-30 07:20:15 GMT 46.711990 6.238560 24,025 348 407 0
2020-09-30 07:20:12 GMT 46.705723 6.240578 24,025 348 407 0
2020-09-30 07:20:09 GMT 46.700958 6.242110 24,025 348 409 0
2020-09-30 07:20:06 GMT 46.694317 6.244217 24,025 348 407 0
2020-09-30 07:20:03 GMT 46.689892 6.245659 24,025 348 407 0
2020-09-30 07:20:00 GMT 46.682724 6.247993 24,025 348 408 0
2020-09-30 07:19:56 GMT 46.676102 6.250082 24,025 348 409 64
2020-09-30 07:19:53 GMT 46.669781 6.252113 24,025 348 411 0
2020-09-30 07:19:50 GMT 46.663685 6.254105 24,025 348 412 -64
2020-09-30 07:19:47 GMT 46.659214 6.255547 24,025 348 413 -64
2020-09-30 07:19:44 GMT 46.654724 6.256982 24,025 348 414 -64
2020-09-30 07:19:41 GMT 46.648132 6.259059 24,025 348 419 0
2020-09-30 07:19:38 GMT 46.641541 6.261202 24,025 348 420 0
2020-09-30 07:19:35 GMT 46.636032 6.262962 24,025 348 423 0
2020-09-30 07:19:32 GMT 46.631836 6.264284 24,025 348 425 -64
2020-09-30 07:19:29 GMT 46.620438 6.267901 24,025 348 432 -64
2020-09-30 07:19:26 GMT 46.620438 6.267901 24,025 348 432 -64
2020-09-30 07:19:23 GMT 46.613571 6.270112 24,025 348 436 0
2020-09-30 07:19:19 GMT 46.605679 6.272575 24,025 348 440 -64
2020-09-30 07:19:16 GMT 46.599907 6.274429 24,050 348 443 -64
2020-09-30 07:19:13 GMT 46.593109 6.276610 24,050 348 447 -64
2020-09-30 07:19:09 GMT 46.584778 6.279222 24,050 348 451 64
2020-09-30 07:19:05 GMT 46.576401 6.281902 24,025 348 458 64
2020-09-30 07:19:02 GMT 46.572254 6.283218 24,025 348 458 64
2020-09-30 07:18:59 GMT 46.563950 6.285854 24,025 348 461 -64
2020-09-30 07:18:55 GMT 46.556381 6.288231 24,050 348 467 -64
2020-09-30 07:18:52 GMT 46.551121 6.289948 24,050 348 469 -64
2020-09-30 07:18:49 GMT 46.542835 6.292557 24,050 348 470 0
2020-09-30 07:18:46 GMT 46.536438 6.294563 24,050 348 470 0
2020-09-30 07:18:43 GMT 46.530499 6.296471 24,050 348 470 0
2020-09-30 07:18:39 GMT 46.521793 6.299217 24,050 348 470 0
2020-09-30 07:18:36 GMT 46.515182 6.301346 24,050 348 470 0
2020-09-30 07:18:33 GMT 46.508377 6.303473 24,050 348 470 0
2020-09-30 07:18:30 GMT 46.503708 6.304947 24,050 348 470 0
2020-09-30 07:18:26 GMT 46.494793 6.307800 24,050 348 470 0
2020-09-30 07:18:23 GMT 46.488602 6.309723 24,050 348 470 0
2020-09-30 07:18:20 GMT 46.482456 6.311646 24,050 348 470 0
2020-09-30 07:18:16 GMT 46.471207 6.315263 24,050 348 470 0
2020-09-30 07:18:13 GMT 46.468231 6.316201 24,050 348 470 0
2020-09-30 07:18:10 GMT 46.460995 6.318443 24,050 348 470 0
2020-09-30 07:18:07 GMT 46.452072 6.321292 24,050 348 470 0
2020-09-30 07:18:04 GMT 46.446350 6.323101 24,050 348 469 0
2020-09-30 07:18:01 GMT 46.441677 6.324554 24,050 348 469 0
2020-09-30 07:17:58 GMT 46.435913 6.326383 24,050 348 469 0
2020-09-30 07:17:54 GMT 46.426163 6.329532 24,050 348 469 0
2020-09-30 07:17:50 GMT 46.417877 6.332144 24,050 348 469 0
2020-09-30 07:17:46 GMT 46.408531 6.335060 24,050 348 469 0
2020-09-30 07:17:43 GMT 46.403046 6.336834 24,050 348 469 0
2020-09-30 07:17:40 GMT 46.396660 6.338837 24,050 348 469 0
2020-09-30 07:17:36 GMT 46.388168 6.341523 24,050 348 469 0
2020-09-30 07:17:33 GMT 46.381809 6.343575 24,050 348 469 0
2020-09-30 07:17:30 GMT 46.375854 6.345408 24,050 348 469 0
2020-09-30 07:17:27 GMT 46.369080 6.347552 24,050 348 469 0
2020-09-30 07:17:24 GMT 46.362724 6.349548 24,050 348 469 0
2020-09-30 07:17:21 GMT 46.356579 6.351540 24,050 348 469 0
2020-09-30 07:17:18 GMT 46.349350 6.353782 24,050 348 469 0
2020-09-30 07:17:14 GMT 46.333023 6.358955 24,050 348 469 0
2020-09-30 07:17:11 GMT 46.333023 6.358955 24,050 348 468 0
2020-09-30 07:17:08 GMT 46.329021 6.360191 24,050 348 468 0
2020-09-30 07:17:05 GMT 46.323486 6.361955 24,050 348 468 0
2020-09-30 07:17:02 GMT 46.315887 6.364299 24,050 348 468 0
2020-09-30 07:16:59 GMT 46.311401 6.365706 24,050 348 468 0
2020-09-30 07:16:56 GMT 46.303787 6.368156 24,050 348 468 0
2020-09-30 07:16:53 GMT 46.297646 6.370079 24,050 348 468 0
2020-09-30 07:16:50 GMT 46.289356 6.372688 24,050 348 468 0
2020-09-30 07:16:46 GMT 46.280045 6.375621 24,050 348 468 0
2020-09-30 07:16:42 GMT 46.274555 6.377357 24,050 348 468 0
2020-09-30 07:16:39 GMT 46.268829 6.379143 24,050 348 468 0
2020-09-30 07:16:36 GMT 46.260960 6.381615 24,050 348 468 0
2020-09-30 07:16:33 GMT 46.255051 6.383459 24,050 348 469 0
2020-09-30 07:16:30 GMT 46.248253 6.385597 24,050 348 469 0
2020-09-30 07:16:27 GMT 46.241268 6.387794 24,050 348 469 0
2020-09-30 07:16:24 GMT 46.233627 6.390225 24,050 348 469 0
2020-09-30 07:16:21 GMT 46.223858 6.393219 24,050 348 469 0
2020-09-30 07:16:15 GMT 46.216232 6.395651 24,050 348 469 0
2020-09-30 07:16:11 GMT 46.207535 6.398330 24,050 348 469 0
2020-09-30 07:16:08 GMT 46.202682 6.399871 24,050 348 469 0
2020-09-30 07:16:05 GMT 46.189316 6.404068 24,050 348 469 0
2020-09-30 07:15:59 GMT 46.182724 6.406101 24,050 348 469 0
2020-09-30 07:15:56 GMT 46.177414 6.407776 24,050 348 469 0
2020-09-30 07:15:53 GMT 46.169346 6.410248 24,050 348 469 0
2020-09-30 07:15:50 GMT 46.164040 6.411964 24,050 348 469 0
2020-09-30 07:15:47 GMT 46.156860 6.414207 24,050 348 469 0
2020-09-30 07:15:44 GMT 46.144135 6.418159 24,050 348 469 0
2020-09-30 07:15:41 GMT 46.144135 6.418159 24,050 348 469 0
2020-09-30 07:15:38 GMT 46.137955 6.420102 24,050 348 469 0
2020-09-30 07:15:35 GMT 46.131824 6.421989 24,050 348 469 0
2020-09-30 07:15:32 GMT 46.125458 6.423987 24,050 348 469 0
2020-09-30 07:15:29 GMT 46.119488 6.425835 24,050 348 469 0
2020-09-30 07:15:25 GMT 46.109711 6.428878 24,050 348 469 0
2020-09-30 07:15:22 GMT 46.103577 6.430820 24,050 348 469 0
2020-09-30 07:15:19 GMT 46.097443 6.432763 24,050 348 469 0
2020-09-30 07:15:15 GMT 46.089157 6.435309 24,050 348 469 0
2020-09-30 07:15:12 GMT 46.082340 6.437439 24,050 348 469 0
2020-09-30 07:15:09 GMT 46.077026 6.439127 24,050 348 469 0
2020-09-30 07:15:06 GMT 46.071957 6.440666 24,050 348 469 0
2020-09-30 07:15:03 GMT 46.063889 6.443213 24,050 348 469 0
2020-09-30 07:15:00 GMT 46.057297 6.445290 24,050 348 469 0
2020-09-30 07:14:57 GMT 46.051804 6.446965 24,050 348 469 0
2020-09-30 07:14:53 GMT 46.041183 6.450314 24,050 348 469 0
2020-09-30 07:14:50 GMT 46.036331 6.451855 24,050 348 469 0
2020-09-30 07:14:47 GMT 46.029327 6.453999 24,050 348 469 0
2020-09-30 07:14:43 GMT 46.022102 6.456253 24,050 348 469 0
2020-09-30 07:14:40 GMT 46.015118 6.458450 24,050 348 468 64
2020-09-30 07:14:37 GMT 46.000500 6.462982 24,050 348 468 64
2020-09-30 07:14:33 GMT 46.000500 6.462982 24,050 348 468 0
2020-09-30 07:14:30 GMT 45.992844 6.465387 24,050 348 468 0
2020-09-30 07:14:27 GMT 45.988815 6.466660 24,050 348 468 0
2020-09-30 07:14:24 GMT 45.981400 6.468938 24,050 348 468 0
2020-09-30 07:14:21 GMT 45.974617 6.471016 24,050 348 468 0
2020-09-30 07:14:17 GMT 45.966377 6.473625 24,050 348 468 0
2020-09-30 07:14:12 GMT 45.954712 6.477244 24,050 348 468 0
2020-09-30 07:14:08 GMT 45.947296 6.479522 24,050 348 468 -64
2020-09-30 07:14:05 GMT 45.942406 6.481041 24,050 348 468 -64
2020-09-30 07:14:02 GMT 45.933929 6.483719 24,050 348 468 0
2020-09-30 07:13:59 GMT 45.928024 6.485551 24,050 348 468 0
2020-09-30 07:13:56 GMT 45.923550 6.486946 24,050 348 468 0
2020-09-30 07:13:51 GMT 45.910004 6.491135 24,050 348 468 0
2020-09-30 07:13:47 GMT 45.904083 6.492987 24,050 348 468 0
2020-09-30 07:13:44 GMT 45.896255 6.495399 24,050 348 468 0
2020-09-30 07:13:40 GMT 45.888428 6.497810 24,050 348 467 0
2020-09-30 07:13:36 GMT 45.879929 6.500473 24,050 348 467 0
2020-09-30 07:13:33 GMT 45.873833 6.502327 24,050 348 467 0
2020-09-30 07:13:30 GMT 45.866013 6.504799 24,050 348 467 0
2020-09-30 07:13:27 GMT 45.861145 6.506251 24,050 348 467 0
2020-09-30 07:13:23 GMT 45.850159 6.509667 24,050 348 467 0
2020-09-30 07:13:20 GMT 45.845078 6.511275 24,050 348 467 0
2020-09-30 07:13:16 GMT 45.837479 6.513620 24,050 348 466 0
2020-09-30 07:13:11 GMT 45.826115 6.517159 24,050 348 466 0
2020-09-30 07:13:08 GMT 45.820633 6.518845 24,050 348 466 0
2020-09-30 07:13:05 GMT 45.814713 6.520729 24,050 348 466 0
2020-09-30 07:13:00 GMT 45.802917 6.524338 24,050 348 466 0
2020-09-30 07:12:57 GMT 45.798477 6.525745 24,050 348 466 0
2020-09-30 07:12:54 GMT 45.790504 6.528214 24,050 348 466 0
2020-09-30 07:12:50 GMT 45.781006 6.531166 24,050 348 466 0
2020-09-30 07:12:46 GMT 45.775330 6.532883 24,050 348 466 0
2020-09-30 07:12:41 GMT 45.761826 6.537003 24,050 348 466 0
2020-09-30 07:12:38 GMT 45.756985 6.538513 24,050 348 466 0
2020-09-30 07:12:34 GMT 45.747070 6.541534 24,050 348 466 0
2020-09-30 07:12:30 GMT 45.739517 6.543899 24,050 348 466 0
2020-09-30 07:12:27 GMT 45.732361 6.546066 24,050 348 466 0
2020-09-30 07:12:22 GMT 45.725189 6.548254 24,050 348 466 0
2020-09-30 07:12:19 GMT 45.716297 6.550941 24,050 348 466 -64
2020-09-30 07:12:15 GMT 45.709991 6.552876 24,050 348 466 0
2020-09-30 07:12:12 GMT 45.693146 6.557967 24,050 348 466 0
2020-09-30 07:12:07 GMT 45.693146 6.557967 24,050 348 466 0
2020-09-30 07:12:04 GMT 45.686413 6.560074 24,050 348 466 0
2020-09-30 07:12:01 GMT 45.680054 6.561986 24,050 348 466 0
2020-09-30 07:11:58 GMT 45.670399 6.564949 24,050 348 466 0
2020-09-30 07:11:55 GMT 45.666393 6.566185 24,050 348 466 0
2020-09-30 07:11:50 GMT 45.656479 6.569275 24,050 348 466 0
2020-09-30 07:11:47 GMT 45.649918 6.571266 24,050 348 466 0
2020-09-30 07:11:44 GMT 45.644028 6.573040 24,050 348 466 0
2020-09-30 07:11:41 GMT 45.637482 6.575049 24,050 348 466 0
2020-09-30 07:11:38 GMT 45.630970 6.577034 24,050 348 466 0
2020-09-30 07:11:35 GMT 45.624405 6.579025 24,050 348 466 0
2020-09-30 07:11:30 GMT 45.613045 6.582527 24,050 348 466 0
2020-09-30 07:11:27 GMT 45.607544 6.584227 24,050 348 466 0
2020-09-30 07:11:24 GMT 45.602509 6.585768 24,050 348 466 0
2020-09-30 07:11:20 GMT 45.594288 6.588295 24,050 348 466 0
2020-09-30 07:11:17 GMT 45.581635 6.592199 24,050 348 466 0
2020-09-30 07:11:10 GMT 45.564972 6.597290 24,050 348 466 0
2020-09-30 07:11:07 GMT 45.564972 6.597290 24,050 348 467 0
2020-09-30 07:11:04 GMT 45.559696 6.598869 24,050 348 467 0
2020-09-30 07:11:01 GMT 45.551239 6.601443 24,050 348 467 0
2020-09-30 07:10:57 GMT 45.543449 6.603855 24,050 348 467 0
2020-09-30 07:10:54 GMT 45.538376 6.605396 24,050 348 466 0
2020-09-30 07:10:50 GMT 45.530136 6.607884 24,050 348 466 0
2020-09-30 07:10:47 GMT 45.522766 6.610173 24,050 348 466 0
2020-09-30 07:10:44 GMT 45.516403 6.612162 24,050 348 466 64
2020-09-30 07:10:38 GMT 45.502903 6.616382 24,050 348 467 0
2020-09-30 07:10:34 GMT 45.495712 6.618543 24,050 348 467 0
2020-09-30 07:10:29 GMT 45.486423 6.621406 24,050 348 467 0
2020-09-30 07:10:26 GMT 45.473763 6.625292 24,050 348 467 0
2020-09-30 07:10:23 GMT 45.473763 6.625292 24,050 348 467 0
2020-09-30 07:10:20 GMT 45.466141 6.627568 24,050 348 468 0
2020-09-30 07:10:16 GMT 45.457855 6.630053 24,050 348 468 0
2020-09-30 07:10:13 GMT 45.452396 6.631723 24,050 348 468 0
2020-09-30 07:10:10 GMT 45.444527 6.634134 24,050 348 468 0
2020-09-30 07:10:06 GMT 45.436066 6.636658 24,050 348 468 0
2020-09-30 07:10:03 GMT 45.431633 6.638020 24,050 348 468 0
2020-09-30 07:09:57 GMT 45.417015 6.642441 24,050 348 468 0
2020-09-30 07:09:53 GMT 45.408966 6.644897 24,050 348 468 0
2020-09-30 07:09:49 GMT 45.401550 6.647121 24,050 348 468 0
2020-09-30 07:09:46 GMT 45.394764 6.649207 24,050 348 468 0
2020-09-30 07:09:43 GMT 45.388012 6.651284 24,050 348 469 0
2020-09-30 07:09:38 GMT 45.378891 6.654053 24,050 348 469 0
2020-09-30 07:09:35 GMT 45.369114 6.656978 24,050 348 468 0
2020-09-30 07:09:32 GMT 45.365753 6.658042 24,050 348 468 0
2020-09-30 07:09:29 GMT 45.357708 6.660461 24,050 348 468 0
2020-09-30 07:09:25 GMT 45.350052 6.662750 24,050 348 468 0
2020-09-30 07:09:22 GMT 45.344788 6.664385 24,050 348 468 0
2020-09-30 07:09:16 GMT 45.330368 6.668767 24,050 348 468 0
2020-09-30 07:09:13 GMT 45.324188 6.670644 24,050 348 468 0
2020-09-30 07:09:08 GMT 45.314667 6.673475 24,050 348 468 0
2020-09-30 07:09:05 GMT 45.306839 6.675895 24,050 348 468 0
2020-09-30 07:09:02 GMT 45.300705 6.677726 24,050 348 468 0
2020-09-30 07:08:58 GMT 45.292419 6.680276 24,050 348 469 0
2020-09-30 07:08:55 GMT 45.285828 6.682238 24,050 348 469 0
2020-09-30 07:08:52 GMT 45.279694 6.684069 24,050 348 469 0
2020-09-30 07:08:46 GMT 45.264862 6.688581 24,050 348 469 0
2020-09-30 07:08:42 GMT 45.258911 6.690347 24,050 348 469 0
2020-09-30 07:08:37 GMT 45.248703 6.693486 24,050 348 469 0
2020-09-30 07:08:32 GMT 45.237228 6.696904 24,050 348 470 0
2020-09-30 07:08:25 GMT 45.220871 6.701856 24,050 348 470 0
2020-09-30 07:08:22 GMT 45.215771 6.703402 24,050 348 470 0
2020-09-30 07:08:17 GMT 45.205761 6.706416 24,050 348 470 0
2020-09-30 07:08:12 GMT 45.194263 6.709900 24,050 348 471 0
2020-09-30 07:08:05 GMT 45.178299 6.714739 24,050 348 471 0
2020-09-30 07:08:01 GMT 45.171871 6.716666 24,050 348 471 0
2020-09-30 07:07:57 GMT 45.162281 6.719613 24,050 348 471 0
2020-09-30 07:07:54 GMT 45.156555 6.721355 24,050 348 471 0
2020-09-30 07:07:51 GMT 45.150558 6.723175 24,050 348 471 0
2020-09-30 07:07:44 GMT 45.135422 6.727786 24,050 348 472 0
2020-09-30 07:07:40 GMT 45.127087 6.730265 24,050 348 472 0
2020-09-30 07:07:36 GMT 45.118336 6.732877 24,050 348 472 0
2020-09-30 07:07:33 GMT 45.110229 6.735338 24,050 349 472 0
2020-09-30 07:07:30 GMT 45.102554 6.737634 24,050 348 472 0
2020-09-30 07:07:26 GMT 45.096363 6.739509 24,050 348 472 0
2020-09-30 07:07:23 GMT 45.091011 6.741117 24,050 348 472 0
2020-09-30 07:07:20 GMT 45.082256 6.743797 24,050 348 472 0
2020-09-30 07:07:14 GMT 45.070541 6.747306 24,050 348 472 0
2020-09-30 07:07:11 GMT 45.064774 6.749071 24,050 349 472 0
2020-09-30 07:07:03 GMT 45.047653 6.754172 24,050 349 472 0
2020-09-30 07:07:00 GMT 45.042526 6.755742 24,050 348 472 0
2020-09-30 07:06:57 GMT 45.033142 6.758554 24,050 348 472 0
2020-09-30 07:06:53 GMT 45.026302 6.760678 24,050 348 472 0
2020-09-30 07:06:50 GMT 45.020737 6.762412 24,050 348 472 0
2020-09-30 07:06:43 GMT 45.004303 6.767317 24,050 350 473 0
2020-09-30 07:06:40 GMT 45.000000 6.768449 24,050 350 473 0
2020-09-30 07:06:34 GMT 44.986862 6.771894 24,050 351 473 0
2020-09-30 07:06:30 GMT 44.976955 6.774210 24,050 352 473 0
2020-09-30 07:06:22 GMT 44.959808 6.777649 24,050 353 473 0
2020-09-30 07:06:18 GMT 44.951752 6.779088 24,050 354 474 0
2020-09-30 07:06:12 GMT 44.937572 6.781244 24,050 355 474 -64
2020-09-30 07:06:09 GMT 44.932129 6.781914 24,050 356 475 -64
2020-09-30 07:06:04 GMT 44.920025 6.783053 24,050 357 475 0
2020-09-30 07:06:00 GMT 44.911922 6.783589 24,050 358 476 0
2020-09-30 07:05:51 GMT 44.892326 6.784728 24,050 358 476 0
2020-09-30 07:05:48 GMT 44.885529 6.785196 24,050 358 476 0
2020-09-30 07:05:42 GMT 44.863743 6.786603 24,050 358 476 0
2020-09-30 07:05:32 GMT 44.850334 6.787407 24,050 0 478 0
2020-09-30 07:05:29 GMT 44.843910 6.787675 24,050 359 477 0
2020-09-30 07:05:19 GMT 44.822079 6.788144 24,050 0 478 0
2020-09-30 07:05:12 GMT 44.805313 6.787916 24,050 1 478 0
2020-09-30 07:05:09 GMT 44.799774 6.787785 24,050 1 478 0
2020-09-30 07:04:59 GMT 44.755787 6.784460 24,050 5 481 0
2020-09-30 07:04:49 GMT 44.755787 6.784460 24,050 5 479 0
2020-09-30 07:04:41 GMT 44.735413 6.781769 24,050 5 480 0
2020-09-30 07:04:29 GMT 44.710419 6.778434 24,050 5 481 0
2020-09-30 07:04:19 GMT 44.689590 6.775617 24,050 5 481 0
2020-09-30 07:04:11 GMT 44.670364 6.773004 24,050 5 481 0
2020-09-30 07:04:08 GMT 44.664825 6.772221 24,050 5 481 0
2020-09-30 07:03:58 GMT 44.643311 6.769278 24,050 5 481 0
2020-09-30 07:03:48 GMT 44.597462 6.763023 24,050 5 481 0
2020-09-30 07:03:38 GMT 44.597462 6.763023 24,050 5 481 0
2020-09-30 07:03:27 GMT 44.574417 6.759927 24,050 5 481 0
2020-09-30 07:03:17 GMT 44.551796 6.756860 24,050 5 481 0
2020-09-30 07:03:07 GMT 44.528797 6.753778 24,050 5 481 0
2020-09-30 07:02:57 GMT 44.507339 6.750898 24,050 5 480 0
2020-09-30 07:02:47 GMT 44.484528 6.747816 24,050 5 480 0
2020-09-30 07:02:37 GMT 44.462231 6.744869 24,050 5 480 0
2020-09-30 07:02:26 GMT 44.437927 6.741519 24,050 5 480 0
2020-09-30 07:02:16 GMT 44.416718 6.738739 24,050 5 480 0
2020-09-30 07:02:05 GMT 44.392227 6.735404 24,050 5 480 0
2020-09-30 07:01:55 GMT 44.370758 6.732527 24,050 5 480 0
2020-09-30 07:01:45 GMT 44.348640 6.729528 24,050 5 481 0
2020-09-30 07:01:35 GMT 44.325623 6.726445 24,050 5 481 0
2020-09-30 07:01:25 GMT 44.303650 6.723502 24,050 5 481 0
2020-09-30 07:01:14 GMT 44.280167 6.720298 24,050 5 482 0
2020-09-30 07:01:04 GMT 44.256409 6.717159 24,050 5 482 0
2020-09-30 07:00:54 GMT 44.234482 6.714216 24,050 5 482 0
2020-09-30 07:00:43 GMT 44.211639 6.711142 24,050 5 482 0
2020-09-30 07:00:33 GMT 44.188129 6.708003 24,050 5 482 0
2020-09-30 07:00:22 GMT 44.163254 6.704726 24,050 5 482 0
2020-09-30 07:00:13 GMT 44.144184 6.702183 24,050 5 482 0
2020-09-30 06:59:59 GMT 44.111362 6.697802 24,050 5 482 0
2020-09-30 06:59:53 GMT 44.098934 6.696167 24,050 5 482 0
2020-09-30 06:59:41 GMT 44.073669 6.692782 24,050 5 482 0
2020-09-30 06:59:31 GMT 44.051918 6.689889 24,050 5 481 0
2020-09-30 06:59:22 GMT 44.030182 6.687033 24,050 5 481 0
2020-09-30 06:59:18 GMT 44.021988 6.685947 24,050 5 481 0
2020-09-30 06:59:08 GMT 43.999832 6.683009 24,050 5 481 0
2020-09-30 06:58:59 GMT 43.979233 6.680326 24,050 5 481 0
2020-09-30 06:58:48 GMT 43.955788 6.677202 24,050 5 481 0
2020-09-30 06:58:38 GMT 43.932770 6.674130 24,050 5 480 0
2020-09-30 06:58:27 GMT 43.910168 6.671186 24,050 5 480 0
2020-09-30 06:58:17 GMT 43.887589 6.668190 24,050 5 481 0
2020-09-30 06:58:07 GMT 43.865021 6.665188 24,050 5 481 0
2020-09-30 06:57:57 GMT 43.842224 6.662186 24,050 5 481 0
2020-09-30 06:57:47 GMT 43.819885 6.659248 24,050 5 481 0
2020-09-30 06:57:37 GMT 43.799469 6.656565 24,050 5 481 0
2020-09-30 06:57:26 GMT 43.774235 6.653203 24,050 5 481 0
2020-09-30 06:57:15 GMT 43.750259 6.650064 24,050 5 482 0
2020-09-30 06:57:05 GMT 43.728287 6.647186 24,050 5 482 0
2020-09-30 06:56:55 GMT 43.705215 6.644174 24,050 5 482 0
2020-09-30 06:56:45 GMT 43.683929 6.641363 24,050 5 482 0
2020-09-30 06:56:35 GMT 43.658596 6.638031 24,050 5 483 0
2020-09-30 06:56:24 GMT 43.622147 6.633323 24,050 5 483 0
2020-09-30 06:56:14 GMT 43.613708 6.632165 24,050 5 483 0
2020-09-30 06:56:07 GMT 43.597687 6.630121 24,050 5 483 0
2020-09-30 06:56:04 GMT 43.592773 6.629464 24,050 5 483 0
2020-09-30 06:56:01 GMT 43.584320 6.628333 24,050 5 483 0
2020-09-30 06:55:56 GMT 43.573196 6.626864 24,050 5 483 0
2020-09-30 06:55:53 GMT 43.567886 6.626161 24,050 5 483 0
2020-09-30 06:55:49 GMT 43.557632 6.624820 24,050 5 483 0
2020-09-30 06:55:46 GMT 43.548752 6.623670 24,050 5 483 0
2020-09-30 06:55:43 GMT 43.544312 6.623056 24,050 5 483 0
2020-09-30 06:55:37 GMT 43.529846 6.621179 24,050 5 483 0
2020-09-30 06:55:33 GMT 43.522064 6.620221 24,050 5 483 0
2020-09-30 06:55:29 GMT 43.512497 6.618943 24,050 5 483 0
2020-09-30 06:55:25 GMT 43.503571 6.617794 24,050 5 483 0
2020-09-30 06:55:22 GMT 43.499344 6.617235 24,050 5 483 0
2020-09-30 06:55:15 GMT 43.482239 6.615047 24,050 5 483 0
2020-09-30 06:55:12 GMT 43.476654 6.614281 24,050 5 483 0
2020-09-30 06:55:05 GMT 43.459072 6.612004 24,050 5 483 0
2020-09-30 06:55:02 GMT 43.453766 6.611278 24,050 5 483 0
2020-09-30 06:54:59 GMT 43.447296 6.610434 24,050 5 483 0
2020-09-30 06:54:53 GMT 43.431931 6.608468 24,050 5 483 0
2020-09-30 06:54:50 GMT 43.425697 6.607622 24,050 5 483 0
2020-09-30 06:54:45 GMT 43.416824 6.606488 24,050 5 483 0
2020-09-30 06:54:42 GMT 43.409042 6.605466 24,050 5 483 0
2020-09-30 06:54:39 GMT 43.403458 6.604699 24,050 5 483 0
2020-09-30 06:54:34 GMT 43.390778 6.603103 24,050 5 483 0
2020-09-30 06:54:31 GMT 43.385193 6.602336 24,050 5 483 0
2020-09-30 06:54:24 GMT 43.368301 6.600100 24,050 5 483 0
2020-09-30 06:54:20 GMT 43.360710 6.599121 24,050 5 483 0
2020-09-30 06:54:17 GMT 43.351364 6.597929 24,050 5 483 0
2020-09-30 06:54:14 GMT 43.345581 6.597159 24,050 5 483 0
2020-09-30 06:54:10 GMT 43.338913 6.596268 24,050 5 483 0
2020-09-30 06:54:03 GMT 43.322433 6.594160 24,050 5 483 0
2020-09-30 06:54:00 GMT 43.316437 6.593394 24,050 5 483 0
2020-09-30 06:53:53 GMT 43.299500 6.591158 24,050 5 483 0
2020-09-30 06:53:50 GMT 43.293961 6.590456 24,050 5 483 0
2020-09-30 06:53:45 GMT 43.282150 6.588923 24,050 5 483 0
2020-09-30 06:53:41 GMT 43.273472 6.587808 24,050 5 483 0
2020-09-30 06:53:36 GMT 43.261505 6.586304 24,050 5 483 0
2020-09-30 06:53:33 GMT 43.253677 6.585282 24,050 5 483 0
2020-09-30 06:53:28 GMT 43.241455 6.583749 24,050 5 483 0
2020-09-30 06:53:22 GMT 43.230560 6.582344 24,050 5 483 0
2020-09-30 06:53:18 GMT 43.221909 6.581194 24,050 5 483 0
2020-09-30 06:53:12 GMT 43.208542 6.579533 24,050 5 483 0
2020-09-30 06:53:07 GMT 43.197647 6.578128 24,050 5 483 0
2020-09-30 06:53:04 GMT 43.191864 6.577345 24,050 5 483 0
2020-09-30 06:53:01 GMT 43.185394 6.576494 24,050 5 483 0
2020-09-30 06:52:58 GMT 43.178505 6.575644 24,050 5 483 0
2020-09-30 06:52:54 GMT 43.168495 6.574336 24,050 5 483 0
2020-09-30 06:52:48 GMT 43.156670 6.572832 24,050 5 484 0
2020-09-30 06:52:44 GMT 43.147079 6.571590 24,050 5 484 0
2020-09-30 06:52:41 GMT 43.139969 6.570655 24,050 5 484 0
2020-09-30 06:52:38 GMT 43.133057 6.569760 24,050 5 484 0
2020-09-30 06:52:34 GMT 43.122128 6.568320 24,050 5 484 0
2020-09-30 06:52:31 GMT 43.117905 6.567780 24,050 5 484 0
2020-09-30 06:52:28 GMT 43.110771 6.566881 24,050 5 485 0
2020-09-30 06:52:23 GMT 43.100018 6.565508 24,050 5 485 0
2020-09-30 06:52:18 GMT 43.079727 6.562862 24,050 5 485 0
2020-09-30 06:52:14 GMT 43.079727 6.562862 24,050 5 485 0
2020-09-30 06:52:11 GMT 43.071899 6.561840 24,050 5 485 0
2020-09-30 06:52:06 GMT 43.061417 6.560499 24,050 5 485 0
2020-09-30 06:52:03 GMT 43.054722 6.559688 24,050 5 485 0
2020-09-30 06:52:00 GMT 43.047546 6.558710 24,050 5 485 0
2020-09-30 06:51:57 GMT 43.041080 6.557922 24,050 5 485 0
2020-09-30 06:51:54 GMT 43.034611 6.557072 24,050 5 485 0
2020-09-30 06:51:50 GMT 43.024975 6.555830 24,050 5 485 0
2020-09-30 06:51:47 GMT 43.019165 6.555133 24,050 5 486 0
2020-09-30 06:51:43 GMT 43.009335 6.553868 24,050 5 486 0
2020-09-30 06:51:40 GMT 43.002396 6.552952 24,050 5 486 0
2020-09-30 06:51:36 GMT 42.995461 6.552102 24,050 5 486 0
2020-09-30 06:51:32 GMT 42.985611 6.550790 24,050 5 486 0
2020-09-30 06:51:29 GMT 42.976868 6.549704 24,050 5 486 0
2020-09-30 06:51:25 GMT 42.971066 6.548963 24,050 5 486 0
2020-09-30 06:51:22 GMT 42.962780 6.547917 24,050 5 486 0
2020-09-30 06:51:16 GMT 42.950027 6.546282 24,050 5 486 0
2020-09-30 06:51:12 GMT 42.941071 6.545105 24,050 5 486 0
2020-09-30 06:51:09 GMT 42.933918 6.544189 24,050 5 486 0
2020-09-30 06:51:05 GMT 42.925827 6.543189 24,050 5 486 0
2020-09-30 06:51:02 GMT 42.917999 6.542167 24,050 5 486 0
2020-09-30 06:50:59 GMT 42.911713 6.541377 24,050 5 486 0
2020-09-30 06:50:52 GMT 42.894909 6.539219 24,050 5 486 0
2020-09-30 06:50:49 GMT 42.888672 6.538435 24,050 5 486 0
2020-09-30 06:50:39 GMT 42.865585 6.535460 24,050 5 487 0
2020-09-30 06:50:31 GMT 42.849197 6.533416 24,050 5 487 0
2020-09-30 06:50:27 GMT 42.840488 6.532288 24,050 5 487 0
2020-09-30 06:50:24 GMT 42.833504 6.531372 24,050 5 487 0
2020-09-30 06:50:21 GMT 42.826103 6.530457 24,050 5 487 0
2020-09-30 06:50:14 GMT 42.811752 6.528625 24,050 5 487 0
2020-09-30 06:50:11 GMT 42.803467 6.527564 24,050 5 487 0
2020-09-30 06:50:04 GMT 42.788681 6.525692 24,050 5 487 0
2020-09-30 06:50:00 GMT 42.779739 6.524538 24,050 5 487 0
2020-09-30 06:49:53 GMT 42.764923 6.522695 24,050 5 487 0
2020-09-30 06:49:50 GMT 42.757767 6.521727 24,050 5 487 0
2020-09-30 06:49:40 GMT 42.734444 6.518789 24,050 5 487 0
2020-09-30 06:49:33 GMT 42.718754 6.516809 24,050 5 486 0
2020-09-30 06:49:30 GMT 42.712051 6.515954 24,050 5 486 0
2020-09-30 06:49:20 GMT 42.687378 6.512785 24,050 5 486 0
2020-09-30 06:49:09 GMT 42.666103 6.510102 24,050 5 486 0
2020-09-30 06:48:59 GMT 42.642593 6.507100 24,050 5 486 0
2020-09-30 06:48:49 GMT 42.620178 6.504218 24,050 5 487 0
2020-09-30 06:48:38 GMT 42.596832 6.501287 24,050 5 487 0
2020-09-30 06:48:29 GMT 42.574207 6.498477 24,050 5 486 0
2020-09-30 06:48:18 GMT 42.551331 6.495604 24,050 5 487 0
2020-09-30 06:48:08 GMT 42.528870 6.492792 24,050 5 487 0
2020-09-30 06:47:57 GMT 42.505280 6.489799 24,050 5 488 0
2020-09-30 06:47:48 GMT 42.483013 6.486980 24,050 5 488 0
2020-09-30 06:47:38 GMT 42.459183 6.483994 24,050 5 488 0
2020-09-30 06:47:30 GMT 42.443676 6.482061 24,050 5 488 0
2020-09-30 06:47:27 GMT 42.436695 6.481167 24,050 5 488 0
2020-09-30 06:47:20 GMT 42.417793 6.478804 24,050 5 488 0
2020-09-30 06:47:17 GMT 42.413544 6.478251 24,050 5 488 0
2020-09-30 06:47:10 GMT 42.398010 6.476313 24,050 5 488 0
2020-09-30 06:47:07 GMT 42.391026 6.475418 24,050 5 488 0
2020-09-30 06:47:00 GMT 42.373474 6.473183 24,050 5 488 0
2020-09-30 06:46:56 GMT 42.367844 6.472480 24,050 5 488 0
2020-09-30 06:46:47 GMT 42.344925 6.469636 24,050 5 488 0
2020-09-30 06:46:36 GMT 42.322178 6.466795 24,050 5 488 0
2020-09-30 06:46:26 GMT 42.298573 6.463793 24,050 5 488 0
2020-09-30 06:46:16 GMT 42.276276 6.461047 24,050 5 488 0
2020-09-30 06:46:05 GMT 42.252674 6.458109 24,050 5 488 0
2020-09-30 06:46:02 GMT 42.245041 6.457152 24,050 5 488 0
2020-09-30 06:45:56 GMT 42.230164 6.455279 24,050 5 488 0
2020-09-30 06:45:45 GMT 42.207001 6.452408 24,050 5 488 0
2020-09-30 06:45:42 GMT 42.197571 6.451222 24,050 5 488 0
2020-09-30 06:45:35 GMT 42.184753 6.449613 24,050 5 488 0
2020-09-30 06:45:24 GMT 42.160904 6.446665 24,050 5 488 0
2020-09-30 06:45:14 GMT 42.138245 6.443856 24,050 5 488 0
2020-09-30 06:45:05 GMT 42.115082 6.440985 24,050 5 487 0
2020-09-30 06:44:54 GMT 42.093109 6.438238 24,050 5 487 0
2020-09-30 06:44:44 GMT 42.070187 6.435369 24,050 5 487 0
2020-09-30 06:44:33 GMT 42.046692 6.432495 24,050 5 486 0
2020-09-30 06:44:23 GMT 42.024288 6.429685 24,050 5 486 0
2020-09-30 06:44:14 GMT 42.001198 6.426810 24,050 5 486 0
2020-09-30 06:44:03 GMT 41.977936 6.423881 24,050 5 486 0
2020-09-30 06:43:53 GMT 41.955322 6.421072 24,050 5 486 0
2020-09-30 06:43:42 GMT 41.932068 6.418138 24,050 5 486 0
2020-09-30 06:43:32 GMT 41.910141 6.415391 24,050 5 485 0
2020-09-30 06:43:23 GMT 41.886200 6.412395 24,050 5 485 0
2020-09-30 06:43:18 GMT 41.877274 6.411272 24,050 5 485 0
2020-09-30 06:43:12 GMT 41.864754 6.409692 24,050 5 485 0
2020-09-30 06:43:05 GMT 41.847565 6.407589 24,050 5 483 64
2020-09-30 06:43:02 GMT 41.841805 6.406882 24,050 5 482 64
2020-09-30 06:42:55 GMT 41.823441 6.404592 24,050 5 477 0
2020-09-30 06:42:51 GMT 41.818619 6.404007 24,050 5 477 0
2020-09-30 06:42:45 GMT 41.804810 6.402283 24,050 5 471 64
2020-09-30 06:42:41 GMT 41.796555 6.401261 24,050 5 469 0
2020-09-30 06:42:38 GMT 41.789612 6.400410 24,050 5 466 0
2020-09-30 06:42:32 GMT 41.774395 6.398514 24,050 5 461 64
2020-09-30 06:42:21 GMT 41.753448 6.395959 24,050 5 454 0
2020-09-30 06:42:11 GMT 41.732033 6.393340 24,025 5 446 64
2020-09-30 06:42:07 GMT 41.724815 6.392446 24,025 5 442 0
2020-09-30 06:42:01 GMT 41.711151 6.390797 24,025 5 437 64
2020-09-30 06:41:57 GMT 41.703075 6.389827 24,025 5 435 0
2020-09-30 06:41:50 GMT 41.690506 6.388300 24,025 5 430 -64
2020-09-30 06:41:47 GMT 41.683182 6.387426 24,050 5 427 -128
2020-09-30 06:41:41 GMT 41.670399 6.385867 24,050 5 421 64
2020-09-30 06:41:36 GMT 41.663406 6.384992 24,025 5 419 0
2020-09-30 06:41:30 GMT 41.651047 6.383494 24,025 5 419 0
2020-09-30 06:41:26 GMT 41.643303 6.382546 24,025 5 419 0
2020-09-30 06:41:20 GMT 41.631134 6.380997 24,025 5 419 0
2020-09-30 06:41:09 GMT 41.609665 6.378375 24,025 5 419 0
2020-09-30 06:41:05 GMT 41.603500 6.377627 24,025 5 419 0
2020-09-30 06:40:59 GMT 41.590530 6.376003 24,025 5 419 0
2020-09-30 06:40:49 GMT 41.570251 6.373568 24,025 5 419 0
2020-09-30 06:40:38 GMT 41.551346 6.371259 24,025 5 419 0
2020-09-30 06:40:29 GMT 41.532578 6.368949 24,025 5 419 0
2020-09-30 06:40:19 GMT 41.512863 6.366513 24,025 5 419 0
2020-09-30 06:40:08 GMT 41.493301 6.364143 24,025 5 419 0
2020-09-30 06:39:59 GMT 41.472595 6.361595 24,025 5 419 0
2020-09-30 06:39:48 GMT 41.453651 6.359296 24,025 5 419 0
2020-09-30 06:39:37 GMT 41.432934 6.356741 24,025 5 419 0
2020-09-30 06:39:28 GMT 41.414173 6.354377 24,025 5 420 0
2020-09-30 06:39:18 GMT 41.394810 6.352014 24,025 5 420 0
2020-09-30 06:39:08 GMT 41.373489 6.349473 24,025 5 420 -64
2020-09-30 06:38:56 GMT 41.353683 6.347107 24,050 5 420 64
2020-09-30 06:38:35 GMT 41.312943 6.342163 24,025 5 421 0
2020-09-30 06:38:26 GMT 41.293930 6.339860 24,025 5 421 0
2020-09-30 06:38:01 GMT 41.247116 6.334167 24,025 5 421 0
2020-09-30 06:37:55 GMT 41.235275 6.332682 24,025 5 421 0
2020-09-30 06:37:45 GMT 41.215630 6.330310 24,025 5 421 0
2020-09-30 06:37:35 GMT 41.196404 6.328000 24,025 5 421 0
2020-09-30 06:37:03 GMT 41.133556 6.320447 24,025 5 421 0
2020-09-30 06:36:47 GMT 41.094681 6.315796 24,025 5 420 0
2020-09-30 06:36:43 GMT 41.094681 6.315796 24,025 5 421 0
2020-09-30 06:36:32 GMT 41.071411 6.312956 24,025 5 420 0
2020-09-30 06:36:21 GMT 41.052383 6.310669 24,025 5 420 0
2020-09-30 06:36:14 GMT 41.036087 6.308716 24,025 5 420 0
2020-09-30 06:36:02 GMT 41.015549 6.306215 24,025 5 420 0
2020-09-30 06:35:53 GMT 40.997906 6.304092 24,025 5 419 0
2020-09-30 06:35:44 GMT 40.978165 6.301720 24,025 5 419 0
2020-09-30 06:35:38 GMT 40.967560 6.300415 24,025 5 418 0
2020-09-30 06:35:30 GMT 40.953278 6.298706 24,025 5 418 -64
2020-09-30 06:35:23 GMT 40.939201 6.297039 24,025 5 418 0
2020-09-30 06:35:12 GMT 40.916622 6.294292 24,025 5 418 0
2020-09-30 06:35:02 GMT 40.898094 6.292045 24,025 5 418 0
2020-09-30 06:34:51 GMT 40.877102 6.289486 24,025 5 417 0
2020-09-30 06:34:40 GMT 40.856689 6.287109 24,025 5 417 0
2020-09-30 06:34:31 GMT 40.839935 6.285095 24,025 5 416 0
2020-09-30 06:34:21 GMT 40.820679 6.282806 24,025 5 416 0
2020-09-30 06:34:12 GMT 40.801083 6.280497 24,025 5 416 0
2020-09-30 06:34:01 GMT 40.781158 6.278076 24,025 5 415 64
2020-09-30 06:33:50 GMT 40.760071 6.275565 24,025 5 414 -128
2020-09-30 06:33:41 GMT 40.743076 6.273568 24,025 5 414 0
2020-09-30 06:32:16 GMT 40.579723 6.254030 24,025 5 419 0
2020-09-30 06:32:09 GMT 40.565807 6.252407 24,025 5 420 0
2020-09-30 06:27:47 GMT 40.057129 6.192481 24,025 5 423 0
2020-09-30 06:27:43 GMT 40.047592 6.191345 24,025 5 423 0
2020-09-30 06:27:32 GMT 40.027660 6.189048 24,025 5 423 0
2020-09-30 06:27:22 GMT 40.007366 6.186614 24,025 5 423 0
2020-09-30 06:27:12 GMT 39.987442 6.184242 24,025 5 423 0
2020-09-30 06:27:01 GMT 39.965981 6.181745 24,025 5 422 0
2020-09-30 06:26:54 GMT 39.952560 6.180176 24,025 5 423 0
2020-09-30 06:26:51 GMT 39.946472 6.179504 24,025 5 422 0
2020-09-30 06:26:48 GMT 39.938702 6.178561 24,025 5 422 0
2020-09-30 06:26:44 GMT 39.932465 6.177856 24,025 5 422 0
2020-09-30 06:26:40 GMT 39.926010 6.177124 24,025 5 422 0
2020-09-30 06:26:37 GMT 39.919987 6.176392 24,025 5 422 0
2020-09-30 06:26:33 GMT 39.910812 6.175331 24,025 5 422 0
2020-09-30 06:26:30 GMT 39.905914 6.174734 24,025 5 422 0
2020-09-30 06:26:27 GMT 39.901039 6.174194 24,025 5 422 0
2020-09-30 06:26:20 GMT 39.886230 6.172465 24,025 5 422 0
2020-09-30 06:26:09 GMT 39.865768 6.170077 24,025 5 422 0
2020-09-30 06:25:58 GMT 39.844574 6.167629 24,025 5 422 0
2020-09-30 06:25:55 GMT 39.837387 6.166793 24,025 5 422 0
2020-09-30 06:25:46 GMT 39.819061 6.164673 24,025 5 422 0
2020-09-30 06:25:38 GMT 39.805050 6.163025 24,025 5 422 0
2020-09-30 06:25:35 GMT 39.799622 6.162434 24,025 5 422 0
2020-09-30 06:25:32 GMT 39.793968 6.161743 24,025 5 422 0
2020-09-30 06:25:26 GMT 39.780899 6.160225 24,025 5 422 0
2020-09-30 06:25:18 GMT 39.764969 6.158386 24,025 5 422 0
2020-09-30 06:25:07 GMT 39.744114 6.156006 24,025 5 422 0
2020-09-30 06:24:57 GMT 39.724228 6.153717 24,025 5 422 0
2020-09-30 06:24:52 GMT 39.715073 6.152702 24,025 5 422 0
2020-09-30 06:24:45 GMT 39.700607 6.151030 24,025 5 422 0
2020-09-30 06:24:39 GMT 39.690262 6.149836 24,025 5 423 0
2020-09-30 06:24:35 GMT 39.678986 6.148560 24,025 5 423 0
2020-09-30 06:24:32 GMT 39.675476 6.148104 24,025 5 423 0
2020-09-30 06:24:26 GMT 39.663765 6.146790 24,025 5 423 0
2020-09-30 06:24:14 GMT 39.639931 6.144104 24,025 5 423 0
2020-09-30 06:24:04 GMT 39.619633 6.141724 24,025 5 423 0
2020-09-30 06:24:00 GMT 39.611023 6.140760 24,025 5 423 0
2020-09-30 06:23:49 GMT 39.592484 6.138611 24,025 5 423 0
2020-09-30 06:23:39 GMT 39.563210 6.135193 24,025 5 422 0
2020-09-30 06:23:26 GMT 39.548035 6.133362 24,025 5 422 0
2020-09-30 06:23:02 GMT 39.498505 6.127563 24,025 5 422 0
2020-09-30 06:22:53 GMT 39.481750 6.125594 24,025 5 422 0
2020-09-30 06:22:50 GMT 39.476898 6.124997 24,025 5 422 0
2020-09-30 06:22:39 GMT 39.455658 6.122549 24,025 5 422 -64
2020-09-30 06:22:29 GMT 39.436543 6.120483 24,025 5 422 -64
2020-09-30 06:22:07 GMT 39.393108 6.115967 24,050 1 420 0
2020-09-30 06:21:58 GMT 39.375595 6.115623 24,050 0 419 0
2020-09-30 06:20:55 GMT 39.253693 6.137835 24,025 350 423 0
2020-09-30 06:20:46 GMT 39.237259 6.141656 24,025 350 423 0
2020-09-30 06:20:38 GMT 39.220680 6.145569 24,025 350 424 0
2020-09-30 06:20:34 GMT 39.214096 6.147149 24,025 350 423 0
2020-09-30 06:20:24 GMT 39.194469 6.151794 24,025 350 423 0
2020-09-30 06:20:02 GMT 39.152115 6.161718 24,025 350 422 0
2020-09-30 06:19:53 GMT 39.134583 6.165838 24,025 350 422 0
2020-09-30 06:19:43 GMT 39.115173 6.170376 24,025 350 421 0
2020-09-30 06:19:32 GMT 39.094437 6.175272 24,025 350 421 0
2020-09-30 06:19:26 GMT 39.083675 6.177795 24,025 350 421 0
2020-09-30 06:19:17 GMT 39.064270 6.182317 24,025 350 420 0
2020-09-30 06:19:02 GMT 39.037682 6.188538 24,025 350 417 -64
2020-09-30 06:18:56 GMT 39.025406 6.191393 24,025 350 411 64
2020-09-30 06:18:46 GMT 39.006546 6.195752 24,025 350 410 0
2020-09-30 06:18:35 GMT 38.987274 6.200170 24,025 350 410 0
2020-09-30 06:18:25 GMT 38.968552 6.204468 24,025 350 411 0
2020-09-30 06:17:10 GMT 38.827312 6.238708 24,025 349 415 0
2020-09-30 06:16:27 GMT 38.746628 6.258983 24,025 349 404 -256
2020-09-30 06:16:08 GMT 38.710419 6.268311 24,025 349 406 0
2020-09-30 06:15:47 GMT 38.671967 6.278149 24,000 349 407 128
2020-09-30 06:15:11 GMT 38.605179 6.295047 24,400 349 411 -1152
2020-09-30 06:15:00 GMT 38.585709 6.299927 24,600 349 412 -1088
2020-09-30 06:13:58 GMT 38.467575 6.328065 25,825 350 421 -1216
2020-09-30 06:13:48 GMT 38.447754 6.332484 26,050 350 422 -1344
2020-09-30 06:13:34 GMT 38.421329 6.338562 26,275 350 424 -1216
2020-09-30 06:13:26 GMT 38.405457 6.342325 26,500 350 425 -1152
2020-09-30 06:13:17 GMT 38.387440 6.346754 26,675 349 427 -1152
2020-09-30 06:13:06 GMT 38.367691 6.351851 26,875 349 428 -1280
2020-09-30 06:12:56 GMT 38.347733 6.357286 27,100 348 428 -1216
2020-09-30 06:12:40 GMT 38.317333 6.368368 27,450 342 426 -1408
2020-09-30 06:12:35 GMT 38.308273 6.373648 27,575 332 421 -1280
2020-09-30 06:12:25 GMT 38.291496 6.386997 27,800 323 417 -1536
2020-09-30 06:12:14 GMT 38.276596 6.403919 28,075 313 413 -1536
2020-09-30 06:12:09 GMT 38.269989 6.413687 28,200 308 413 -1472
2020-09-30 06:12:03 GMT 38.263474 6.425330 28,350 302 412 -1536
2020-09-30 06:11:53 GMT 38.254581 6.446646 28,625 293 411 -1536
2020-09-30 06:11:43 GMT 38.248436 6.470231 28,875 284 412 -1408
2020-09-30 06:11:31 GMT 38.245239 6.499290 29,175 272 415 -1536
2020-09-30 06:10:44 GMT 38.277809 6.606605 30,375 224 447 -1280
2020-09-30 06:10:37 GMT 38.287628 6.618328 30,500 221 450 -1216
2020-09-30 06:10:27 GMT 38.304199 6.633931 30,625 212 463 -704
2020-09-30 06:10:17 GMT 38.323563 6.647371 30,750 204 476 -704
2020-09-30 06:10:08 GMT 38.344799 6.657476 30,875 195 489 -768
2020-09-30 06:09:57 GMT 38.368195 6.662857 31,000 185 501 -512
2020-09-30 06:09:47 GMT 38.392048 6.664044 31,050 182 507 -128
2020-09-30 06:09:37 GMT 38.414795 6.664701 31,050 182 508 0
2020-09-30 06:09:21 GMT 38.450474 6.665710 31,050 182 507 0
2020-09-30 06:09:06 GMT 38.488693 6.666748 31,050 182 507 0
2020-09-30 06:08:56 GMT 38.509827 6.667328 31,050 182 507 0
2020-09-30 06:08:39 GMT 38.548965 6.668343 31,050 182 507 0
2020-09-30 06:08:24 GMT 38.585522 6.669373 31,050 182 506 0
2020-09-30 06:08:18 GMT 38.600277 6.669800 31,050 182 506 0
2020-09-30 06:08:06 GMT 38.630722 6.670593 31,050 182 507 0
2020-09-30 06:07:55 GMT 38.653488 6.671204 31,050 182 507 0
2020-09-30 06:07:45 GMT 38.677601 6.671875 31,050 182 507 0
2020-09-30 06:07:34 GMT 38.701763 6.672546 31,050 182 507 0
2020-09-30 06:07:25 GMT 38.724747 6.673179 31,050 182 507 0
2020-09-30 06:07:14 GMT 38.748917 6.673896 31,050 182 507 0
2020-09-30 06:07:05 GMT 38.772335 6.674500 31,050 182 507 0
2020-09-30 06:06:54 GMT 38.796494 6.675171 31,050 182 507 0
2020-09-30 06:06:44 GMT 38.820877 6.675866 31,050 182 507 0
2020-09-30 06:06:34 GMT 38.844303 6.676514 31,050 182 507 0
2020-09-30 06:06:23 GMT 38.868668 6.677180 31,050 182 507 0
2020-09-30 06:06:13 GMT 38.892838 6.677896 31,050 182 507 0
2020-09-30 06:06:04 GMT 38.915588 6.678493 31,050 182 507 0
2020-09-30 06:05:53 GMT 38.939735 6.679199 31,050 182 507 0
2020-09-30 06:05:42 GMT 38.964844 6.679867 31,050 182 507 0
2020-09-30 06:05:33 GMT 38.986404 6.680464 31,050 182 507 0
2020-09-30 06:05:22 GMT 39.012218 6.681213 31,050 182 507 0
2020-09-30 06:05:12 GMT 39.035248 6.681837 31,050 182 507 0
2020-09-30 06:05:03 GMT 39.058914 6.682494 31,050 182 507 0
2020-09-30 06:04:52 GMT 39.083305 6.683167 31,050 182 507 0
2020-09-30 06:04:42 GMT 39.106796 6.683807 31,050 182 507 0
2020-09-30 06:04:32 GMT 39.130463 6.684448 31,050 182 507 0
2020-09-30 06:04:21 GMT 39.154358 6.685121 31,050 182 507 0
2020-09-30 06:04:11 GMT 39.177807 6.685730 31,050 182 507 0
2020-09-30 06:04:02 GMT 39.203156 6.686435 31,050 182 507 0
2020-09-30 06:03:51 GMT 39.225906 6.687091 31,050 182 507 0
2020-09-30 06:03:40 GMT 39.250286 6.687744 31,050 182 507 0
2020-09-30 06:03:31 GMT 39.273281 6.688416 31,050 182 507 0
2020-09-30 06:03:20 GMT 39.297729 6.689062 31,050 182 508 0
2020-09-30 06:03:16 GMT 39.307800 6.689360 31,050 182 508 0
2020-09-30 06:03:11 GMT 39.320480 6.689718 31,050 182 507 0
2020-09-30 06:03:05 GMT 39.333847 6.690125 31,050 182 507 0
2020-09-30 06:03:01 GMT 39.345394 6.690430 31,050 182 507 0
2020-09-30 06:02:50 GMT 39.369087 6.691101 31,050 182 507 0
2020-09-30 06:02:39 GMT 39.394180 6.691868 31,050 182 507 0
2020-09-30 06:02:29 GMT 39.417160 6.692525 31,050 182 507 0
2020-09-30 06:02:19 GMT 39.440414 6.693182 31,050 182 507 0
2020-09-30 06:02:10 GMT 39.464081 6.693838 31,050 182 507 0
2020-09-30 06:02:04 GMT 39.477928 6.694214 31,050 182 507 0
2020-09-30 06:01:59 GMT 39.488449 6.694519 31,050 182 506 0
2020-09-30 06:01:55 GMT 39.496902 6.694734 31,050 182 506 0
2020-09-30 06:01:49 GMT 39.512329 6.695152 31,050 182 506 0
2020-09-30 06:01:39 GMT 39.535538 6.695809 31,050 182 506 0
2020-09-30 06:01:28 GMT 39.560371 6.696533 31,050 182 506 0
2020-09-30 06:01:18 GMT 39.584702 6.697242 31,050 182 506 0
2020-09-30 06:01:09 GMT 39.607204 6.697815 31,050 182 506 0
2020-09-30 06:00:58 GMT 39.631317 6.698547 31,050 182 506 0
2020-09-30 06:00:48 GMT 39.654465 6.699152 31,050 182 506 0
2020-09-30 06:00:38 GMT 39.678799 6.699890 31,050 182 505 0
2020-09-30 06:00:27 GMT 39.702621 6.700526 31,050 182 505 0
2020-09-30 06:00:17 GMT 39.727661 6.701242 31,050 182 505 0
2020-09-30 06:00:08 GMT 39.750072 6.701904 31,050 182 505 0
2020-09-30 05:59:57 GMT 39.773895 6.702615 31,050 182 505 0
2020-09-30 05:59:47 GMT 39.798161 6.703308 31,050 182 505 0
2020-09-30 05:59:36 GMT 39.821762 6.703979 31,050 182 505 0
2020-09-30 05:59:26 GMT 39.845318 6.704590 31,050 182 505 0
2020-09-30 05:59:16 GMT 39.869339 6.705322 31,050 182 505 0
2020-09-30 05:59:06 GMT 39.893188 6.706019 31,050 182 505 0
2020-09-30 05:58:55 GMT 39.917679 6.706676 31,050 182 505 0
2020-09-30 05:58:45 GMT 39.942703 6.707403 31,050 182 505 0
2020-09-30 05:58:36 GMT 39.963978 6.707965 31,050 182 505 0
2020-09-30 05:58:30 GMT 39.976135 6.708313 31,050 182 505 0
2020-09-30 05:58:26 GMT 39.987122 6.708679 31,050 182 505 0
2020-09-30 05:58:20 GMT 40.000427 6.709026 31,050 182 505 0
2020-09-30 05:58:15 GMT 40.011200 6.709351 31,050 182 505 0
2020-09-30 05:58:09 GMT 40.024963 6.709713 31,050 182 505 0
2020-09-30 05:58:05 GMT 40.035484 6.710025 31,050 182 505 0
2020-09-30 05:58:00 GMT 40.048100 6.710399 31,050 182 505 0
2020-09-30 05:57:54 GMT 40.061878 6.710774 31,050 182 505 0
2020-09-30 05:57:49 GMT 40.073364 6.711121 31,050 182 505 0
2020-09-30 05:57:45 GMT 40.082016 6.711365 31,050 182 505 0
2020-09-30 05:57:38 GMT 40.099274 6.711853 31,050 182 505 0
2020-09-30 05:57:35 GMT 40.106049 6.712036 31,050 182 505 0
2020-09-30 05:57:25 GMT 40.129936 6.712709 31,050 182 505 0
2020-09-30 05:57:17 GMT 40.147934 6.713257 31,050 182 506 0
2020-09-30 05:57:14 GMT 40.153748 6.713440 31,050 182 505 0
2020-09-30 05:57:05 GMT 40.178074 6.714145 31,050 182 506 0
2020-09-30 05:56:54 GMT 40.201675 6.714783 31,050 182 506 0
2020-09-30 05:56:44 GMT 40.225090 6.715455 31,050 182 506 0
2020-09-30 05:56:34 GMT 40.248688 6.716125 31,050 182 506 0
2020-09-30 05:56:23 GMT 40.274624 6.716891 31,050 182 506 0
2020-09-30 05:56:14 GMT 40.296158 6.717529 31,050 182 506 0
2020-09-30 05:56:04 GMT 40.319965 6.718202 31,050 182 506 0
2020-09-30 05:55:53 GMT 40.343845 6.718889 31,050 182 506 0
2020-09-30 05:55:43 GMT 40.367661 6.719604 31,050 182 505 0
2020-09-30 05:55:33 GMT 40.392014 6.720276 31,050 182 506 0
2020-09-30 05:55:22 GMT 40.415630 6.720949 31,050 182 506 0
2020-09-30 05:55:12 GMT 40.439941 6.721680 31,050 182 506 0
2020-09-30 05:55:02 GMT 40.464020 6.722351 31,050 182 506 0
2020-09-30 05:54:52 GMT 40.486221 6.723022 31,050 182 505 0
2020-09-30 05:54:42 GMT 40.510757 6.723694 31,050 182 505 0
2020-09-30 05:54:31 GMT 40.535034 6.724444 31,050 182 505 0
2020-09-30 05:54:21 GMT 40.558636 6.725131 31,050 182 505 64
2020-09-30 05:54:14 GMT 40.576630 6.725647 31,050 182 505 0
2020-09-30 05:54:10 GMT 40.584320 6.725891 31,050 182 505 0
2020-09-30 05:54:02 GMT 40.605328 6.726442 31,050 182 504 0
2020-09-30 05:53:50 GMT 40.630512 6.727191 31,050 182 504 0
2020-09-30 05:53:41 GMT 40.653854 6.727905 31,050 182 504 0
2020-09-30 05:53:35 GMT 40.665253 6.728210 31,050 182 504 0
2020-09-30 05:53:30 GMT 40.677841 6.728638 31,050 182 504 0
2020-09-30 05:53:21 GMT 40.700481 6.729251 31,050 182 504 0
2020-09-30 05:53:13 GMT 40.719818 6.729797 31,050 182 505 0
2020-09-30 05:53:10 GMT 40.723801 6.729919 31,050 182 505 0
2020-09-30 05:53:01 GMT 40.747833 6.730652 31,050 182 505 0
2020-09-30 05:52:50 GMT 40.771660 6.731311 31,050 182 505 0
2020-09-30 05:52:40 GMT 40.795486 6.731995 31,050 182 505 0
2020-09-30 05:52:29 GMT 40.820984 6.732788 31,050 182 506 0
2020-09-30 05:52:20 GMT 40.842728 6.733398 31,050 182 506 0
2020-09-30 05:52:10 GMT 40.866581 6.734057 31,050 182 506 0
2020-09-30 05:51:59 GMT 40.890930 6.734802 31,050 182 506 0
2020-09-30 05:51:49 GMT 40.914093 6.735474 31,050 182 506 0
2020-09-30 05:51:39 GMT 40.938179 6.736180 31,050 182 506 0
2020-09-30 05:51:28 GMT 40.962524 6.736938 31,050 182 506 0
2020-09-30 05:51:18 GMT 40.986191 6.737610 31,050 182 506 0
2020-09-30 05:51:09 GMT 41.009125 6.738342 31,050 182 506 0
2020-09-30 05:50:58 GMT 41.033005 6.738989 31,050 182 506 0
2020-09-30 05:50:48 GMT 41.056652 6.739738 31,050 182 506 0
2020-09-30 05:50:38 GMT 41.080536 6.740417 31,050 182 506 0
2020-09-30 05:50:29 GMT 41.125900 6.741760 31,050 182 506 0
2020-09-30 05:50:19 GMT 41.125900 6.741760 31,050 182 506 0
2020-09-30 05:50:08 GMT 41.153015 6.742609 31,050 182 506 0
2020-09-30 05:49:59 GMT 41.173599 6.743225 31,050 182 506 0
2020-09-30 05:49:56 GMT 41.177811 6.743347 31,050 182 506 0
2020-09-30 05:49:49 GMT 41.194199 6.743835 31,050 182 506 0
2020-09-30 05:49:45 GMT 41.204224 6.744107 31,050 182 506 0
2020-09-30 05:49:36 GMT 41.225510 6.744751 31,050 182 506 0
2020-09-30 05:49:27 GMT 41.247253 6.745361 31,050 182 506 0
2020-09-30 05:49:16 GMT 41.271118 6.746105 31,050 182 506 0
2020-09-30 05:49:07 GMT 41.295189 6.746791 31,050 182 506 0
2020-09-30 05:48:56 GMT 41.319260 6.747498 31,050 182 506 0
2020-09-30 05:48:46 GMT 41.342857 6.748227 31,050 182 506 0
2020-09-30 05:48:36 GMT 41.368832 6.748976 31,050 182 506 0
2020-09-30 05:48:27 GMT 41.389408 6.749566 31,050 182 506 0
2020-09-30 05:48:16 GMT 41.411846 6.750204 31,050 182 506 0
2020-09-30 05:48:06 GMT 41.435913 6.750907 31,050 182 505 0
2020-09-30 05:48:03 GMT 41.443405 6.751099 31,050 182 505 0
2020-09-30 05:47:55 GMT 41.460205 6.751660 31,050 182 505 0
2020-09-30 05:47:45 GMT 41.483814 6.752376 31,050 182 505 0
2020-09-30 05:47:36 GMT 41.507629 6.753096 31,050 182 505 0
2020-09-30 05:47:25 GMT 41.531158 6.753783 31,050 182 504 0
2020-09-30 05:47:15 GMT 41.555191 6.754532 31,050 182 504 0
2020-09-30 05:47:05 GMT 41.578537 6.755219 31,050 182 504 0
2020-09-30 05:46:54 GMT 41.602982 6.755905 31,050 182 504 0
2020-09-30 05:46:45 GMT 41.626968 6.756654 31,050 182 503 0
2020-09-30 05:46:34 GMT 41.650707 6.757358 31,050 182 503 0
2020-09-30 05:46:24 GMT 41.673752 6.758028 31,050 182 503 0
2020-09-30 05:46:14 GMT 41.697910 6.758764 31,050 182 503 0
2020-09-30 05:46:04 GMT 41.720905 6.759466 31,050 182 502 0
2020-09-30 05:45:54 GMT 41.745529 6.760212 31,050 182 502 0
2020-09-30 05:45:42 GMT 41.770386 6.761024 31,050 182 502 0
2020-09-30 05:45:33 GMT 41.792412 6.761638 31,050 182 502 0
2020-09-30 05:45:23 GMT 41.816292 6.762404 31,050 182 501 0
2020-09-30 05:45:12 GMT 41.840176 6.763107 31,050 182 501 0
2020-09-30 05:45:03 GMT 41.863541 6.763833 31,050 182 501 0
2020-09-30 05:44:52 GMT 41.887192 6.764512 31,050 182 501 0
2020-09-30 05:44:41 GMT 41.911972 6.765268 31,050 182 501 0
2020-09-30 05:44:31 GMT 41.934673 6.765981 31,050 182 501 0
2020-09-30 05:44:21 GMT 41.958092 6.766684 31,050 182 501 0
2020-09-30 05:44:12 GMT 41.981506 6.767387 31,050 182 502 0
2020-09-30 05:44:01 GMT 42.004944 6.768140 31,050 182 502 0
2020-09-30 05:43:51 GMT 42.029083 6.768856 31,050 182 502 0
2020-09-30 05:43:41 GMT 42.052734 6.769576 31,050 182 502 0
2020-09-30 05:43:30 GMT 42.076427 6.770261 31,050 182 502 0
2020-09-30 05:43:21 GMT 42.100342 6.771011 31,050 182 502 0
2020-09-30 05:43:10 GMT 42.124050 6.771730 31,050 182 503 0
2020-09-30 05:43:00 GMT 42.148209 6.772496 31,050 182 503 0
2020-09-30 05:42:50 GMT 42.171207 6.773199 31,050 182 503 0
2020-09-30 05:42:39 GMT 42.194733 6.773883 31,050 182 503 0
2020-09-30 05:42:30 GMT 42.219131 6.774632 31,050 182 503 0
2020-09-30 05:42:18 GMT 42.243805 6.775381 31,050 182 504 0
2020-09-30 05:42:14 GMT 42.254745 6.775693 31,050 182 504 0
2020-09-30 05:42:09 GMT 42.265732 6.776068 31,050 182 504 0
2020-09-30 05:41:59 GMT 42.289719 6.776754 31,050 182 504 0
2020-09-30 05:41:48 GMT 42.313248 6.777503 31,050 182 504 0
2020-09-30 05:41:39 GMT 42.337490 6.778245 31,050 182 504 0
2020-09-30 05:41:33 GMT 42.350342 6.778692 31,050 182 504 0
2020-09-30 05:41:28 GMT 42.361744 6.779012 31,050 182 505 0
2020-09-30 05:41:18 GMT 42.409378 6.780500 31,050 182 505 0
2020-09-30 05:41:07 GMT 42.409378 6.780500 31,050 182 505 0
2020-09-30 05:40:58 GMT 42.433456 6.781249 31,050 182 506 0
2020-09-30 05:40:54 GMT 42.439999 6.781439 31,050 182 506 0
2020-09-30 05:40:45 GMT 42.461792 6.782060 31,050 182 507 0
2020-09-30 05:40:35 GMT 42.484970 6.782780 31,050 182 507 0
2020-09-30 05:40:26 GMT 42.505142 6.783433 31,050 182 508 0
2020-09-30 05:40:14 GMT 42.533524 6.784313 31,050 182 508 0
2020-09-30 05:40:05 GMT 42.555862 6.784994 31,050 182 508 0
2020-09-30 05:40:01 GMT 42.564285 6.785244 31,050 182 508 0
2020-09-30 05:39:55 GMT 42.579330 6.785718 31,050 182 508 0
2020-09-30 05:39:52 GMT 42.587105 6.785974 31,050 182 508 0
2020-09-30 05:39:45 GMT 42.603287 6.786492 31,050 182 508 0
2020-09-30 05:39:39 GMT 42.615501 6.786868 31,050 182 508 0
2020-09-30 05:39:35 GMT 42.626579 6.787187 31,050 182 508 0
2020-09-30 05:39:27 GMT 42.647003 6.787803 31,050 182 508 0
2020-09-30 05:39:24 GMT 42.650787 6.787954 31,050 182 508 0
2020-09-30 05:39:14 GMT 42.674763 6.788720 31,050 182 508 0
2020-09-30 05:39:05 GMT 42.697525 6.789423 31,050 182 508 0
2020-09-30 05:38:55 GMT 42.723179 6.790190 31,050 182 508 0
2020-09-30 05:38:44 GMT 42.746658 6.790924 31,050 182 508 0
2020-09-30 05:38:34 GMT 42.769218 6.791659 31,050 182 508 0
2020-09-30 05:38:27 GMT 42.785889 6.792173 31,050 182 508 0
2020-09-30 05:38:24 GMT 42.792725 6.792361 31,050 182 508 0
2020-09-30 05:38:14 GMT 42.816422 6.793082 31,050 182 508 0
2020-09-30 05:38:01 GMT 42.858261 6.794341 31,050 182 508 0
2020-09-30 05:37:54 GMT 42.865997 6.794586 31,050 182 508 0
2020-09-30 05:37:47 GMT 42.881733 6.795109 31,050 182 508 0
2020-09-30 05:37:43 GMT 42.889229 6.795306 31,050 182 508 0
2020-09-30 05:37:36 GMT 42.906128 6.795829 31,050 182 508 0
2020-09-30 05:37:33 GMT 42.913193 6.796066 31,050 182 508 0
2020-09-30 05:37:22 GMT 42.938324 6.796896 31,050 182 508 0
2020-09-30 05:37:16 GMT 42.951702 6.797333 31,050 182 508 0
2020-09-30 05:37:12 GMT 42.962952 6.797663 31,050 182 508 0
2020-09-30 05:37:07 GMT 42.974487 6.797982 31,050 182 508 0
2020-09-30 05:37:03 GMT 42.985031 6.798314 31,050 182 508 0
2020-09-30 05:36:57 GMT 42.998199 6.798749 31,050 182 508 0
2020-09-30 05:36:52 GMT 43.009918 6.799132 31,050 182 508 0
2020-09-30 05:36:49 GMT 43.015339 6.799295 31,050 182 508 0
2020-09-30 05:36:46 GMT 43.022602 6.799491 31,050 182 508 0
2020-09-30 05:36:42 GMT 43.032944 6.799834 31,050 182 508 0
2020-09-30 05:36:37 GMT 43.044205 6.800218 31,050 182 508 0
2020-09-30 05:36:31 GMT 43.058075 6.800665 31,050 182 508 0
2020-09-30 05:36:28 GMT 43.064896 6.800856 31,050 182 509 0
2020-09-30 05:36:21 GMT 43.083710 6.801495 31,050 182 509 0
2020-09-30 05:36:18 GMT 43.089111 6.801623 31,050 182 509 0
2020-09-30 05:36:11 GMT 43.105835 6.802172 31,050 182 509 0
2020-09-30 05:36:08 GMT 43.112400 6.802368 31,050 182 509 0
2020-09-30 05:36:01 GMT 43.131950 6.802957 31,050 182 510 0
2020-09-30 05:35:57 GMT 43.138092 6.803156 31,050 182 510 0
2020-09-30 05:35:50 GMT 43.153645 6.803676 31,050 182 510 0
2020-09-30 05:35:46 GMT 43.164494 6.804003 31,050 182 510 0
2020-09-30 05:35:40 GMT 43.190643 6.804817 31,050 182 510 0
2020-09-30 05:35:35 GMT 43.190643 6.804817 31,050 182 510 0
2020-09-30 05:35:31 GMT 43.201492 6.805136 31,050 182 510 0
2020-09-30 05:35:27 GMT 43.208809 6.805376 31,050 182 510 0
2020-09-30 05:35:24 GMT 43.215652 6.805638 31,050 182 510 0
2020-09-30 05:35:20 GMT 43.225067 6.805903 31,050 182 511 0
2020-09-30 05:35:17 GMT 43.231934 6.806094 31,050 182 510 0
2020-09-30 05:35:14 GMT 43.239487 6.806357 31,050 182 510 0
2020-09-30 05:35:10 GMT 43.250099 6.806684 31,050 182 511 0
2020-09-30 05:35:07 GMT 43.256241 6.806861 31,050 182 511 0
2020-09-30 05:35:03 GMT 43.264984 6.807180 31,050 182 511 0
2020-09-30 05:35:00 GMT 43.273472 6.807404 31,050 182 511 0
2020-09-30 05:34:55 GMT 43.286224 6.807819 31,050 182 511 0
2020-09-30 05:34:52 GMT 43.292587 6.808010 31,050 182 511 0
2020-09-30 05:34:44 GMT 43.313370 6.808649 31,050 182 511 0
2020-09-30 05:34:40 GMT 43.323532 6.809032 31,050 182 511 0
2020-09-30 05:34:36 GMT 43.328728 6.809169 31,050 182 511 0
2020-09-30 05:34:33 GMT 43.335617 6.809365 31,050 182 511 0
2020-09-30 05:34:29 GMT 43.346699 6.809758 31,050 182 511 0
2020-09-30 05:34:26 GMT 43.352600 6.809927 31,050 182 512 0
2020-09-30 05:34:23 GMT 43.359970 6.810182 31,050 182 512 0
2020-09-30 05:34:19 GMT 43.370590 6.810501 31,050 182 512 0
2020-09-30 05:34:14 GMT 43.383614 6.810935 31,050 182 512 0
2020-09-30 05:34:11 GMT 43.388313 6.811066 31,050 182 512 0
2020-09-30 05:34:08 GMT 43.395206 6.811262 31,050 182 512 0
2020-09-30 05:34:03 GMT 43.408424 6.811720 31,050 182 512 0
2020-09-30 05:33:59 GMT 43.419086 6.812047 31,050 182 512 0
2020-09-30 05:33:55 GMT 43.426861 6.812308 31,050 182 511 0
2020-09-30 05:33:51 GMT 43.436325 6.812609 31,050 182 511 0
2020-09-30 05:33:48 GMT 43.442966 6.812831 31,050 182 511 0
2020-09-30 05:33:45 GMT 43.450287 6.813056 31,050 182 511 0
2020-09-30 05:33:38 GMT 43.466568 6.813551 31,050 182 511 0
2020-09-30 05:33:34 GMT 43.475788 6.813878 31,050 182 511 0
2020-09-30 05:33:31 GMT 43.483608 6.814139 31,050 182 511 0
2020-09-30 05:33:28 GMT 43.491150 6.814335 31,050 182 511 0
2020-09-30 05:33:24 GMT 43.498459 6.814597 31,050 182 511 0
2020-09-30 05:33:21 GMT 43.507919 6.814909 31,050 182 511 0
2020-09-30 05:33:17 GMT 43.516426 6.815120 31,050 182 511 0
2020-09-30 05:33:14 GMT 43.522568 6.815356 31,050 182 511 0
2020-09-30 05:33:08 GMT 43.539551 6.815867 31,050 182 511 0
2020-09-30 05:33:04 GMT 43.546143 6.816122 31,050 182 510 0
2020-09-30 05:33:00 GMT 43.560093 6.816559 31,050 182 510 0
2020-09-30 05:32:57 GMT 43.563629 6.816633 31,050 182 510 0
2020-09-30 05:32:54 GMT 43.570908 6.816889 31,050 182 510 0
2020-09-30 05:32:50 GMT 43.579411 6.817147 31,050 182 510 0
2020-09-30 05:32:47 GMT 43.587433 6.817400 31,050 182 510 0
2020-09-30 05:32:43 GMT 43.595215 6.817655 31,050 182 510 0
2020-09-30 05:32:36 GMT 43.612152 6.818230 31,050 182 509 0
2020-09-30 05:32:33 GMT 43.619213 6.818455 31,050 182 509 0
2020-09-30 05:32:29 GMT 43.628384 6.818717 31,050 182 509 0
2020-09-30 05:32:26 GMT 43.637554 6.819044 31,050 182 509 0
2020-09-30 05:32:22 GMT 43.644653 6.819252 31,050 182 509 0
2020-09-30 05:32:16 GMT 43.659439 6.819699 31,050 182 508 0
2020-09-30 05:32:10 GMT 43.674500 6.820210 31,050 182 508 0
2020-09-30 05:32:06 GMT 43.683876 6.820483 31,050 182 508 0
2020-09-30 05:31:59 GMT 43.699375 6.821006 31,050 182 508 0
2020-09-30 05:31:55 GMT 43.708549 6.821333 31,050 182 508 0
2020-09-30 05:31:51 GMT 43.718857 6.821616 31,050 182 508 0
2020-09-30 05:31:45 GMT 43.732452 6.822063 31,050 182 508 0
2020-09-30 05:31:39 GMT 43.748676 6.822575 31,050 182 508 0
2020-09-30 05:31:35 GMT 43.759918 6.822957 31,050 182 507 0
2020-09-30 05:31:29 GMT 43.772369 6.823340 31,050 182 507 0
2020-09-30 05:31:26 GMT 43.777725 6.823532 31,050 182 507 0
2020-09-30 05:31:20 GMT 43.790154 6.823948 31,050 182 507 0
2020-09-30 05:31:16 GMT 43.801651 6.824275 31,050 182 508 0
2020-09-30 05:31:13 GMT 43.806587 6.824472 31,050 182 508 0
2020-09-30 05:31:08 GMT 43.824417 6.825001 31,050 182 508 0
2020-09-30 05:31:03 GMT 43.832191 6.825256 31,050 182 508 0
2020-09-30 05:31:00 GMT 43.838058 6.825448 31,050 182 508 0
2020-09-30 05:30:57 GMT 43.847672 6.825767 31,050 182 508 0
2020-09-30 05:30:54 GMT 43.854950 6.826023 31,050 182 508 0
2020-09-30 05:30:50 GMT 43.862228 6.826214 31,050 182 508 0
2020-09-30 05:30:44 GMT 43.876785 6.826725 31,050 182 508 0
2020-09-30 05:30:40 GMT 43.885483 6.826981 31,050 182 508 0
2020-09-30 05:30:37 GMT 43.900497 6.827492 31,050 182 509 0
2020-09-30 05:30:34 GMT 43.900497 6.827492 31,050 182 509 0
2020-09-30 05:30:29 GMT 43.910156 6.827811 31,050 182 508 0
2020-09-30 05:30:26 GMT 43.919567 6.828068 31,050 182 509 0
2020-09-30 05:30:20 GMT 43.931534 6.828461 31,050 182 509 0
2020-09-30 05:30:17 GMT 43.942612 6.828833 31,050 182 509 0
2020-09-30 05:30:14 GMT 43.948479 6.829049 31,050 182 509 0
2020-09-30 05:30:09 GMT 43.958626 6.829376 31,050 182 509 0
2020-09-30 05:30:06 GMT 43.967331 6.829638 31,050 182 509 0
2020-09-30 05:30:03 GMT 43.972034 6.829769 31,050 182 509 0
2020-09-30 05:29:59 GMT 43.982620 6.830111 31,050 182 509 0
2020-09-30 05:29:53 GMT 43.997406 6.830622 31,050 182 509 0
2020-09-30 05:29:48 GMT 44.006561 6.830941 31,050 182 509 0
2020-09-30 05:29:45 GMT 44.013382 6.831133 31,050 182 508 0
2020-09-30 05:29:42 GMT 44.022308 6.831469 31,050 182 508 0
2020-09-30 05:29:37 GMT 44.034302 6.831835 31,050 182 508 0
2020-09-30 05:29:34 GMT 44.043678 6.832188 31,050 182 508 0
2020-09-30 05:29:30 GMT 44.048630 6.832346 31,050 182 508 0
2020-09-30 05:29:27 GMT 44.056870 6.832602 31,050 182 508 0
2020-09-30 05:29:22 GMT 44.068584 6.832973 31,050 182 508 0
2020-09-30 05:29:17 GMT 44.079151 6.833300 31,050 182 508 0
2020-09-30 05:29:14 GMT 44.087391 6.833561 31,050 182 508 0
2020-09-30 05:29:07 GMT 44.102894 6.834019 31,050 182 508 0
2020-09-30 05:29:04 GMT 44.112259 6.834326 31,050 182 508 0
2020-09-30 05:28:57 GMT 44.126587 6.834804 31,050 182 508 0
2020-09-30 05:28:54 GMT 44.134552 6.835093 31,050 182 508 0
2020-09-30 05:28:47 GMT 44.150528 6.835604 31,050 182 508 0
2020-09-30 05:28:41 GMT 44.164627 6.836051 31,050 182 508 0
2020-09-30 05:28:38 GMT 44.174953 6.836373 31,050 182 508 0
2020-09-30 05:28:34 GMT 44.180603 6.836562 31,050 182 508 0
2020-09-30 05:28:31 GMT 44.188843 6.836818 31,050 182 508 0
2020-09-30 05:28:26 GMT 44.199627 6.837181 31,050 182 508 0
2020-09-30 05:28:23 GMT 44.207401 6.837448 31,050 182 508 64
2020-09-30 05:28:16 GMT 44.224068 6.837984 31,050 182 508 0
2020-09-30 05:28:11 GMT 44.236038 6.838335 31,050 182 508 0
2020-09-30 05:28:06 GMT 44.246613 6.838728 31,050 182 508 0
2020-09-30 05:28:00 GMT 44.263775 6.839257 31,050 182 508 0
2020-09-30 05:27:56 GMT 44.270828 6.839512 31,050 182 508 0
2020-09-30 05:27:49 GMT 44.287983 6.840061 31,050 182 508 0
2020-09-30 05:27:46 GMT 44.296875 6.840396 31,050 182 508 0
2020-09-30 05:27:39 GMT 44.311447 6.840865 31,050 182 508 0
2020-09-30 05:27:35 GMT 44.319687 6.841133 31,050 182 507 0
2020-09-30 05:27:25 GMT 44.347092 6.842063 31,050 182 507 0
2020-09-30 05:27:19 GMT 44.359768 6.842473 31,050 182 507 0
2020-09-30 05:27:15 GMT 44.381088 6.843143 31,050 182 506 0
2020-09-30 05:27:09 GMT 44.381088 6.843143 31,050 182 506 0
2020-09-30 05:27:05 GMT 44.390213 6.843478 31,050 182 506 0
2020-09-30 05:27:02 GMT 44.398178 6.843763 31,050 182 506 0
2020-09-30 05:26:56 GMT 44.411999 6.844214 31,050 182 506 0
2020-09-30 05:26:52 GMT 44.422714 6.844548 31,050 182 506 0
2020-09-30 05:26:47 GMT 44.432556 6.844875 31,050 182 505 0
2020-09-30 05:26:44 GMT 44.438160 6.845085 31,050 182 505 0
2020-09-30 05:26:40 GMT 44.448215 6.845420 31,050 182 505 0
2020-09-30 05:26:37 GMT 44.457294 6.845688 31,050 182 505 0
2020-09-30 05:26:34 GMT 44.461716 6.845856 31,050 182 505 0
2020-09-30 05:26:30 GMT 44.475266 6.846248 31,050 182 505 0
2020-09-30 05:26:24 GMT 44.486252 6.846640 31,050 182 505 0
2020-09-30 05:26:19 GMT 44.500259 6.847098 31,050 182 505 0
2020-09-30 05:26:14 GMT 44.509571 6.847430 31,050 182 505 0
2020-09-30 05:26:08 GMT 44.526123 6.847948 31,050 182 505 0
2020-09-30 05:26:03 GMT 44.533859 6.848210 31,050 182 505 0
2020-09-30 05:25:55 GMT 44.554871 6.848929 31,050 182 505 0
2020-09-30 05:25:52 GMT 44.559986 6.849105 31,050 182 505 0
2020-09-30 05:25:45 GMT 44.578400 6.849714 31,050 182 505 0
2020-09-30 05:25:42 GMT 44.584244 6.849909 31,050 182 505 0
2020-09-30 05:25:36 GMT 44.601048 6.850445 31,050 182 505 0
2020-09-30 05:25:32 GMT 44.608311 6.850712 31,050 182 505 0
2020-09-30 05:25:24 GMT 44.627441 6.851315 31,050 182 505 0
2020-09-30 05:25:21 GMT 44.632095 6.851480 31,050 182 505 0
2020-09-30 05:25:14 GMT 44.650532 6.852052 31,050 182 505 0
2020-09-30 05:25:11 GMT 44.655468 6.852253 31,050 182 505 0
2020-09-30 05:25:04 GMT 44.674347 6.852853 31,050 182 505 0
2020-09-30 05:25:01 GMT 44.680206 6.853049 31,050 182 505 0
2020-09-30 05:24:53 GMT 44.705200 6.853899 31,050 182 506 0
2020-09-30 05:24:44 GMT 44.722736 6.854464 31,050 182 506 0
2020-09-30 05:24:41 GMT 44.727390 6.854598 31,050 182 506 0
2020-09-30 05:24:33 GMT 44.745407 6.855201 31,050 182 506 0
2020-09-30 05:24:30 GMT 44.751709 6.855403 31,050 182 506 0
2020-09-30 05:24:23 GMT 44.768509 6.855992 31,050 182 506 0
2020-09-30 05:24:20 GMT 44.775284 6.856188 31,050 182 506 0
2020-09-30 05:24:12 GMT 44.793728 6.856809 31,050 182 506 0
2020-09-30 05:24:09 GMT 44.800056 6.857010 31,050 182 506 0
2020-09-30 05:24:03 GMT 44.817329 6.857612 31,050 182 506 0
2020-09-30 05:24:00 GMT 44.824127 6.857813 31,050 182 506 0
2020-09-30 05:23:54 GMT 44.846558 6.858542 31,050 182 506 0
2020-09-30 05:23:50 GMT 44.846558 6.858542 31,050 182 506 0
2020-09-30 05:23:42 GMT 44.865280 6.859196 31,050 182 506 0
2020-09-30 05:23:39 GMT 44.870865 6.859327 31,050 182 506 0
2020-09-30 05:23:32 GMT 44.887249 6.859890 31,050 182 506 0
2020-09-30 05:23:29 GMT 44.894485 6.860112 31,050 182 506 0
2020-09-30 05:23:22 GMT 44.912529 6.860761 31,050 182 506 0
2020-09-30 05:23:19 GMT 44.918346 6.860962 31,050 182 506 0
2020-09-30 05:23:13 GMT 44.934036 6.861431 31,050 182 506 0
2020-09-30 05:23:09 GMT 44.942001 6.861747 31,050 182 506 0
2020-09-30 05:23:04 GMT 44.954426 6.862168 31,050 182 507 0
2020-09-30 05:23:01 GMT 44.961182 6.862335 31,050 182 507 0
2020-09-30 05:22:58 GMT 44.966125 6.862531 31,050 182 507 0
2020-09-30 05:22:54 GMT 44.978073 6.862905 31,050 182 507 0
2020-09-30 05:22:51 GMT 44.984127 6.863106 31,050 182 507 0
2020-09-30 05:22:48 GMT 44.990921 6.863374 31,050 182 507 0
2020-09-30 05:22:41 GMT 45.007309 6.863909 31,050 182 507 0
2020-09-30 05:22:38 GMT 45.014832 6.864166 31,050 182 507 0
2020-09-30 05:22:30 GMT 45.032593 6.864755 31,050 182 507 0
2020-09-30 05:22:27 GMT 45.038685 6.864981 31,050 182 507 0
2020-09-30 05:22:20 GMT 45.057446 6.865584 31,050 182 507 0
2020-09-30 05:22:17 GMT 45.061890 6.865736 31,050 182 507 0
2020-09-30 05:22:12 GMT 45.076160 6.866254 31,050 182 507 0
2020-09-30 05:22:09 GMT 45.080860 6.866388 31,050 182 507 0
2020-09-30 05:22:06 GMT 45.087845 6.866586 31,050 182 507 0
2020-09-30 05:22:03 GMT 45.095123 6.866847 31,050 182 507 0
2020-09-30 05:22:00 GMT 45.104046 6.867125 31,050 182 507 0
2020-09-30 05:21:57 GMT 45.110596 6.867371 31,050 182 507 0
2020-09-30 05:21:53 GMT 45.122292 6.867728 31,050 182 507 0
2020-09-30 05:21:50 GMT 45.129318 6.868025 31,050 182 507 0
2020-09-30 05:21:47 GMT 45.134026 6.868130 31,050 182 507 0
2020-09-30 05:21:43 GMT 45.143875 6.868482 31,050 182 507 0
2020-09-30 05:21:40 GMT 45.150650 6.868744 31,050 182 507 0
2020-09-30 05:21:37 GMT 45.157673 6.868934 31,050 182 507 0
2020-09-30 05:21:32 GMT 45.169636 6.869336 31,050 182 507 0
2020-09-30 05:21:29 GMT 45.176193 6.869594 31,050 182 507 0
2020-09-30 05:21:26 GMT 45.182301 6.869805 31,050 182 507 0
2020-09-30 05:21:22 GMT 45.193333 6.870207 31,050 182 507 0
2020-09-30 05:21:19 GMT 45.200821 6.870444 31,050 182 507 0
2020-09-30 05:21:16 GMT 45.213730 6.870902 31,050 182 507 0
2020-09-30 05:21:09 GMT 45.224709 6.871278 31,050 182 507 0
2020-09-30 05:21:06 GMT 45.230118 6.871490 31,050 182 507 0
2020-09-30 05:21:01 GMT 45.242752 6.871948 31,050 177 509 0
2020-09-30 05:20:58 GMT 45.248634 6.872149 31,050 182 507 0
2020-09-30 05:20:55 GMT 45.254456 6.872350 31,050 182 507 0
2020-09-30 05:20:52 GMT 45.263855 6.872668 31,050 182 507 0
2020-09-30 05:20:48 GMT 45.272285 6.872953 31,050 182 507 0
2020-09-30 05:20:45 GMT 45.278568 6.873154 31,050 182 507 0
2020-09-30 05:20:41 GMT 45.287933 6.873518 31,050 182 506 0
2020-09-30 05:20:38 GMT 45.296585 6.873845 31,050 182 506 0
2020-09-30 05:20:35 GMT 45.301529 6.873975 31,050 182 506 0
2020-09-30 05:20:32 GMT 45.312271 6.874427 31,050 182 506 0
2020-09-30 05:20:28 GMT 45.318138 6.874628 31,050 182 506 0
2020-09-30 05:20:25 GMT 45.335922 6.875231 31,050 172 513 0
2020-09-30 05:20:21 GMT 45.335922 6.875231 31,050 182 506 0
2020-09-30 05:20:17 GMT 45.345043 6.875566 31,050 182 506 0
2020-09-30 05:20:13 GMT 45.356964 6.875937 31,050 182 507 0
2020-09-30 05:20:10 GMT 45.368912 6.876395 31,050 182 507 0
2020-09-30 05:20:07 GMT 45.368912 6.876395 31,050 182 507 -64
2020-09-30 05:20:02 GMT 45.378983 6.876722 31,050 182 507 -64
2020-09-30 05:19:59 GMT 45.388092 6.877049 31,050 182 507 -64
2020-09-30 05:19:52 GMT 45.403336 6.877638 31,050 182 507 0
2020-09-30 05:19:49 GMT 45.411758 6.877965 31,050 181 507 0
2020-09-30 05:19:46 GMT 45.415970 6.878095 31,050 181 507 0
2020-09-30 05:19:42 GMT 45.426743 6.878245 31,050 179 508 0
2020-09-30 05:19:37 GMT 45.441101 6.878161 31,050 178 509 0
2020-09-30 05:19:32 GMT 45.450714 6.877899 31,050 177 509 0
2020-09-30 05:19:29 GMT 45.457794 6.877575 31,050 177 509 0
2020-09-30 05:19:26 GMT 45.463669 6.877245 31,050 177 509 0
2020-09-30 05:19:23 GMT 45.470490 6.876787 31,050 176 509 0
2020-09-30 05:19:19 GMT 45.482941 6.875676 31,050 175 511 64
2020-09-30 05:19:16 GMT 45.488148 6.875164 31,050 175 511 0
2020-09-30 05:19:12 GMT 45.500153 6.873714 31,050 174 511 0
2020-09-30 05:19:09 GMT 45.504627 6.873087 31,050 173 512 0
2020-09-30 05:19:06 GMT 45.510269 6.872144 31,050 172 513 0
2020-09-30 05:19:03 GMT 45.517799 6.870809 31,050 172 512 0
2020-09-30 05:19:00 GMT 45.525513 6.869332 31,050 172 512 0
2020-09-30 05:18:56 GMT 45.534931 6.867460 31,050 172 512 0
2020-09-30 05:18:53 GMT 45.541946 6.866063 31,050 172 512 0
2020-09-30 05:18:48 GMT 45.553925 6.863708 31,050 172 512 0
2020-09-30 05:18:45 GMT 45.561234 6.862267 31,050 172 512 0
2020-09-30 05:18:41 GMT 45.569916 6.860493 31,050 172 512 0
2020-09-30 05:18:38 GMT 45.585388 6.857411 31,050 172 512 0
2020-09-30 05:18:35 GMT 45.585388 6.857411 31,050 172 512 0
2020-09-30 05:18:32 GMT 45.592667 6.855938 31,050 172 512 0
2020-09-30 05:18:28 GMT 45.600151 6.854439 31,050 172 512 0
2020-09-30 05:18:25 GMT 45.608391 6.852791 31,050 172 512 0
2020-09-30 05:18:22 GMT 45.615189 6.851449 31,050 172 512 0
2020-09-30 05:18:19 GMT 45.620823 6.850319 31,050 172 512 0
2020-09-30 05:18:16 GMT 45.629242 6.848636 31,050 172 512 0
2020-09-30 05:18:12 GMT 45.638855 6.846760 31,050 172 512 0
2020-09-30 05:18:08 GMT 45.649635 6.844551 31,050 171 512 0
2020-09-30 05:18:04 GMT 45.656898 6.843109 31,050 171 512 0
2020-09-30 05:18:01 GMT 45.664398 6.841602 31,050 171 512 0
2020-09-30 05:17:58 GMT 45.671677 6.840128 31,050 171 512 0
2020-09-30 05:17:55 GMT 45.677765 6.838922 31,050 172 511 0
2020-09-30 05:17:52 GMT 45.686226 6.837204 31,050 171 513 0
2020-09-30 05:17:46 GMT 45.699600 6.834501 31,050 171 513 0
2020-09-30 05:17:43 GMT 45.706848 6.833015 31,050 171 513 0
2020-09-30 05:17:39 GMT 45.715088 6.831367 31,050 171 513 0
2020-09-30 05:17:36 GMT 45.722580 6.829879 31,050 171 513 0
2020-09-30 05:17:32 GMT 45.733612 6.827601 31,050 171 513 0
2020-09-30 05:17:29 GMT 45.739250 6.826492 31,050 171 513 0
2020-09-30 05:17:26 GMT 45.744873 6.825323 31,050 171 513 0
2020-09-30 05:17:23 GMT 45.753773 6.823540 31,050 171 513 0
2020-09-30 05:17:20 GMT 45.761036 6.822029 31,050 171 513 0
2020-09-30 05:17:16 GMT 45.768311 6.820567 31,050 171 513 0
2020-09-30 05:17:13 GMT 45.777237 6.818758 31,050 171 513 0
2020-09-30 05:17:10 GMT 45.784267 6.817291 31,050 171 513 0
2020-09-30 05:17:06 GMT 45.792274 6.815643 31,050 171 513 0
2020-09-30 05:17:03 GMT 45.800697 6.813927 31,050 171 513 0
2020-09-30 05:17:00 GMT 45.807728 6.812485 31,050 172 512 0
2020-09-30 05:16:56 GMT 45.816200 6.810837 31,050 172 512 0
2020-09-30 05:16:53 GMT 45.823696 6.809326 31,050 171 513 0
2020-09-30 05:16:50 GMT 45.831207 6.807772 31,050 171 513 0
2020-09-30 05:16:46 GMT 45.847870 6.804423 31,050 171 513 0
2020-09-30 05:16:43 GMT 45.847870 6.804423 31,050 171 513 0
2020-09-30 05:16:40 GMT 45.853958 6.803217 31,050 171 513 0
2020-09-30 05:16:37 GMT 45.861237 6.801676 31,050 171 513 0
2020-09-30 05:16:34 GMT 45.867142 6.800537 31,050 171 513 0
2020-09-30 05:16:31 GMT 45.873917 6.799130 31,050 171 513 0
2020-09-30 05:16:28 GMT 45.883793 6.797173 31,050 171 513 0
2020-09-30 05:16:25 GMT 45.889893 6.795915 31,050 171 513 0
2020-09-30 05:16:22 GMT 45.896439 6.794575 31,050 171 513 0
2020-09-30 05:16:19 GMT 45.903717 6.793101 31,050 171 513 0
2020-09-30 05:16:16 GMT 45.910748 6.791679 31,050 171 513 0
2020-09-30 05:16:12 GMT 45.920151 6.789752 31,050 171 513 -64
2020-09-30 05:16:08 GMT 45.929764 6.787809 31,050 171 513 0
2020-09-30 05:16:05 GMT 45.938461 6.786067 31,050 171 513 0
2020-09-30 05:16:00 GMT 45.949245 6.783852 31,050 171 513 0
2020-09-30 05:15:57 GMT 45.955353 6.782651 31,050 171 513 0
2020-09-30 05:15:54 GMT 45.961910 6.781311 31,050 171 513 0
2020-09-30 05:15:51 GMT 45.967773 6.780144 31,050 171 513 0
2020-09-30 05:15:47 GMT 45.979065 6.777828 31,050 171 513 0
2020-09-30 05:15:44 GMT 45.985649 6.776505 31,050 171 513 0
2020-09-30 05:15:39 GMT 45.997616 6.774033 31,050 171 513 0
2020-09-30 05:15:35 GMT 46.006531 6.772267 31,050 171 513 0
2020-09-30 05:15:31 GMT 46.016422 6.770256 31,050 171 513 0
2020-09-30 05:15:28 GMT 46.032391 6.766960 31,050 171 513 0
2020-09-30 05:15:24 GMT 46.032391 6.766960 31,050 171 513 0
2020-09-30 05:15:21 GMT 46.039444 6.765501 31,050 171 512 0
2020-09-30 05:15:17 GMT 46.047890 6.763802 31,050 171 513 0
2020-09-30 05:15:14 GMT 46.055153 6.762291 31,050 171 513 0
2020-09-30 05:15:11 GMT 46.069748 6.759338 31,050 171 512 0
2020-09-30 05:15:08 GMT 46.069748 6.759338 31,050 171 513 0
2020-09-30 05:15:05 GMT 46.078903 6.757463 31,050 171 513 0
2020-09-30 05:15:01 GMT 46.086391 6.755974 31,050 171 512 0
2020-09-30 05:14:57 GMT 46.096252 6.753912 31,050 171 513 0
2020-09-30 05:14:54 GMT 46.103073 6.752572 31,050 171 513 0
2020-09-30 05:14:50 GMT 46.113647 6.750429 31,050 171 513 0
2020-09-30 05:14:47 GMT 46.120422 6.749022 31,050 171 513 0
2020-09-30 05:14:43 GMT 46.128658 6.747322 31,050 171 513 0
2020-09-30 05:14:40 GMT 46.142944 6.744400 31,050 171 512 0
2020-09-30 05:14:37 GMT 46.142944 6.744400 31,050 171 512 0
2020-09-30 05:14:34 GMT 46.149513 6.743065 31,050 171 512 0
2020-09-30 05:14:31 GMT 46.157242 6.741486 31,050 171 510 0
2020-09-30 05:14:27 GMT 46.173889 6.738103 31,050 171 512 0
2020-09-30 05:14:24 GMT 46.173889 6.738103 31,050 171 512 0
2020-09-30 05:14:21 GMT 46.179520 6.736964 31,050 171 512 0
2020-09-30 05:14:17 GMT 46.189781 6.734825 31,050 171 512 0
2020-09-30 05:14:14 GMT 46.197281 6.733279 31,050 171 512 0
2020-09-30 05:14:11 GMT 46.203598 6.732007 31,050 171 512 0
2020-09-30 05:14:07 GMT 46.214630 6.729729 31,050 171 511 0
2020-09-30 05:14:04 GMT 46.226990 6.727250 31,050 171 511 0
2020-09-30 05:14:01 GMT 46.226990 6.727250 31,050 171 511 0
2020-09-30 05:13:58 GMT 46.234520 6.725693 31,050 171 511 0
2020-09-30 05:13:55 GMT 46.241043 6.724370 31,050 171 511 0
2020-09-30 05:13:52 GMT 46.250393 6.722397 31,050 171 511 0
2020-09-30 05:13:48 GMT 46.257656 6.720955 31,050 171 510 0
2020-09-30 05:13:44 GMT 46.267456 6.718944 31,050 171 510 0
2020-09-30 05:13:41 GMT 46.273544 6.717671 31,050 171 511 0
2020-09-30 05:13:38 GMT 46.281921 6.715929 31,050 171 510 0
2020-09-30 05:13:35 GMT 46.288239 6.714638 31,050 171 510 0
2020-09-30 05:13:32 GMT 46.296661 6.712914 31,050 171 510 0
2020-09-30 05:13:29 GMT 46.309467 6.710243 31,050 171 510 0
2020-09-30 05:13:26 GMT 46.309467 6.710243 31,050 171 510 0
2020-09-30 05:13:23 GMT 46.315102 6.709145 31,050 171 510 0
2020-09-30 05:13:20 GMT 46.323257 6.707421 31,050 171 510 0
2020-09-30 05:13:16 GMT 46.333023 6.705437 31,050 171 509 0
2020-09-30 05:13:12 GMT 46.341888 6.703603 31,050 171 509 0
2020-09-30 05:13:09 GMT 46.349594 6.702003 31,050 171 509 0
2020-09-30 05:13:06 GMT 46.355881 6.700699 31,050 171 509 64
2020-09-30 05:13:03 GMT 46.362164 6.699394 31,050 171 509 0
2020-09-30 05:13:00 GMT 46.368210 6.698177 31,050 171 510 0
2020-09-30 05:12:57 GMT 46.379150 6.695899 31,050 171 509 0
2020-09-30 05:12:54 GMT 46.383812 6.694931 31,050 171 509 0
2020-09-30 05:12:51 GMT 46.391968 6.693219 31,050 171 509 0
2020-09-30 05:12:48 GMT 46.399200 6.691746 31,050 171 509 0
2020-09-30 05:12:45 GMT 46.405689 6.690399 31,050 171 509 0
2020-09-30 05:12:42 GMT 46.411976 6.689095 31,050 171 509 0
2020-09-30 05:12:39 GMT 46.425243 6.686348 31,050 171 509 0
2020-09-30 05:12:36 GMT 46.425243 6.686348 31,050 171 509 0
2020-09-30 05:12:33 GMT 46.430832 6.685248 31,050 171 509 0
2020-09-30 05:12:30 GMT 46.439941 6.683372 31,050 171 511 0
2020-09-30 05:12:27 GMT 46.446938 6.681885 31,050 171 509 0
2020-09-30 05:12:24 GMT 46.453445 6.680558 31,050 171 509 0
2020-09-30 05:12:21 GMT 46.461834 6.678864 31,050 171 509 0
2020-09-30 05:12:18 GMT 46.467178 6.677745 31,050 171 509 0
2020-09-30 05:12:14 GMT 46.478127 6.675430 31,050 171 509 0
2020-09-30 05:12:11 GMT 46.483711 6.674332 31,050 171 509 0
2020-09-30 05:12:08 GMT 46.490929 6.672821 31,050 171 509 0
2020-09-30 05:12:05 GMT 46.496750 6.671585 31,050 171 509 0
2020-09-30 05:12:02 GMT 46.505630 6.669773 31,050 171 509 0
2020-09-30 05:11:59 GMT 46.511181 6.668633 31,050 171 511 0
2020-09-30 05:11:55 GMT 46.521702 6.666435 31,050 171 509 0
2020-09-30 05:11:51 GMT 46.529617 6.664816 31,050 171 510 0
2020-09-30 05:11:48 GMT 46.537994 6.663071 31,050 171 510 0
2020-09-30 05:11:45 GMT 46.543350 6.661935 31,050 171 510 0
2020-09-30 05:11:42 GMT 46.552231 6.660126 31,050 171 510 0
2020-09-30 05:11:39 GMT 46.558056 6.658882 31,050 171 510 0
2020-09-30 05:11:35 GMT 46.569031 6.656643 31,050 171 510 0
2020-09-30 05:11:32 GMT 46.574844 6.655437 31,050 171 510 0
2020-09-30 05:11:29 GMT 46.581844 6.654007 31,050 171 510 0
2020-09-30 05:11:25 GMT 46.590271 6.652222 31,050 171 508 0
2020-09-30 05:11:22 GMT 46.599117 6.650436 31,050 171 511 0
2020-09-30 05:11:19 GMT 46.612709 6.647621 31,050 171 511 0
2020-09-30 05:11:16 GMT 46.612709 6.647621 31,050 171 511 0
2020-09-30 05:11:13 GMT 46.619705 6.646193 31,050 171 511 0
2020-09-30 05:11:10 GMT 46.624374 6.645188 31,050 171 511 0
2020-09-30 05:11:07 GMT 46.632568 6.643513 31,050 171 511 0
2020-09-30 05:11:04 GMT 46.640499 6.641853 31,050 171 511 0
2020-09-30 05:11:01 GMT 46.646118 6.640699 31,050 171 511 0
2020-09-30 05:10:58 GMT 46.654049 6.639038 31,050 171 510 0
2020-09-30 05:10:55 GMT 46.662460 6.637350 31,050 171 510 0
2020-09-30 05:10:52 GMT 46.669693 6.635809 31,050 171 510 0
2020-09-30 05:10:49 GMT 46.676674 6.634369 31,050 171 510 0
2020-09-30 05:10:45 GMT 46.685577 6.632527 31,050 171 510 0
2020-09-30 05:10:42 GMT 46.691616 6.631279 31,050 171 510 0
2020-09-30 05:10:39 GMT 46.697201 6.630112 31,050 171 509 64
2020-09-30 05:10:36 GMT 46.704929 6.628532 31,050 171 509 64
2020-09-30 05:10:33 GMT 46.711441 6.627167 31,050 171 509 0
2020-09-30 05:10:30 GMT 46.719589 6.625493 31,050 171 509 64
2020-09-30 05:10:27 GMT 46.726364 6.624086 31,050 171 509 64
2020-09-30 05:10:24 GMT 46.735428 6.622210 31,050 171 509 0
2020-09-30 05:10:21 GMT 46.747059 6.619812 31,050 171 508 0
2020-09-30 05:10:18 GMT 46.747059 6.619812 31,050 171 508 0
2020-09-30 05:10:15 GMT 46.754013 6.618325 31,050 171 508 0
2020-09-30 05:10:12 GMT 46.760559 6.616997 31,050 171 508 0
2020-09-30 05:10:09 GMT 46.768433 6.615377 31,050 171 508 0
2020-09-30 05:10:05 GMT 46.776535 6.613636 31,050 171 507 0
2020-09-30 05:10:02 GMT 46.784904 6.611916 31,050 171 507 0
2020-09-30 05:09:58 GMT 46.793701 6.610085 31,050 171 507 0
2020-09-30 05:09:55 GMT 46.801346 6.608477 31,050 171 506 0
2020-09-30 05:09:52 GMT 46.808075 6.607071 31,050 171 506 64
2020-09-30 05:09:49 GMT 46.812931 6.606079 31,050 171 506 64
2020-09-30 05:09:46 GMT 46.820564 6.604500 31,050 171 506 0
2020-09-30 05:09:43 GMT 46.830276 6.602448 31,050 171 505 0
2020-09-30 05:09:39 GMT 46.837006 6.601041 31,050 171 505 0
2020-09-30 05:09:36 GMT 46.845062 6.599367 31,050 171 505 -64
2020-09-30 05:09:33 GMT 46.852707 6.597759 31,050 171 504 0
2020-09-30 05:09:29 GMT 46.861904 6.595848 31,050 171 504 0
2020-09-30 05:09:26 GMT 46.867447 6.594681 31,050 171 504 0
2020-09-30 05:09:22 GMT 46.878296 6.592346 31,050 171 503 64
2020-09-30 05:09:18 GMT 46.885391 6.590836 31,050 171 502 0
2020-09-30 05:09:15 GMT 46.892075 6.589462 31,050 171 501 0
2020-09-30 05:09:12 GMT 46.900356 6.587712 31,050 171 502 0
2020-09-30 05:09:09 GMT 46.906082 6.586441 31,050 171 495 0
2020-09-30 05:09:06 GMT 46.915466 6.584450 31,050 171 501 0
2020-09-30 05:09:02 GMT 46.923019 6.582870 31,050 171 500 0
2020-09-30 05:08:59 GMT 46.928741 6.581635 31,050 171 500 0
2020-09-30 05:08:56 GMT 46.936993 6.579895 31,050 171 499 0
2020-09-30 05:08:53 GMT 46.943604 6.578416 31,050 171 499 0
2020-09-30 05:08:50 GMT 46.949982 6.577078 31,050 171 499 0
2020-09-30 05:08:47 GMT 46.959103 6.575106 31,050 171 498 0
2020-09-30 05:08:44 GMT 46.964813 6.573875 31,050 171 498 0
2020-09-30 05:08:41 GMT 46.970032 6.572777 31,050 171 498 0
2020-09-30 05:08:38 GMT 46.977772 6.571092 31,050 171 497 0
2020-09-30 05:08:35 GMT 46.983917 6.569754 31,050 171 497 0
2020-09-30 05:08:32 GMT 46.991879 6.567993 31,050 171 497 0
2020-09-30 05:08:29 GMT 46.998257 6.566585 31,050 171 497 0
2020-09-30 05:08:26 GMT 47.005096 6.565155 31,050 171 496 0
2020-09-30 05:08:23 GMT 47.011894 6.563627 31,050 171 496 0
2020-09-30 05:08:20 GMT 47.019608 6.561928 31,050 171 496 0
2020-09-30 05:08:17 GMT 47.025742 6.560623 31,050 171 496 0
2020-09-30 05:08:14 GMT 47.031399 6.559331 31,050 171 496 0
2020-09-30 05:08:11 GMT 47.038879 6.557671 31,050 171 496 0
2020-09-30 05:08:08 GMT 47.046387 6.556023 31,050 171 496 0
2020-09-30 05:08:05 GMT 47.053185 6.554542 31,050 171 496 0
2020-09-30 05:08:01 GMT 47.069275 6.551010 31,050 171 496 0
2020-09-30 05:07:58 GMT 47.069275 6.551010 31,050 171 496 0
2020-09-30 05:07:55 GMT 47.075855 6.549612 31,050 171 495 -64
2020-09-30 05:07:51 GMT 47.083557 6.547920 31,050 171 495 0
2020-09-30 05:07:48 GMT 47.092384 6.546021 31,050 171 495 0
2020-09-30 05:07:45 GMT 47.098022 6.544762 31,050 171 495 0
2020-09-30 05:07:42 GMT 47.104614 6.543388 31,050 171 495 0
2020-09-30 05:07:39 GMT 47.112534 6.541672 31,050 171 495 0
2020-09-30 05:07:36 GMT 47.117981 6.540504 31,050 171 495 0
2020-09-30 05:07:33 GMT 47.125668 6.538837 31,050 171 495 0
2020-09-30 05:07:30 GMT 47.131767 6.537569 31,050 171 494 0
2020-09-30 05:07:27 GMT 47.138580 6.536179 31,050 171 494 0
2020-09-30 05:07:24 GMT 47.144474 6.534964 31,050 172 494 0
2020-09-30 05:07:21 GMT 47.153046 6.533226 31,075 172 494 -64
2020-09-30 05:07:18 GMT 47.161469 6.531583 31,075 172 494 0
2020-09-30 05:07:15 GMT 47.166870 6.530548 31,075 172 494 0
2020-09-30 05:07:10 GMT 47.177296 6.528555 31,075 172 494 0
2020-09-30 05:07:07 GMT 47.182755 6.527527 31,075 172 494 0
2020-09-30 05:07:04 GMT 47.190235 6.526090 31,075 172 494 0
2020-09-30 05:07:00 GMT 47.201965 6.523625 31,050 171 495 128
2020-09-30 05:06:57 GMT 47.206715 6.522569 31,050 171 495 192
2020-09-30 05:06:54 GMT 47.212627 6.521372 31,050 172 494 192
2020-09-30 05:06:51 GMT 47.221474 6.519893 31,025 176 494 0
2020-09-30 05:06:47 GMT 47.236267 6.519081 31,050 180 493 0
2020-09-30 05:06:44 GMT 47.236267 6.519081 31,025 182 492 0
2020-09-30 05:06:41 GMT 47.241909 6.519400 31,025 184 492 0
2020-09-30 05:06:38 GMT 47.250988 6.520527 31,050 188 491 -64
2020-09-30 05:06:32 GMT 47.265472 6.524162 31,050 193 489 0
2020-09-30 05:06:29 GMT 47.269234 6.525456 31,050 196 488 0
2020-09-30 05:06:26 GMT 47.274673 6.527596 31,050 196 488 0
2020-09-30 05:06:23 GMT 47.281990 6.531020 31,025 200 487 128
2020-09-30 05:06:20 GMT 47.289185 6.534805 31,025 202 487 192
2020-09-30 05:06:17 GMT 47.301311 6.542851 31,025 208 487 0
2020-09-30 05:06:14 GMT 47.301311 6.542851 31,025 209 487 -64
2020-09-30 05:06:11 GMT 47.306988 6.547499 31,025 211 486 -128
2020-09-30 05:06:08 GMT 47.313320 6.553274 31,050 215 486 -256
2020-09-30 05:06:05 GMT 47.317886 6.558083 31,050 217 487 -192
2020-09-30 05:06:02 GMT 47.322693 6.563507 31,050 219 486 -64
2020-09-30 05:05:59 GMT 47.328781 6.570786 31,050 221 486 -128
2020-09-30 05:05:56 GMT 47.333771 6.577034 31,050 221 486 -128
2020-09-30 05:05:53 GMT 47.345207 6.591445 31,075 221 486 0
2020-09-30 05:05:50 GMT 47.345207 6.591445 31,075 221 486 64
2020-09-30 05:05:47 GMT 47.355217 6.603699 31,050 219 486 64
2020-09-30 05:05:44 GMT 47.355217 6.603699 31,050 218 485 64
2020-09-30 05:05:41 GMT 47.360046 6.609100 31,050 215 487 128
2020-09-30 05:05:38 GMT 47.366959 6.615967 31,050 212 487 192
2020-09-30 05:05:35 GMT 47.371719 6.620293 31,050 210 487 128
2020-09-30 05:05:31 GMT 47.380867 6.627432 31,025 208 488 64
2020-09-30 05:05:27 GMT 47.387665 6.632010 31,025 204 488 0
2020-09-30 05:05:24 GMT 47.395206 6.636446 31,025 200 489 128
2020-09-30 05:05:21 GMT 47.400093 6.638982 31,025 198 489 320
2020-09-30 05:05:18 GMT 47.407013 6.642059 31,000 195 490 448
2020-09-30 05:05:15 GMT 47.413834 6.644600 31,000 194 490 448
2020-09-30 05:05:12 GMT 47.427467 6.648067 30,950 188 490 640
2020-09-30 05:05:09 GMT 47.427467 6.648067 30,925 183 492 704
2020-09-30 05:05:06 GMT 47.432865 6.648771 30,650 175 495 1088
2020-09-30 05:05:03 GMT 47.439941 6.649193 30,875 182 493 768
2020-09-30 05:04:59 GMT 47.449493 6.648926 30,725 176 494 1216
2020-09-30 05:04:56 GMT 47.462265 6.647621 30,650 175 495 1088
2020-09-30 05:04:53 GMT 47.462265 6.647621 30,675 175 495 1024
2020-09-30 05:04:50 GMT 47.470016 6.646658 30,200 175 496 1280
2020-09-30 05:04:47 GMT 47.477783 6.645699 30,575 175 495 1024
2020-09-30 05:04:44 GMT 47.483231 6.645081 30,500 175 495 1024
2020-09-30 05:04:41 GMT 47.489197 6.644334 30,400 175 495 1216
2020-09-30 05:04:38 GMT 47.497154 6.643348 30,450 175 495 1088
2020-09-30 05:04:35 GMT 47.504696 6.642433 30,350 175 496 1216
2020-09-30 05:04:32 GMT 47.513397 6.641373 30,200 175 496 1280
2020-09-30 05:04:28 GMT 47.520245 6.640531 30,175 175 496 1280
2020-09-30 05:04:25 GMT 47.528046 6.639587 30,150 175 497 1280
2020-09-30 05:04:22 GMT 47.534225 6.638832 30,100 175 497 1280
2020-09-30 05:04:19 GMT 47.540863 6.638008 30,025 175 497 1344
2020-09-30 05:04:16 GMT 47.547272 6.637184 29,950 175 498 1344
2020-09-30 05:04:13 GMT 47.555065 6.636235 29,925 175 498 1408
2020-09-30 05:04:09 GMT 47.563122 6.635249 29,800 175 499 1536
2020-09-30 05:04:06 GMT 47.570244 6.634404 29,725 175 499 1600
2020-09-30 05:04:03 GMT 47.577831 6.633418 29,675 175 500 1600
2020-09-30 05:03:59 GMT 47.586395 6.632362 29,550 175 501 1536
2020-09-30 05:03:56 GMT 47.594238 6.631416 29,425 175 502 1408
2020-09-30 05:03:53 GMT 47.601154 6.630531 29,375 175 502 1408
2020-09-30 05:03:49 GMT 47.609528 6.629562 29,275 175 502 1536
2020-09-30 05:03:46 GMT 47.616669 6.628670 29,175 175 503 1664
2020-09-30 05:03:43 GMT 47.624359 6.627708 29,125 175 504 1728
2020-09-30 05:03:39 GMT 47.632713 6.626657 29,025 175 505 1728
2020-09-30 05:03:36 GMT 47.639698 6.625812 28,725 175 506 1536
2020-09-30 05:03:33 GMT 47.647842 6.624825 28,750 175 506 1536
2020-09-30 05:03:30 GMT 47.659996 6.623347 28,525 175 508 1344
2020-09-30 05:03:27 GMT 47.659996 6.623347 28,525 175 508 1344
2020-09-30 05:03:24 GMT 47.669815 6.622147 28,675 175 507 1408
2020-09-30 05:03:21 GMT 47.675869 6.621375 28,550 175 508 1344
2020-09-30 05:03:18 GMT 47.682449 6.620567 28,500 175 508 1344
2020-09-30 05:03:15 GMT 47.688995 6.619743 28,450 175 508 1344
2020-09-30 05:03:12 GMT 47.695095 6.618981 28,400 175 508 1280
2020-09-30 05:03:09 GMT 47.703506 6.617958 28,275 175 509 1344
2020-09-30 05:03:06 GMT 47.710327 6.617134 28,275 175 509 1344
2020-09-30 05:03:03 GMT 47.717346 6.616234 28,175 175 509 1280
2020-09-30 05:02:59 GMT 47.734756 6.614122 28,050 175 509 1216
2020-09-30 05:02:56 GMT 47.734756 6.614122 28,000 175 510 1216
2020-09-30 05:02:53 GMT 47.741089 6.613347 27,950 175 510 1216
2020-09-30 05:02:50 GMT 47.747887 6.612502 27,900 175 510 1216
2020-09-30 05:02:46 GMT 47.758732 6.611164 27,800 175 510 1280
2020-09-30 05:02:43 GMT 47.765064 6.610389 27,750 175 510 1344
2020-09-30 05:02:40 GMT 47.779167 6.608628 27,625 175 510 1408
2020-09-30 05:02:36 GMT 47.779167 6.608628 27,575 175 511 1344
2020-09-30 05:02:33 GMT 47.786682 6.607658 27,475 175 511 1728
2020-09-30 05:02:30 GMT 47.794250 6.606727 27,475 175 511 1152
2020-09-30 05:02:27 GMT 47.802490 6.605741 27,400 175 511 1344
2020-09-30 05:02:24 GMT 47.809288 6.604896 27,300 175 511 1472
2020-09-30 05:02:21 GMT 47.822479 6.603195 27,100 175 512 1664
2020-09-30 05:02:18 GMT 47.822479 6.603195 27,100 175 512 1664
2020-09-30 05:02:15 GMT 47.830261 6.602234 27,100 175 512 1600
2020-09-30 05:02:12 GMT 47.837826 6.601304 27,000 175 512 1536
2020-09-30 05:02:09 GMT 47.843739 6.600600 26,950 175 512 1600
2020-09-30 05:02:06 GMT 47.850811 6.599684 26,275 175 516 1408
2020-09-30 05:02:03 GMT 47.857910 6.598801 26,650 175 514 1792
2020-09-30 05:02:00 GMT 47.865738 6.597839 26,650 175 514 1792
2020-09-30 05:01:57 GMT 47.873062 6.596878 26,575 175 515 1728
2020-09-30 05:01:54 GMT 47.882561 6.595741 26,475 175 515 1664
2020-09-30 05:01:51 GMT 47.887802 6.595093 26,425 175 516 1600
2020-09-30 05:01:47 GMT 47.902313 6.593307 26,250 175 516 1408
2020-09-30 05:01:44 GMT 47.902313 6.593307 26,225 175 516 1344
2020-09-30 05:01:41 GMT 47.910866 6.592219 26,150 175 516 1152
2020-09-30 05:01:37 GMT 47.920643 6.591022 26,100 175 516 1088
2020-09-30 05:01:34 GMT 47.927067 6.590248 26,050 175 516 1088
2020-09-30 05:01:31 GMT 47.934887 6.589262 26,050 175 516 1088
2020-09-30 05:01:27 GMT 47.944195 6.588135 25,925 175 515 1024
2020-09-30 05:01:24 GMT 47.950573 6.587290 25,900 175 515 1024
2020-09-30 05:01:21 GMT 47.958664 6.586304 25,825 175 514 1024
2020-09-30 05:01:17 GMT 47.969788 6.584930 25,750 175 514 1024
2020-09-30 05:01:14 GMT 47.974548 6.584312 25,675 175 514 1024
2020-09-30 05:01:11 GMT 47.981670 6.583416 25,650 175 513 1024
2020-09-30 05:01:08 GMT 47.989243 6.582458 25,625 175 513 1024
2020-09-30 05:01:05 GMT 47.996334 6.581585 25,550 175 513 1024
2020-09-30 05:01:02 GMT 48.003891 6.580673 25,500 175 512 1088
2020-09-30 05:00:59 GMT 48.019958 6.578613 25,400 175 511 1088
2020-09-30 05:00:55 GMT 48.019958 6.578613 25,375 175 511 1088
2020-09-30 05:00:52 GMT 48.025818 6.577927 25,325 175 511 1088
2020-09-30 05:00:49 GMT 48.034321 6.576867 25,225 175 511 1088
2020-09-30 05:00:46 GMT 48.040421 6.576092 25,225 175 510 1088
2020-09-30 05:00:43 GMT 48.048660 6.575036 25,150 175 510 1088
2020-09-30 05:00:40 GMT 48.055504 6.574191 25,050 175 510 1088
2020-09-30 05:00:37 GMT 48.061832 6.573416 25,025 175 509 1088
2020-09-30 05:00:34 GMT 48.070312 6.572365 24,975 175 509 1152
2020-09-30 05:00:30 GMT 48.078049 6.571404 24,900 175 508 1152
2020-09-30 05:00:26 GMT 48.089996 6.569893 24,825 175 508 1152
2020-09-30 05:00:23 GMT 48.094894 6.569275 24,775 175 508 1216
2020-09-30 05:00:20 GMT 48.101685 6.568416 24,700 175 507 1152
2020-09-30 05:00:17 GMT 48.109406 6.567490 24,625 175 507 1088
2020-09-30 05:00:14 GMT 48.117371 6.566444 24,600 175 506 1088
2020-09-30 05:00:11 GMT 48.123917 6.565636 24,500 175 506 1088
2020-09-30 05:00:08 GMT 48.136505 6.564049 24,475 175 506 1088
2020-09-30 05:00:05 GMT 48.136505 6.564049 24,450 175 505 1088
2020-09-30 05:00:02 GMT 48.145798 6.562958 24,350 175 505 1152
2020-09-30 04:59:57 GMT 48.156754 6.561584 24,250 175 504 1152
2020-09-30 04:59:54 GMT 48.163239 6.560739 24,225 175 503 1152
2020-09-30 04:59:51 GMT 48.176468 6.559049 24,100 175 503 1088
2020-09-30 04:59:48 GMT 48.176468 6.559049 24,125 175 502 1088
2020-09-30 04:59:44 GMT 48.185989 6.557898 24,075 175 502 1088
2020-09-30 04:59:41 GMT 48.195236 6.556725 23,950 175 501 1088
2020-09-30 04:59:38 GMT 48.200092 6.556091 23,925 175 501 1024
2020-09-30 04:59:34 GMT 48.209312 6.554935 23,775 175 497 1152
2020-09-30 04:59:31 GMT 48.215317 6.554212 23,750 175 499 1024
2020-09-30 04:59:28 GMT 48.223114 6.553204 23,625 175 497 1152
2020-09-30 04:59:25 GMT 48.229561 6.552405 23,725 175 498 1088
2020-09-30 04:59:22 GMT 48.236893 6.551443 23,600 175 497 1152
2020-09-30 04:59:19 GMT 48.242889 6.550669 23,600 175 497 1152
2020-09-30 04:59:15 GMT 48.252045 6.549586 23,500 175 496 1088
2020-09-30 04:59:12 GMT 48.259598 6.548626 23,450 175 496 1088
2020-09-30 04:59:08 GMT 48.269176 6.547418 23,375 175 495 1088
2020-09-30 04:59:05 GMT 48.275803 6.546584 23,300 175 494 1152
2020-09-30 04:59:02 GMT 48.281281 6.545900 23,300 175 494 1152
2020-09-30 04:58:59 GMT 48.289444 6.544823 23,175 175 493 1216
2020-09-30 04:58:56 GMT 48.295624 6.544049 23,125 175 493 1216
2020-09-30 04:58:53 GMT 48.304695 6.542937 23,075 175 492 1152
2020-09-30 04:58:50 GMT 48.315125 6.541654 23,025 175 491 1088
2020-09-30 04:58:47 GMT 48.315125 6.541654 22,925 175 491 1088
2020-09-30 04:58:44 GMT 48.323273 6.540598 22,925 175 491 1152
2020-09-30 04:58:41 GMT 48.329369 6.539829 22,900 175 490 1216
2020-09-30 04:58:38 GMT 48.336136 6.538978 22,825 175 490 1280
2020-09-30 04:58:35 GMT 48.343140 6.538133 22,725 175 489 1344
2020-09-30 04:58:32 GMT 48.357101 6.536372 22,600 175 488 1152
2020-09-30 04:58:26 GMT 48.363865 6.535492 22,550 175 487 1088
2020-09-30 04:58:23 GMT 48.377563 6.533767 22,450 175 486 1024
2020-09-30 04:58:20 GMT 48.384300 6.532890 20,400 175 485 1088
2020-09-30 04:58:17 GMT 48.384300 6.532890 22,375 175 485 1152
2020-09-30 04:58:14 GMT 48.397011 6.531300 22,300 175 484 1344
2020-09-30 04:58:11 GMT 48.397011 6.531300 22,200 175 484 1408
2020-09-30 04:58:08 GMT 48.403015 6.530505 22,225 175 483 1408
2020-09-30 04:58:05 GMT 48.409950 6.529637 22,175 175 481 1216
2020-09-30 04:58:02 GMT 48.418190 6.528625 22,050 175 482 1216
2020-09-30 04:57:59 GMT 48.424194 6.527830 22,000 175 481 1216
2020-09-30 04:57:56 GMT 48.429504 6.527180 21,950 175 481 1216
2020-09-30 04:57:53 GMT 48.436394 6.526313 21,925 175 481 1216
2020-09-30 04:57:50 GMT 48.443481 6.525386 21,825 175 480 1280
2020-09-30 04:57:47 GMT 48.451427 6.524361 21,750 175 479 1344
2020-09-30 04:57:44 GMT 48.460281 6.523273 21,650 175 479 1344
2020-09-30 04:57:41 GMT 48.463814 6.522843 21,225 175 478 1408
2020-09-30 04:57:38 GMT 48.471313 6.521865 21,550 175 478 1408
2020-09-30 04:57:35 GMT 48.477451 6.521109 21,450 175 477 1472
2020-09-30 04:57:32 GMT 48.484726 6.520174 21,400 175 477 1472
2020-09-30 04:57:29 GMT 48.490219 6.519470 21,350 175 477 1472
2020-09-30 04:57:26 GMT 48.496170 6.518696 21,300 175 476 1536
2020-09-30 04:57:23 GMT 48.503403 6.517780 21,150 175 476 1408
2020-09-30 04:57:20 GMT 48.508896 6.517076 21,100 175 475 1408
2020-09-30 04:57:17 GMT 48.524193 6.515109 21,000 175 474 1472
2020-09-30 04:57:14 GMT 48.524193 6.515109 20,925 175 474 1472
2020-09-30 04:57:11 GMT 48.530136 6.514400 20,875 175 474 1408
2020-09-30 04:57:08 GMT 48.536900 6.513519 20,850 175 473 1408
2020-09-30 04:57:05 GMT 48.543457 6.512709 20,750 175 473 1408
2020-09-30 04:57:02 GMT 48.549095 6.512001 20,650 175 472 1408
2020-09-30 04:56:59 GMT 48.556091 6.511090 20,625 175 472 1408
2020-09-30 04:56:56 GMT 48.562595 6.510267 20,550 175 471 1408
2020-09-30 04:56:52 GMT 48.570648 6.509259 19,375 175 470 1408
2020-09-30 04:56:49 GMT 48.577770 6.508315 20,300 175 469 1536
2020-09-30 04:56:46 GMT 48.584518 6.507428 20,275 175 469 1536
2020-09-30 04:56:43 GMT 48.590111 6.506725 20,225 175 469 1536
2020-09-30 04:56:40 GMT 48.596603 6.505878 20,150 175 469 1600
2020-09-30 04:56:37 GMT 48.603935 6.504990 20,025 175 468 1600
2020-09-30 04:56:34 GMT 48.611298 6.504047 19,975 175 467 1536
2020-09-30 04:56:31 GMT 48.616882 6.503343 19,850 175 466 1472
2020-09-30 04:56:28 GMT 48.623348 6.502461 19,800 175 467 1472
2020-09-30 04:56:25 GMT 48.631943 6.501371 19,775 175 466 1472
2020-09-30 04:56:22 GMT 48.636475 6.500808 19,675 175 466 1536
2020-09-30 04:56:19 GMT 48.643982 6.499892 19,550 175 465 1600
2020-09-30 04:56:16 GMT 48.649555 6.499136 19,525 175 465 1600
2020-09-30 04:56:12 GMT 48.657890 6.498124 19,425 175 464 1664
2020-09-30 04:56:09 GMT 48.662403 6.497546 19,350 175 464 1664
2020-09-30 04:56:06 GMT 48.670319 6.496534 19,250 175 463 1728
2020-09-30 04:56:03 GMT 48.676712 6.495667 19,050 175 463 1728
2020-09-30 04:56:00 GMT 48.684219 6.494751 19,075 175 463 1664
2020-09-30 04:55:57 GMT 48.689941 6.493976 18,975 175 462 1664
2020-09-30 04:55:54 GMT 48.695271 6.493281 18,875 175 462 1728
2020-09-30 04:55:51 GMT 48.702118 6.492427 18,800 175 462 1792
2020-09-30 04:55:48 GMT 48.708298 6.491652 18,200 175 461 1792
2020-09-30 04:55:45 GMT 48.715099 6.490752 18,550 175 456 1664
2020-09-30 04:55:42 GMT 48.720200 6.490103 18,575 175 461 1728
2020-09-30 04:55:39 GMT 48.728027 6.489117 18,425 175 460 1792
2020-09-30 04:55:36 GMT 48.733978 6.488342 18,400 175 460 1792
2020-09-30 04:55:33 GMT 48.740570 6.487497 18,250 175 460 1792
2020-09-30 04:55:30 GMT 48.746704 6.486723 18,175 175 459 1792
2020-09-30 04:55:27 GMT 48.753708 6.485807 18,050 175 459 1856
2020-09-30 04:55:24 GMT 48.764877 6.484398 18,000 175 458 1792
2020-09-30 04:55:18 GMT 48.773346 6.483342 17,800 175 458 1664
2020-09-30 04:55:15 GMT 48.778427 6.482638 17,800 175 458 1664
2020-09-30 04:55:12 GMT 48.783691 6.482004 17,700 175 457 1664
2020-09-30 04:55:09 GMT 48.791473 6.480948 17,425 175 454 1728
2020-09-30 04:55:05 GMT 48.799034 6.479982 17,525 175 456 1728
2020-09-30 04:55:02 GMT 48.805756 6.479117 17,300 175 453 1728
2020-09-30 04:54:59 GMT 48.812256 6.478342 17,300 175 454 1728
2020-09-30 04:54:56 GMT 48.818958 6.477452 17,250 175 454 1728
2020-09-30 04:54:53 GMT 48.825211 6.476652 17,125 175 453 1728
2020-09-30 04:54:48 GMT 48.836700 6.475102 16,950 175 452 1792
2020-09-30 04:54:45 GMT 48.841919 6.474469 16,900 175 451 1792
2020-09-30 04:54:42 GMT 48.846287 6.473911 15,650 175 438 1216
2020-09-30 04:54:39 GMT 48.853546 6.472971 16,775 175 451 1600
2020-09-30 04:54:36 GMT 48.859772 6.472144 15,525 175 441 1536
2020-09-30 04:54:33 GMT 48.866409 6.471299 16,575 175 449 1536
2020-09-30 04:54:29 GMT 48.878174 6.469791 16,375 175 447 1856
2020-09-30 04:54:25 GMT 48.883945 6.469068 16,300 175 447 1920
2020-09-30 04:54:22 GMT 48.888885 6.468412 16,225 175 447 1920
2020-09-30 04:54:19 GMT 48.896942 6.467356 16,150 175 446 1856
2020-09-30 04:54:15 GMT 48.903305 6.466581 16,000 175 445 1792
2020-09-30 04:54:12 GMT 48.910080 6.465665 15,900 175 444 1664
2020-09-30 04:54:09 GMT 48.914391 6.465093 15,850 175 444 1600
2020-09-30 04:54:06 GMT 48.921753 6.464116 15,750 175 443 1536
2020-09-30 04:54:03 GMT 48.926834 6.463482 15,700 175 442 1536
2020-09-30 04:54:00 GMT 48.934177 6.462491 15,650 175 441 1600
2020-09-30 04:53:57 GMT 48.940704 6.461651 15,500 175 439 1344
2020-09-30 04:53:54 GMT 48.946373 6.460901 15,450 175 439 1280
2020-09-30 04:53:51 GMT 48.951416 6.460243 15,400 175 438 1216
2020-09-30 04:53:47 GMT 48.960896 6.459021 15,250 175 436 1536
2020-09-30 04:53:44 GMT 48.966530 6.458226 15,250 174 435 2240
2020-09-30 04:53:41 GMT 48.971931 6.457503 15,025 174 434 1920
2020-09-30 04:53:38 GMT 48.977554 6.456792 14,875 175 436 2176
2020-09-30 04:53:35 GMT 48.984779 6.455841 14,825 175 436 1856
2020-09-30 04:53:32 GMT 48.990829 6.455031 14,725 174 435 1536
2020-09-30 04:53:29 GMT 48.996048 6.454327 14,725 174 435 1536
2020-09-30 04:53:26 GMT 49.004051 6.453311 14,600 174 434 1664
2020-09-30 04:53:23 GMT 49.010662 6.452444 14,450 174 434 1984
2020-09-30 04:53:20 GMT 49.020218 6.451158 14,375 174 433 2240
2020-09-30 04:53:17 GMT 49.020218 6.451158 14,050 174 433 2240
2020-09-30 04:53:14 GMT 49.026211 6.450348 14,175 174 433 2176
2020-09-30 04:53:11 GMT 49.032028 6.449553 14,050 174 432 1792
2020-09-30 04:53:08 GMT 49.040771 6.448411 13,950 175 430 1472
2020-09-30 04:53:05 GMT 49.044739 6.447890 13,900 175 430 1472
2020-09-30 04:53:02 GMT 49.050884 6.447023 13,800 175 429 1600
2020-09-30 04:52:55 GMT 49.064522 6.445288 13,575 175 427 2048
2020-09-30 04:52:52 GMT 49.071411 6.444349 13,450 175 426 2048
2020-09-30 04:52:49 GMT 49.075333 6.443834 13,425 175 426 2048
2020-09-30 04:52:46 GMT 49.082027 6.442975 13,300 175 425 1984
2020-09-30 04:52:43 GMT 49.087101 6.442325 13,250 175 425 1984
2020-09-30 04:52:39 GMT 49.096504 6.441024 13,075 175 424 1984
2020-09-30 04:52:35 GMT 49.104881 6.439940 12,925 175 423 1856
2020-09-30 04:52:32 GMT 49.109398 6.439362 12,900 175 422 1856
2020-09-30 04:52:29 GMT 49.114838 6.438622 12,825 175 421 1856
2020-09-30 04:52:26 GMT 49.121246 6.437777 12,675 175 420 1920
2020-09-30 04:52:23 GMT 49.131866 6.436369 12,450 175 418 1984
2020-09-30 04:52:16 GMT 49.141521 6.435097 12,325 175 417 1984
2020-09-30 04:52:13 GMT 49.145756 6.434591 12,275 175 417 1920
2020-09-30 04:52:10 GMT 49.152271 6.433724 12,150 175 415 1728
2020-09-30 04:52:06 GMT 49.158371 6.432918 12,050 175 414 1472
2020-09-30 04:52:03 GMT 49.164871 6.432143 11,950 175 402 1088
2020-09-30 04:52:00 GMT 49.170959 6.431368 11,925 175 410 1216
2020-09-30 04:51:55 GMT 49.179646 6.430254 11,850 175 407 1152
2020-09-30 04:51:52 GMT 49.192932 6.428551 11,725 175 403 1088
2020-09-30 04:51:49 GMT 49.192932 6.428551 11,650 175 401 960
2020-09-30 04:51:45 GMT 49.203808 6.427147 11,625 175 398 832
2020-09-30 04:51:42 GMT 49.203808 6.427147 11,625 175 397 768
2020-09-30 04:51:39 GMT 49.209137 6.426509 11,575 175 394 768
2020-09-30 04:51:33 GMT 49.222137 6.424889 11,350 175 373 768
2020-09-30 04:51:28 GMT 49.230011 6.423903 11,400 175 384 1088
2020-09-30 04:51:22 GMT 49.240265 6.422636 11,300 175 380 1024
2020-09-30 04:51:19 GMT 49.244820 6.422087 11,275 175 373 768
2020-09-30 04:51:15 GMT 49.252808 6.421157 11,175 175 374 768
2020-09-30 04:51:12 GMT 49.256790 6.420664 11,150 175 372 640
2020-09-30 04:51:09 GMT 49.262928 6.419919 11,125 175 368 576
2020-09-30 04:51:02 GMT 49.273911 6.418551 11,050 175 361 640
2020-09-30 04:50:59 GMT 49.279724 6.417847 11,000 175 357 640
2020-09-30 04:50:54 GMT 49.292953 6.416160 10,925 175 350 704
2020-09-30 04:50:51 GMT 49.292953 6.416160 10,925 175 349 704
2020-09-30 04:50:47 GMT 49.299362 6.415311 10,875 175 337 0
2020-09-30 04:50:42 GMT 49.307152 6.414281 10,775 175 337 1024
2020-09-30 04:50:39 GMT 49.313065 6.413486 10,750 175 336 1088
2020-09-30 04:50:35 GMT 49.318176 6.412776 10,650 175 333 1280
2020-09-30 04:50:32 GMT 49.322655 6.412257 10,575 175 332 1344
2020-09-30 04:50:29 GMT 49.326797 6.411751 10,525 175 330 1216
2020-09-30 04:50:26 GMT 49.331360 6.411086 10,525 168 322 0
2020-09-30 04:50:23 GMT 49.337219 6.410029 10,425 170 325 1152
2020-09-30 04:50:20 GMT 49.340763 6.409149 10,375 169 323 1408
2020-09-30 04:50:17 GMT 49.346302 6.407559 10,275 165 320 2176
2020-09-30 04:50:12 GMT 49.352821 6.405174 10,100 164 321 2176
2020-09-30 04:50:06 GMT 49.361061 6.401271 9,775 159 320 2048
2020-09-30 04:50:01 GMT 49.368301 6.396790 9,550 152 318 2304
2020-09-30 04:49:56 GMT 49.374435 6.392282 9,500 152 318 2304
2020-09-30 04:49:53 GMT 49.378601 6.388902 9,350 151 318 2368
2020-09-30 04:49:50 GMT 49.381851 6.386226 9,350 151 318 2368
2020-09-30 04:49:46 GMT 49.387436 6.381648 9,150 151 318 2432
2020-09-30 04:49:43 GMT 49.390575 6.379154 8,975 151 317 2432
2020-09-30 04:49:40 GMT 49.395218 6.375310 8,975 151 317 2432
2020-09-30 04:49:37 GMT 49.399246 6.372000 8,725 151 316 2240
2020-09-30 04:49:33 GMT 49.404282 6.367915 8,500 151 314 2240
2020-09-30 04:49:30 GMT 49.408264 6.364676 8,525 151 314 2240
2020-09-30 04:49:27 GMT 49.412247 6.361436 8,400 151 314 2240
2020-09-30 04:49:23 GMT 49.417900 6.356820 8,200 151 313 2368
2020-09-30 04:49:20 GMT 49.421082 6.354182 8,200 151 313 2368
2020-09-30 04:49:16 GMT 49.425018 6.350943 8,000 151 312 2432
2020-09-30 04:49:11 GMT 49.433308 6.344085 7,800 151 311 2496
2020-09-30 04:49:08 GMT 49.439255 6.339184 7,625 151 310 2496
2020-09-30 04:49:05 GMT 49.439255 6.339184 7,550 151 310 2432
2020-09-30 04:49:00 GMT 49.446857 6.332950 7,250 151 308 2304
2020-09-30 04:48:57 GMT 49.449371 6.330944 7,025 151 308 2304
2020-09-30 04:48:52 GMT 49.456329 6.325306 7,050 151 308 2304
2020-09-30 04:48:49 GMT 49.459564 6.322558 6,925 149 307 2176
2020-09-30 04:48:42 GMT 49.468876 6.313427 6,600 141 303 2112
2020-09-30 04:48:39 GMT 49.471668 6.310161 6,575 141 303 2112
2020-09-30 04:48:36 GMT 49.474789 6.306152 5,275 116 277 1664
2020-09-30 04:48:32 GMT 49.478851 6.300298 6,225 132 302 2432
2020-09-30 04:48:29 GMT 49.482098 6.295018 6,150 130 301 2240
2020-09-30 04:48:25 GMT 49.484848 6.289890 6,050 126 301 1984
2020-09-30 04:48:21 GMT 49.488705 6.281285 5,825 120 299 1984
2020-09-30 04:48:18 GMT 49.490242 6.277202 5,825 118 299 2112
2020-09-30 04:48:12 GMT 49.494736 6.264303 5,550 117 296 1984
2020-09-30 04:48:09 GMT 49.496666 6.258718 5,475 117 296 1920
2020-09-30 04:48:02 GMT 49.500858 6.245950 5,250 116 292 1600
2020-09-30 04:47:59 GMT 49.502838 6.239873 5,200 116 290 1472
2020-09-30 04:47:54 GMT 49.505814 6.230621 4,900 116 277 1664
2020-09-30 04:47:51 GMT 49.507004 6.227007 5,050 116 284 960
2020-09-30 04:47:48 GMT 49.508881 6.221442 5,025 117 282 1024
2020-09-30 04:47:44 GMT 49.511353 6.213997 4,900 116 277 1664
2020-09-30 04:47:40 GMT 49.515198 6.201565 4,750 113 276 2048
2020-09-30 04:47:37 GMT 49.515198 6.201565 4,675 111 275 1920
2020-09-30 04:47:31 GMT 49.518356 6.188772 4,475 107 273 1728
2020-09-30 04:47:28 GMT 49.519180 6.184725 4,400 106 273 1600
2020-09-30 04:47:25 GMT 49.520409 6.177954 4,325 102 271 1408
2020-09-30 04:47:22 GMT 49.521332 6.170992 4,250 98 269 1152
2020-09-30 04:47:18 GMT 49.521881 6.165715 4,200 95 267 1024
2020-09-30 04:47:10 GMT 49.522385 6.151404 4,025 90 261 1280
2020-09-30 04:47:07 GMT 49.522411 6.146182 3,825 96 257 1152
2020-09-30 04:47:00 GMT 49.523071 6.131889 3,825 101 254 1088
2020-09-30 04:46:56 GMT 49.523945 6.126066 3,775 105 253 1024
2020-09-30 04:46:50 GMT 49.526878 6.115228 3,700 118 247 704
2020-09-30 04:46:47 GMT 49.528610 6.110784 3,650 124 242 1152
2020-09-30 04:46:40 GMT 49.533489 6.101495 3,475 138 238 1408
2020-09-30 04:46:37 GMT 49.535889 6.098135 3,400 142 238 1280
2020-09-30 04:46:30 GMT 49.542427 6.091474 3,275 154 233 896
2020-09-30 04:46:27 GMT 49.545090 6.089606 3,225 157 233 768
2020-09-30 04:46:17 GMT 49.555801 6.085631 3,150 176 225 320
2020-09-30 04:46:10 GMT 49.562862 6.085832 3,125 189 217 -64
2020-09-30 04:46:06 GMT 49.566029 6.086723 3,125 194 214 128
2020-09-30 04:46:00 GMT 49.573059 6.090112 3,075 204 209 384
2020-09-30 04:45:57 GMT 49.575481 6.091919 3,075 209 207 384
2020-09-30 04:45:49 GMT 49.581253 6.097635 3,025 220 203 384
2020-09-30 04:45:46 GMT 49.583302 6.100381 3,000 226 201 384
2020-09-30 04:45:39 GMT 49.588348 6.109410 2,925 236 198 512
2020-09-30 04:45:36 GMT 49.589352 6.111813 2,925 240 196 576
2020-09-30 04:45:29 GMT 49.592285 6.119607 2,825 241 193 1216
2020-09-30 04:45:25 GMT 49.593960 6.124210 2,750 241 192 1536
2020-09-30 04:45:18 GMT 49.597221 6.132969 2,575 241 191 1408
2020-09-30 04:45:15 GMT 49.598431 6.136161 2,500 241 190 1472
2020-09-30 04:45:12 GMT 49.599686 6.139576 2,425 241 190 1536
2020-09-30 04:45:08 GMT 49.601501 6.144327 2,325 241 190 1664
2020-09-30 04:45:05 GMT 49.602814 6.147862 2,250 240 189 1792
2020-09-30 04:44:58 GMT 49.605972 6.156130 2,050 240 189 1472
2020-09-30 04:44:55 GMT 49.607300 6.159644 1,975 240 188 1472
2020-09-30 04:44:48 GMT 49.610321 6.167450 1,775 241 189 2176
2020-09-30 04:44:45 GMT 49.611740 6.171281 1,650 241 189 2112
2020-09-30 04:44:38 GMT 49.614586 6.179216 1,475 242 192 1728
2020-09-30 04:44:35 GMT 49.616043 6.183279 1,375 241 192 1728
2020-09-30 04:44:29 GMT 49.618927 6.191230 1,150 241 193 896
2020-09-30 04:44:21 GMT 49.621986 6.199555 1,125 241 182 -128
2020-09-30 04:44:18 GMT 49.623322 6.203083 1,175 240 169 -320
2020-09-30 04:44:15 GMT 49.624638 6.206607 1,175 241 162 128
2020-09-30 04:44:08 GMT 49.627151 6.213437 1,150 241 146 128
2020-09-30 04:44:04 GMT 49.628220 6.216238 1,150 241 132 64
2020-09-30 04:43:58 GMT 49.630131 6.221454 1,150 241 112 64
2020-09-30 04:43:48 GMT 49.632576 6.228023 0 241 84
2020-09-30 04:43:37 GMT 49.634262 6.232555 0 239 48
2020-09-30 04:43:28 GMT 49.634975 6.234463 0 239 11
2020-09-30 04:43:18 GMT 49.635086 6.234759 0 239 0
2020-09-30 04:43:08 GMT 49.635078 6.234760 0 239 3
2020-09-30 04:42:57 GMT 49.635155 6.235030 0 222 5
2020-09-30 04:42:47 GMT 49.635281 6.235301 0 180 6
2020-09-30 04:42:37 GMT 49.635532 6.235279 0 151 6
2020-09-30 04:42:27 GMT 49.635773 6.235085 0 151 6
2020-09-30 04:42:17 GMT 49.636036 6.234868 0 151 7
2020-09-30 04:42:07 GMT 49.636311 6.234651 0 143 8
2020-09-30 04:41:56 GMT 49.636593 6.234333 0 112 8
2020-09-30 04:41:47 GMT 49.636707 6.233850 0 64 8
2020-09-30 04:41:37 GMT 49.636505 6.233260 0 59 12
2020-09-30 04:41:23 GMT 49.636173 6.232356 0 59 11
2020-09-30 04:41:16 GMT 49.636009 6.231902 0 61 11
2020-09-30 04:41:07 GMT 49.635765 6.231252 0 59 10
2020-09-30 04:40:56 GMT 49.635567 6.230733 0 59 8
2020-09-30 04:40:46 GMT 49.635426 6.230343 0 59 5
2020-09-30 04:40:36 GMT 49.635338 6.230115 0 59 3
2020-09-30 04:40:25 GMT 49.635300 6.229990 0 61 0
2020-09-30 04:40:10 GMT 49.635288 6.229953 0 61 0
2020-09-30 04:39:05 GMT 49.635281 6.229953 0 61 0
2020-09-30 04:38:55 GMT 49.635288 6.229953 0 61 0
2020-09-30 04:38:45 GMT 49.635281 6.229953 0 61 0
2020-09-30 04:38:34 GMT 49.635277 6.229935 0 61 5
2020-09-30 04:38:24 GMT 49.635143 6.229591 0 67 6
2020-09-30 04:38:14 GMT 49.635029 6.229248 0 90 6
2020-09-30 04:38:04 GMT 49.635006 6.228851 0 126 7
2020-09-30 04:37:54 GMT 49.635246 6.228453 0 151 7
2020-09-30 04:37:44 GMT 49.635475 6.228272 0 149 4
2020-09-30 04:37:31 GMT 49.635601 6.228153 0 149 0
2020-09-30 04:37:21 GMT 49.635624 6.228146 0 149 0
2020-09-30 04:36:56 GMT 49.635624 6.228135 0 149 0
2020-09-30 04:36:51 GMT 49.635624 6.228146 0 149 0
2020-09-30 04:36:41 GMT 49.635624 6.228135 0 149 0
2020-09-30 04:36:31 GMT 49.635624 6.228146 0 149 0
2020-09-30 04:36:21 GMT 49.635624 6.228135 0 149 0
2020-09-30 04:35:57 GMT 49.635624 6.228146 0 149 0
2020-09-30 04:35:51 GMT 49.635624 6.228135 0 149 0
2020-09-30 04:35:41 GMT 49.635624 6.228146 0 149 0
2020-09-30 04:35:16 GMT 49.635624 6.228135 0 149 0
2020-09-30 04:35:11 GMT 49.635624 6.228146 0 149 0
2020-09-30 04:34:41 GMT 49.635624 6.228135 0 149 0
2020-09-30 04:34:21 GMT 49.635624 6.228146 0 149 0
2020-09-30 04:34:11 GMT 49.635624 6.228135 0 149 0
2020-09-30 04:33:56 GMT 49.635624 6.228135 0 149 0
2020-09-30 04:33:51 GMT 49.635624 6.228146 0 149 0
2020-09-30 04:33:42 GMT 49.635624 6.228135 0 149 0
2020-09-30 04:33:31 GMT 49.635624 6.228146 0 149 0
2020-09-30 04:33:21 GMT 49.635624 6.228128 0 149 0
2020-09-30 04:33:12 GMT 49.635681 6.228079 0 151 3
2020-09-30 04:33:01 GMT 49.635788 6.227986 0 154 3
2020-09-30 04:32:51 GMT 49.635921 6.227875 0 154 4
2020-09-30 04:32:41 GMT 49.636059 6.227766 0 157 4
2020-09-30 04:32:30 GMT 49.636162 6.227726 0 151 0
2020-09-30 04:32:21 GMT 49.636135 6.227745 0 151 3
2020-09-30 04:32:11 GMT 49.636044 6.227912 0 140 4
2020-09-30 04:32:00 GMT 49.636032 6.228246 0 106 5
2020-09-30 04:31:50 GMT 49.636066 6.228543 0 87 5
2020-09-30 04:31:39 GMT 49.636185 6.228803 0 64 4

Making use of Plane Finder data

You are free to use the raw flight data, aircraft information and images provided in this report for your own purposes provided the data is correctly attributed to Plane Finder. We ask that you please credit Plane Finder and link to planefinder.net in close proximity to the content.

Optionally one of the following logos (no smaller then 150x24px) can be used and must link to planefinder.net

Embedding the Plane Finder map

You are welcome to embed the Plane Finder playback map on your website to offer visitors a more interactive experience. We suggest using the following HTML code:

<iframe src="//planefinder.net/data/report/CV7142-LX-SCV-7700-squawk-2020-09-30/map" width="800" height="600" seamless="seamless"></iframe>

Where our data comes from

Plane Finder has a global network of data feeds and antenna radars that receive data broadcast directly from aircraft. The primary technologies used are ADS-B and MLAT. We also show feeds from the FAA and a FLARM glider feed.

Click here to find out more about the Plane Finder network.

How we collect our data